<?xml version="1.0" encoding="utf-8"?>
<gpx xmlns:xsi="http://www.w3.org/2001/XMLSchema-instance" xmlns:xsd="http://www.w3.org/2001/XMLSchema" version="1.1" creator="Shapelink.com" xmlns="http://www.topografix.com/GPX/1/1" xmlns:gpxtpx="http://www.garmin.com/xmlschemas/TrackPointExtension/v1">
  <metadata>
    <name>Løping 12.64 km, 2014-06-24</name>
    <desc></desc>
    <author><name>Dennis Rehn</name></author> 
    <time>2014-06-24T17:09:55Z</time>
  </metadata>
  <trk>
    <name>Løping 12.64 km, 2014-06-24</name>
    <trkseg>
      <trkpt lat="60.097943295997" lon="23.601251106">
        <ele>30.4</ele>
        <time>2014-06-24T17:09:55Z</time>
      </trkpt>
      <trkpt lat="60.097889065104" lon="23.60112202474">
        <ele>30.4</ele>
        <time>2014-06-24T17:10:00Z</time>
      </trkpt>
      <trkpt lat="60.097745902252" lon="23.600868388446">
        <ele>30.4</ele>
        <time>2014-06-24T17:10:06Z</time>
      </trkpt>
      <trkpt lat="60.09764632528" lon="23.600766715999">
        <ele>30.4</ele>
        <time>2014-06-24T17:10:10Z</time>
      </trkpt>
      <trkpt lat="60.097527218481" lon="23.600658421851">
        <ele>29.8</ele>
        <time>2014-06-24T17:10:14Z</time>
      </trkpt>
      <trkpt lat="60.09750048022" lon="23.60059647961">
        <ele>29.6</ele>
        <time>2014-06-24T17:10:16Z</time>
      </trkpt>
      <trkpt lat="60.097471646484" lon="23.600327672077">
        <ele>29</ele>
        <time>2014-06-24T17:10:22Z</time>
      </trkpt>
      <trkpt lat="60.097476591805" lon="23.600109407401">
        <ele>28.6</ele>
        <time>2014-06-24T17:10:27Z</time>
      </trkpt>
      <trkpt lat="60.097506682826" lon="23.599832385606">
        <ele>28.4</ele>
        <time>2014-06-24T17:10:33Z</time>
      </trkpt>
      <trkpt lat="60.097526045015" lon="23.599565589729">
        <ele>28.4</ele>
        <time>2014-06-24T17:10:39Z</time>
      </trkpt>
      <trkpt lat="60.097556722769" lon="23.59931656348">
        <ele>28.4</ele>
        <time>2014-06-24T17:10:45Z</time>
      </trkpt>
      <trkpt lat="60.097551693629" lon="23.599267864641">
        <ele>28.2</ele>
        <time>2014-06-24T17:10:46Z</time>
      </trkpt>
      <trkpt lat="60.097565691402" lon="23.599095868053">
        <ele>28.2</ele>
        <time>2014-06-24T17:10:50Z</time>
      </trkpt>
      <trkpt lat="60.097608942006" lon="23.598863018871">
        <ele>28.2</ele>
        <time>2014-06-24T17:10:54Z</time>
      </trkpt>
      <trkpt lat="60.097660071596" lon="23.598596139175">
        <ele>28.6</ele>
        <time>2014-06-24T17:11:00Z</time>
      </trkpt>
      <trkpt lat="60.097684211468" lon="23.598475104539">
        <ele>29</ele>
        <time>2014-06-24T17:11:03Z</time>
      </trkpt>
      <trkpt lat="60.097698460698" lon="23.598264718849">
        <ele>29.4</ele>
        <time>2014-06-24T17:11:07Z</time>
      </trkpt>
      <trkpt lat="60.097700220897" lon="23.597983757561">
        <ele>29.8</ele>
        <time>2014-06-24T17:11:12Z</time>
      </trkpt>
      <trkpt lat="60.097704244209" lon="23.597921060949">
        <ele>29.8</ele>
        <time>2014-06-24T17:11:13Z</time>
      </trkpt>
      <trkpt lat="60.097709357168" lon="23.597819723778">
        <ele>30.2</ele>
        <time>2014-06-24T17:11:14Z</time>
      </trkpt>
      <trkpt lat="60.097684127649" lon="23.597473635127">
        <ele>31.2</ele>
        <time>2014-06-24T17:11:21Z</time>
      </trkpt>
      <trkpt lat="60.09769326392" lon="23.597414207456">
        <ele>31.4</ele>
        <time>2014-06-24T17:11:22Z</time>
      </trkpt>
      <trkpt lat="60.097708016064" lon="23.597150848158">
        <ele>32</ele>
        <time>2014-06-24T17:11:27Z</time>
      </trkpt>
      <trkpt lat="60.097707345512" lon="23.596858822762">
        <ele>33</ele>
        <time>2014-06-24T17:11:32Z</time>
      </trkpt>
      <trkpt lat="60.097705166218" lon="23.596792354295">
        <ele>33.2</ele>
        <time>2014-06-24T17:11:33Z</time>
      </trkpt>
      <trkpt lat="60.0977284679" lon="23.596559421294">
        <ele>34.2</ele>
        <time>2014-06-24T17:11:37Z</time>
      </trkpt>
      <trkpt lat="60.09783910898" lon="23.596339815514">
        <ele>35.6</ele>
        <time>2014-06-24T17:11:43Z</time>
      </trkpt>
      <trkpt lat="60.097946313481" lon="23.596227162778">
        <ele>37</ele>
        <time>2014-06-24T17:11:48Z</time>
      </trkpt>
      <trkpt lat="60.098118812983" lon="23.596158934112">
        <ele>37.8</ele>
        <time>2014-06-24T17:11:54Z</time>
      </trkpt>
      <trkpt lat="60.0982900552" lon="23.596142757045">
        <ele>39</ele>
        <time>2014-06-24T17:11:59Z</time>
      </trkpt>
      <trkpt lat="60.098476301018" lon="23.596152731506">
        <ele>40</ele>
        <time>2014-06-24T17:12:06Z</time>
      </trkpt>
      <trkpt lat="60.098650812176" lon="23.596214003195">
        <ele>40.8</ele>
        <time>2014-06-24T17:12:12Z</time>
      </trkpt>
      <trkpt lat="60.098833118501" lon="23.596256080333">
        <ele>41.8</ele>
        <time>2014-06-24T17:12:18Z</time>
      </trkpt>
      <trkpt lat="60.099020202509" lon="23.596293379788">
        <ele>42.4</ele>
        <time>2014-06-24T17:12:24Z</time>
      </trkpt>
      <trkpt lat="60.099184487749" lon="23.596328583768">
        <ele>43.6</ele>
        <time>2014-06-24T17:12:30Z</time>
      </trkpt>
      <trkpt lat="60.099367464626" lon="23.596364793576">
        <ele>44.4</ele>
        <time>2014-06-24T17:12:37Z</time>
      </trkpt>
      <trkpt lat="60.099501575026" lon="23.596416006985">
        <ele>44.6</ele>
        <time>2014-06-24T17:12:42Z</time>
      </trkpt>
      <trkpt lat="60.099619675997" lon="23.596503849297">
        <ele>44.8</ele>
        <time>2014-06-24T17:12:48Z</time>
      </trkpt>
      <trkpt lat="60.099750014542" lon="23.59658657865">
        <ele>45</ele>
        <time>2014-06-24T17:12:54Z</time>
      </trkpt>
      <trkpt lat="60.099817991751" lon="23.596625219209">
        <ele>45.6</ele>
        <time>2014-06-24T17:12:57Z</time>
      </trkpt>
      <trkpt lat="60.09993374579" lon="23.596672744582">
        <ele>46.2</ele>
        <time>2014-06-24T17:13:02Z</time>
      </trkpt>
      <trkpt lat="60.10011479483" lon="23.59680702262">
        <ele>47.8</ele>
        <time>2014-06-24T17:13:09Z</time>
      </trkpt>
      <trkpt lat="60.100255359293" lon="23.596905845221">
        <ele>49</ele>
        <time>2014-06-24T17:13:16Z</time>
      </trkpt>
      <trkpt lat="60.100422326741" lon="23.597025538753">
        <ele>50.2</ele>
        <time>2014-06-24T17:13:22Z</time>
      </trkpt>
      <trkpt lat="60.100514192365" lon="23.597085804614">
        <ele>51.4</ele>
        <time>2014-06-24T17:13:27Z</time>
      </trkpt>
      <trkpt lat="60.100664563651" lon="23.597189740174">
        <ele>52.6</ele>
        <time>2014-06-24T17:13:33Z</time>
      </trkpt>
      <trkpt lat="60.100819042068" lon="23.597269368224">
        <ele>54</ele>
        <time>2014-06-24T17:13:39Z</time>
      </trkpt>
      <trkpt lat="60.100976035055" lon="23.597322174194">
        <ele>54.8</ele>
        <time>2014-06-24T17:13:44Z</time>
      </trkpt>
      <trkpt lat="60.10110804998" lon="23.597352851948">
        <ele>55.2</ele>
        <time>2014-06-24T17:13:49Z</time>
      </trkpt>
      <trkpt lat="60.101256493429" lon="23.597371711223">
        <ele>55.4</ele>
        <time>2014-06-24T17:13:54Z</time>
      </trkpt>
      <trkpt lat="60.101408038181" lon="23.597354695966">
        <ele>55.4</ele>
        <time>2014-06-24T17:14:00Z</time>
      </trkpt>
      <trkpt lat="60.101598055854" lon="23.597295771209">
        <ele>55.6</ele>
        <time>2014-06-24T17:14:08Z</time>
      </trkpt>
      <trkpt lat="60.101709954219" lon="23.597190494545">
        <ele>55.6</ele>
        <time>2014-06-24T17:14:12Z</time>
      </trkpt>
      <trkpt lat="60.101784972224" lon="23.597156715488">
        <ele>55.6</ele>
        <time>2014-06-24T17:14:15Z</time>
      </trkpt>
      <trkpt lat="60.101965769807" lon="23.597084128234">
        <ele>55.6</ele>
        <time>2014-06-24T17:14:21Z</time>
      </trkpt>
      <trkpt lat="60.101988736213" lon="23.597089911745">
        <ele>55.6</ele>
        <time>2014-06-24T17:14:22Z</time>
      </trkpt>
      <trkpt lat="60.102057551612" lon="23.597282863083">
        <ele>55.4</ele>
        <time>2014-06-24T17:14:26Z</time>
      </trkpt>
      <trkpt lat="60.102030394256" lon="23.597404987366">
        <ele>54.6</ele>
        <time>2014-06-24T17:14:31Z</time>
      </trkpt>
      <trkpt lat="60.102010529153" lon="23.597504564338">
        <ele>54.4</ele>
        <time>2014-06-24T17:14:33Z</time>
      </trkpt>
      <trkpt lat="60.101932661302" lon="23.597668514302">
        <ele>54.2</ele>
        <time>2014-06-24T17:14:37Z</time>
      </trkpt>
      <trkpt lat="60.101836353271" lon="23.597922988786">
        <ele>53.8</ele>
        <time>2014-06-24T17:14:42Z</time>
      </trkpt>
      <trkpt lat="60.101753623918" lon="23.598116694495">
        <ele>53</ele>
        <time>2014-06-24T17:14:46Z</time>
      </trkpt>
      <trkpt lat="60.101634181843" lon="23.59831241186">
        <ele>52.4</ele>
        <time>2014-06-24T17:14:51Z</time>
      </trkpt>
      <trkpt lat="60.101587159384" lon="23.598383825648">
        <ele>52.2</ele>
        <time>2014-06-24T17:14:53Z</time>
      </trkpt>
      <trkpt lat="60.101460592694" lon="23.598684232944">
        <ele>51.8</ele>
        <time>2014-06-24T17:15:00Z</time>
      </trkpt>
      <trkpt lat="60.101350622166" lon="23.598988160638">
        <ele>51.6</ele>
        <time>2014-06-24T17:15:07Z</time>
      </trkpt>
      <trkpt lat="60.101285830079" lon="23.599322514629">
        <ele>51.6</ele>
        <time>2014-06-24T17:15:13Z</time>
      </trkpt>
      <trkpt lat="60.101227827331" lon="23.599639098992">
        <ele>51.4</ele>
        <time>2014-06-24T17:15:18Z</time>
      </trkpt>
      <trkpt lat="60.101140571752" lon="23.599967585653">
        <ele>51.4</ele>
        <time>2014-06-24T17:15:24Z</time>
      </trkpt>
      <trkpt lat="60.10101501089" lon="23.60050427871">
        <ele>52.6</ele>
        <time>2014-06-24T17:15:33Z</time>
      </trkpt>
      <trkpt lat="60.100948542423" lon="23.600848607162">
        <ele>53.4</ele>
        <time>2014-06-24T17:15:40Z</time>
      </trkpt>
      <trkpt lat="60.100903783077" lon="23.601174495434">
        <ele>54.4</ele>
        <time>2014-06-24T17:15:46Z</time>
      </trkpt>
      <trkpt lat="60.100845947967" lon="23.601472304341">
        <ele>55</ele>
        <time>2014-06-24T17:15:52Z</time>
      </trkpt>
      <trkpt lat="60.100804038467" lon="23.601643462739">
        <ele>55.2</ele>
        <time>2014-06-24T17:15:57Z</time>
      </trkpt>
      <trkpt lat="60.100712340481" lon="23.601996089272">
        <ele>55.4</ele>
        <time>2014-06-24T17:16:04Z</time>
      </trkpt>
      <trkpt lat="60.100647799851" lon="23.602172025353">
        <ele>55.4</ele>
        <time>2014-06-24T17:16:10Z</time>
      </trkpt>
      <trkpt lat="60.100619636667" lon="23.602214270129">
        <ele>55.4</ele>
        <time>2014-06-24T17:16:12Z</time>
      </trkpt>
      <trkpt lat="60.10055735915" lon="23.602354666954">
        <ele>55.4</ele>
        <time>2014-06-24T17:16:17Z</time>
      </trkpt>
      <trkpt lat="60.100494662538" lon="23.602496572521">
        <ele>55.4</ele>
        <time>2014-06-24T17:16:21Z</time>
      </trkpt>
      <trkpt lat="60.100471109399" lon="23.60257041706">
        <ele>55.4</ele>
        <time>2014-06-24T17:16:23Z</time>
      </trkpt>
      <trkpt lat="60.100409586253" lon="23.60272799678">
        <ele>56.4</ele>
        <time>2014-06-24T17:16:30Z</time>
      </trkpt>
      <trkpt lat="60.100349907125" lon="23.602901166834">
        <ele>57</ele>
        <time>2014-06-24T17:16:36Z</time>
      </trkpt>
      <trkpt lat="60.100282516649" lon="23.603032930302">
        <ele>58</ele>
        <time>2014-06-24T17:16:41Z</time>
      </trkpt>
      <trkpt lat="60.100190818663" lon="23.603213057333">
        <ele>59.4</ele>
        <time>2014-06-24T17:16:47Z</time>
      </trkpt>
      <trkpt lat="60.100090152044" lon="23.603353118882">
        <ele>60.4</ele>
        <time>2014-06-24T17:16:53Z</time>
      </trkpt>
      <trkpt lat="60.100003064103" lon="23.603437273158">
        <ele>61.8</ele>
        <time>2014-06-24T17:16:58Z</time>
      </trkpt>
      <trkpt lat="60.099855710301" lon="23.60368856252">
        <ele>63.2</ele>
        <time>2014-06-24T17:17:08Z</time>
      </trkpt>
      <trkpt lat="60.099804329254" lon="23.603857206348">
        <ele>64.4</ele>
        <time>2014-06-24T17:17:14Z</time>
      </trkpt>
      <trkpt lat="60.099805754177" lon="23.603883609333">
        <ele>64.6</ele>
        <time>2014-06-24T17:17:15Z</time>
      </trkpt>
      <trkpt lat="60.09983735394" lon="23.603936918217">
        <ele>65</ele>
        <time>2014-06-24T17:17:18Z</time>
      </trkpt>
      <trkpt lat="60.099943049699" lon="23.603981258468">
        <ele>65.4</ele>
        <time>2014-06-24T17:17:21Z</time>
      </trkpt>
      <trkpt lat="60.100095600279" lon="23.60399366368">
        <ele>66</ele>
        <time>2014-06-24T17:17:27Z</time>
      </trkpt>
      <trkpt lat="60.100228118118" lon="23.604011098032">
        <ele>67</ele>
        <time>2014-06-24T17:17:32Z</time>
      </trkpt>
      <trkpt lat="60.100377399757" lon="23.604192985262">
        <ele>67.6</ele>
        <time>2014-06-24T17:17:40Z</time>
      </trkpt>
      <trkpt lat="60.100430960098" lon="23.604352660457">
        <ele>68.4</ele>
        <time>2014-06-24T17:17:44Z</time>
      </trkpt>
      <trkpt lat="60.100467337544" lon="23.604603363086">
        <ele>69.2</ele>
        <time>2014-06-24T17:17:50Z</time>
      </trkpt>
      <trkpt lat="60.100450406106" lon="23.604945931339">
        <ele>70.6</ele>
        <time>2014-06-24T17:17:57Z</time>
      </trkpt>
      <trkpt lat="60.100375891015" lon="23.605415904472">
        <ele>72.6</ele>
        <time>2014-06-24T17:18:08Z</time>
      </trkpt>
      <trkpt lat="60.100335657895" lon="23.605628720913">
        <ele>73.8</ele>
        <time>2014-06-24T17:18:13Z</time>
      </trkpt>
      <trkpt lat="60.100290982368" lon="23.605729722808">
        <ele>74.8</ele>
        <time>2014-06-24T17:18:17Z</time>
      </trkpt>
      <trkpt lat="60.100213952707" lon="23.605999117074">
        <ele>76.2</ele>
        <time>2014-06-24T17:18:24Z</time>
      </trkpt>
      <trkpt lat="60.100163828945" lon="23.606236995396">
        <ele>77.2</ele>
        <time>2014-06-24T17:18:29Z</time>
      </trkpt>
      <trkpt lat="60.10006115067" lon="23.606461211221">
        <ele>78.4</ele>
        <time>2014-06-24T17:18:35Z</time>
      </trkpt>
      <trkpt lat="60.099940618948" lon="23.606625831737">
        <ele>79.6</ele>
        <time>2014-06-24T17:18:41Z</time>
      </trkpt>
      <trkpt lat="60.099830145506" lon="23.60673203041">
        <ele>80.4</ele>
        <time>2014-06-24T17:18:46Z</time>
      </trkpt>
      <trkpt lat="60.099712882725" lon="23.60676974896">
        <ele>81.4</ele>
        <time>2014-06-24T17:18:51Z</time>
      </trkpt>
      <trkpt lat="60.099525379622" lon="23.606666483952">
        <ele>82.2</ele>
        <time>2014-06-24T17:18:59Z</time>
      </trkpt>
      <trkpt lat="60.099424210089" lon="23.606570511197">
        <ele>82.6</ele>
        <time>2014-06-24T17:19:05Z</time>
      </trkpt>
      <trkpt lat="60.099419264768" lon="23.606508652775">
        <ele>82.6</ele>
        <time>2014-06-24T17:19:10Z</time>
      </trkpt>
      <trkpt lat="60.099420522053" lon="23.606489709681">
        <ele>82.6</ele>
        <time>2014-06-24T17:19:11Z</time>
      </trkpt>
      <trkpt lat="60.099474669127" lon="23.606404633396">
        <ele>82.8</ele>
        <time>2014-06-24T17:19:17Z</time>
      </trkpt>
      <trkpt lat="60.099498808999" lon="23.606362472439">
        <ele>82.8</ele>
        <time>2014-06-24T17:19:20Z</time>
      </trkpt>
      <trkpt lat="60.099558655765" lon="23.606324502432">
        <ele>83.4</ele>
        <time>2014-06-24T17:19:26Z</time>
      </trkpt>
      <trkpt lat="60.099595368487" lon="23.606271947919">
        <ele>84</ele>
        <time>2014-06-24T17:19:31Z</time>
      </trkpt>
      <trkpt lat="60.099603079835" lon="23.606243952373">
        <ele>84.2</ele>
        <time>2014-06-24T17:19:32Z</time>
      </trkpt>
      <trkpt lat="60.099634428141" lon="23.606206401461">
        <ele>84.8</ele>
        <time>2014-06-24T17:19:36Z</time>
      </trkpt>
      <trkpt lat="60.099698968771" lon="23.606161306839">
        <ele>86</ele>
        <time>2014-06-24T17:19:43Z</time>
      </trkpt>
      <trkpt lat="60.099717157494" lon="23.606131467275">
        <ele>86.6</ele>
        <time>2014-06-24T17:19:45Z</time>
      </trkpt>
      <trkpt lat="60.099702740626" lon="23.606049240836">
        <ele>87.8</ele>
        <time>2014-06-24T17:19:50Z</time>
      </trkpt>
      <trkpt lat="60.099678349297" lon="23.606028789">
        <ele>89.6</ele>
        <time>2014-06-24T17:19:56Z</time>
      </trkpt>
      <trkpt lat="60.099687988482" lon="23.605938096842">
        <ele>90.4</ele>
        <time>2014-06-24T17:20:03Z</time>
      </trkpt>
      <trkpt lat="60.099688407577" lon="23.605897779903">
        <ele>91.2</ele>
        <time>2014-06-24T17:20:07Z</time>
      </trkpt>
      <trkpt lat="60.099700812789" lon="23.60579744856">
        <ele>92.4</ele>
        <time>2014-06-24T17:20:14Z</time>
      </trkpt>
      <trkpt lat="60.09969067069" lon="23.605753192128">
        <ele>93</ele>
        <time>2014-06-24T17:20:21Z</time>
      </trkpt>
      <trkpt lat="60.099683881351" lon="23.605754868508">
        <ele>94.2</ele>
        <time>2014-06-24T17:20:33Z</time>
      </trkpt>
      <trkpt lat="60.099694191088" lon="23.605768866281">
        <ele>94.8</ele>
        <time>2014-06-24T17:20:38Z</time>
      </trkpt>
      <trkpt lat="60.099749763085" lon="23.605757718354">
        <ele>95</ele>
        <time>2014-06-24T17:20:44Z</time>
      </trkpt>
      <trkpt lat="60.099816566828" lon="23.605723184926">
        <ele>95.2</ele>
        <time>2014-06-24T17:20:49Z</time>
      </trkpt>
      <trkpt lat="60.099840539062" lon="23.605586979051">
        <ele>95.4</ele>
        <time>2014-06-24T17:20:52Z</time>
      </trkpt>
      <trkpt lat="60.099758983175" lon="23.605443900018">
        <ele>95.4</ele>
        <time>2014-06-24T17:20:56Z</time>
      </trkpt>
      <trkpt lat="60.0997485058" lon="23.605419173413">
        <ele>95.4</ele>
        <time>2014-06-24T17:20:57Z</time>
      </trkpt>
      <trkpt lat="60.099682959342" lon="23.605148270405">
        <ele>95.4</ele>
        <time>2014-06-24T17:21:02Z</time>
      </trkpt>
      <trkpt lat="60.099594865573" lon="23.604685254249">
        <ele>95</ele>
        <time>2014-06-24T17:21:09Z</time>
      </trkpt>
      <trkpt lat="60.099498557542" lon="23.604470258514">
        <ele>94.6</ele>
        <time>2014-06-24T17:21:12Z</time>
      </trkpt>
      <trkpt lat="60.09948279957" lon="23.60445047723">
        <ele>94.4</ele>
        <time>2014-06-24T17:21:13Z</time>
      </trkpt>
      <trkpt lat="60.099322370004" lon="23.604544103053">
        <ele>93</ele>
        <time>2014-06-24T17:21:19Z</time>
      </trkpt>
      <trkpt lat="60.099194713667" lon="23.60457369116">
        <ele>91.8</ele>
        <time>2014-06-24T17:21:23Z</time>
      </trkpt>
      <trkpt lat="60.099136208005" lon="23.604360036529">
        <ele>90.6</ele>
        <time>2014-06-24T17:21:27Z</time>
      </trkpt>
      <trkpt lat="60.099138722575" lon="23.604242019377">
        <ele>89.8</ele>
        <time>2014-06-24T17:21:29Z</time>
      </trkpt>
      <trkpt lat="60.099168562139" lon="23.603847986258">
        <ele>87.4</ele>
        <time>2014-06-24T17:21:36Z</time>
      </trkpt>
      <trkpt lat="60.099176776401" lon="23.603526121298">
        <ele>84.6</ele>
        <time>2014-06-24T17:21:42Z</time>
      </trkpt>
      <trkpt lat="60.099148780855" lon="23.603201490311">
        <ele>82.4</ele>
        <time>2014-06-24T17:21:47Z</time>
      </trkpt>
      <trkpt lat="60.098990279126" lon="23.602692625162">
        <ele>78.8</ele>
        <time>2014-06-24T17:21:55Z</time>
      </trkpt>
      <trkpt lat="60.098912159818" lon="23.602685165271">
        <ele>77.4</ele>
        <time>2014-06-24T17:21:58Z</time>
      </trkpt>
      <trkpt lat="60.09883906965" lon="23.602758339258">
        <ele>74.6</ele>
        <time>2014-06-24T17:22:04Z</time>
      </trkpt>
      <trkpt lat="60.098803614213" lon="23.602791866858">
        <ele>72</ele>
        <time>2014-06-24T17:22:10Z</time>
      </trkpt>
      <trkpt lat="60.098749718596" lon="23.602840649516">
        <ele>69.6</ele>
        <time>2014-06-24T17:22:15Z</time>
      </trkpt>
      <trkpt lat="60.098648549063" lon="23.602879122437">
        <ele>67.4</ele>
        <time>2014-06-24T17:22:20Z</time>
      </trkpt>
      <trkpt lat="60.098515025396" lon="23.602925306706">
        <ele>63.2</ele>
        <time>2014-06-24T17:22:28Z</time>
      </trkpt>
      <trkpt lat="60.098484347642" lon="23.602932347502">
        <ele>61.6</ele>
        <time>2014-06-24T17:22:31Z</time>
      </trkpt>
      <trkpt lat="60.098465320729" lon="23.602884067758">
        <ele>60.6</ele>
        <time>2014-06-24T17:22:33Z</time>
      </trkpt>
      <trkpt lat="60.098314278891" lon="23.602875602039">
        <ele>58.2</ele>
        <time>2014-06-24T17:22:38Z</time>
      </trkpt>
      <trkpt lat="60.098280080739" lon="23.602878451885">
        <ele>57.6</ele>
        <time>2014-06-24T17:22:39Z</time>
      </trkpt>
      <trkpt lat="60.098204308363" lon="23.602848528502">
        <ele>56.6</ele>
        <time>2014-06-24T17:22:41Z</time>
      </trkpt>
      <trkpt lat="60.09811152073" lon="23.602604279936">
        <ele>54.6</ele>
        <time>2014-06-24T17:22:45Z</time>
      </trkpt>
      <trkpt lat="60.098014877423" lon="23.602206810238">
        <ele>51.8</ele>
        <time>2014-06-24T17:22:51Z</time>
      </trkpt>
      <trkpt lat="60.097952348449" lon="23.601842197588">
        <ele>49.6</ele>
        <time>2014-06-24T17:22:56Z</time>
      </trkpt>
      <trkpt lat="60.097951174983" lon="23.601728371386">
        <ele>48.4</ele>
        <time>2014-06-24T17:22:58Z</time>
      </trkpt>
      <trkpt lat="60.097958215779" lon="23.60170456679">
        <ele>48</ele>
        <time>2014-06-24T17:23:00Z</time>
      </trkpt>
      <trkpt lat="60.09796148472" lon="23.60157548553">
        <ele>45.8</ele>
        <time>2014-06-24T17:23:06Z</time>
      </trkpt>
      <trkpt lat="60.097966597679" lon="23.601415726516">
        <ele>43.8</ele>
        <time>2014-06-24T17:23:12Z</time>
      </trkpt>
      <trkpt lat="60.097971543" lon="23.601401309648">
        <ele>43.6</ele>
        <time>2014-06-24T17:23:13Z</time>
      </trkpt>
      <trkpt lat="60.097982774746" lon="23.601331823697">
        <ele>42.4</ele>
        <time>2014-06-24T17:23:16Z</time>
      </trkpt>
      <trkpt lat="60.098027869368" lon="23.601341211425">
        <ele>41</ele>
        <time>2014-06-24T17:23:21Z</time>
      </trkpt>
      <trkpt lat="60.098054020896" lon="23.601385300219">
        <ele>39.8</ele>
        <time>2014-06-24T17:23:25Z</time>
      </trkpt>
      <trkpt lat="60.098061983701" lon="23.601370212799">
        <ele>35.8</ele>
        <time>2014-06-24T17:23:51Z</time>
      </trkpt>
      <trkpt lat="60.098005741152" lon="23.601381779821">
        <ele>35.6</ele>
        <time>2014-06-24T17:23:54Z</time>
      </trkpt>
      <trkpt lat="60.098000292917" lon="23.601447913012">
        <ele>35.4</ele>
        <time>2014-06-24T17:23:58Z</time>
      </trkpt>
      <trkpt lat="60.097993503578" lon="23.601458474206">
        <ele>35.4</ele>
        <time>2014-06-24T17:24:05Z</time>
      </trkpt>
      <trkpt lat="60.097990653732" lon="23.601470041228">
        <ele>35.4</ele>
        <time>2014-06-24T17:24:10Z</time>
      </trkpt>
      <trkpt lat="60.097985959868" lon="23.60147071178">
        <ele>35.4</ele>
        <time>2014-06-24T17:24:16Z</time>
      </trkpt>
      <trkpt lat="60.097998700356" lon="23.601468029572">
        <ele>35.4</ele>
        <time>2014-06-24T17:24:17Z</time>
      </trkpt>
      <trkpt lat="60.098023846056" lon="23.601412206118">
        <ele>35.4</ele>
        <time>2014-06-24T17:24:21Z</time>
      </trkpt>
      <trkpt lat="60.097975231036" lon="23.601440620759">
        <ele>35.2</ele>
        <time>2014-06-24T17:24:26Z</time>
      </trkpt>
      <trkpt lat="60.097963580195" lon="23.601447493917">
        <ele>35.2</ele>
        <time>2014-06-24T17:24:27Z</time>
      </trkpt>
      <trkpt lat="60.097933572993" lon="23.601544221043">
        <ele>35.2</ele>
        <time>2014-06-24T17:24:32Z</time>
      </trkpt>
      <trkpt lat="60.097928543853" lon="23.601631392803">
        <ele>35.2</ele>
        <time>2014-06-24T17:24:36Z</time>
      </trkpt>
      <trkpt lat="60.097886382896" lon="23.601793750206">
        <ele>34.2</ele>
        <time>2014-06-24T17:24:44Z</time>
      </trkpt>
      <trkpt lat="60.097880599385" lon="23.601808250893">
        <ele>34.2</ele>
        <time>2014-06-24T17:24:45Z</time>
      </trkpt>
      <trkpt lat="60.097867523621" lon="23.601872959161">
        <ele>33.8</ele>
        <time>2014-06-24T17:24:49Z</time>
      </trkpt>
      <trkpt lat="60.09778797939" lon="23.602022324619">
        <ele>33.6</ele>
        <time>2014-06-24T17:24:56Z</time>
      </trkpt>
      <trkpt lat="60.097700220897" lon="23.602172528267">
        <ele>33.4</ele>
        <time>2014-06-24T17:25:03Z</time>
      </trkpt>
      <trkpt lat="60.097588406351" lon="23.60233991481">
        <ele>32</ele>
        <time>2014-06-24T17:25:12Z</time>
      </trkpt>
      <trkpt lat="60.097509951767" lon="23.602468576975">
        <ele>31.2</ele>
        <time>2014-06-24T17:25:20Z</time>
      </trkpt>
      <trkpt lat="60.097425126939" lon="23.602686003461">
        <ele>30.2</ele>
        <time>2014-06-24T17:25:26Z</time>
      </trkpt>
      <trkpt lat="60.097341643215" lon="23.603022536746">
        <ele>29.2</ele>
        <time>2014-06-24T17:25:31Z</time>
      </trkpt>
      <trkpt lat="60.097259584414" lon="23.6033381991">
        <ele>28.4</ele>
        <time>2014-06-24T17:25:36Z</time>
      </trkpt>
      <trkpt lat="60.097266038477" lon="23.603556882871">
        <ele>27.6</ele>
        <time>2014-06-24T17:25:40Z</time>
      </trkpt>
      <trkpt lat="60.097298811706" lon="23.603641037147">
        <ele>26.6</ele>
        <time>2014-06-24T17:25:44Z</time>
      </trkpt>
      <trkpt lat="60.097364358164" lon="23.603743128689">
        <ele>25.8</ele>
        <time>2014-06-24T17:25:50Z</time>
      </trkpt>
      <trkpt lat="60.097388498036" lon="23.604135150152">
        <ele>21</ele>
        <time>2014-06-24T17:27:02Z</time>
      </trkpt>
      <trkpt lat="60.097422612369" lon="23.604168929209">
        <ele>21</ele>
        <time>2014-06-24T17:27:14Z</time>
      </trkpt>
      <trkpt lat="60.097517495477" lon="23.604228608337">
        <ele>21</ele>
        <time>2014-06-24T17:27:22Z</time>
      </trkpt>
      <trkpt lat="60.097632243688" lon="23.604335226105">
        <ele>21</ele>
        <time>2014-06-24T17:27:31Z</time>
      </trkpt>
      <trkpt lat="60.097724109312" lon="23.604404125323">
        <ele>21</ele>
        <time>2014-06-24T17:27:39Z</time>
      </trkpt>
      <trkpt lat="60.097810442882" lon="23.604473527455">
        <ele>21</ele>
        <time>2014-06-24T17:27:47Z</time>
      </trkpt>
      <trkpt lat="60.097881269937" lon="23.604543013406">
        <ele>21</ele>
        <time>2014-06-24T17:27:55Z</time>
      </trkpt>
      <trkpt lat="60.097891998769" lon="23.604550892392">
        <ele>21.2</ele>
        <time>2014-06-24T17:27:56Z</time>
      </trkpt>
      <trkpt lat="60.097981433642" lon="23.604615349203">
        <ele>22.2</ele>
        <time>2014-06-24T17:28:03Z</time>
      </trkpt>
      <trkpt lat="60.098027785549" lon="23.604663880404">
        <ele>23.2</ele>
        <time>2014-06-24T17:28:09Z</time>
      </trkpt>
      <trkpt lat="60.098117807155" lon="23.60471534527">
        <ele>25.4</ele>
        <time>2014-06-24T17:28:18Z</time>
      </trkpt>
      <trkpt lat="60.098149909832" lon="23.604730265052">
        <ele>26</ele>
        <time>2014-06-24T17:28:22Z</time>
      </trkpt>
      <trkpt lat="60.098194417721" lon="23.604778880072">
        <ele>27.4</ele>
        <time>2014-06-24T17:28:27Z</time>
      </trkpt>
      <trkpt lat="60.098257701066" lon="23.604806875618">
        <ele>28.4</ele>
        <time>2014-06-24T17:28:33Z</time>
      </trkpt>
      <trkpt lat="60.098287792087" lon="23.604835709354">
        <ele>29</ele>
        <time>2014-06-24T17:28:36Z</time>
      </trkpt>
      <trkpt lat="60.098331713243" lon="23.604836463725">
        <ele>30.4</ele>
        <time>2014-06-24T17:28:42Z</time>
      </trkpt>
      <trkpt lat="60.098351326889" lon="23.604861944701">
        <ele>30.6</ele>
        <time>2014-06-24T17:28:45Z</time>
      </trkpt>
      <trkpt lat="60.09837974153" lon="23.604871919162">
        <ele>31.8</ele>
        <time>2014-06-24T17:28:49Z</time>
      </trkpt>
      <trkpt lat="60.098484599099" lon="23.604959845293">
        <ele>35.4</ele>
        <time>2014-06-24T17:29:04Z</time>
      </trkpt>
      <trkpt lat="60.098521311821" lon="23.604999240223">
        <ele>37.2</ele>
        <time>2014-06-24T17:29:10Z</time>
      </trkpt>
      <trkpt lat="60.098572944325" lon="23.605028409235">
        <ele>39.6</ele>
        <time>2014-06-24T17:29:17Z</time>
      </trkpt>
      <trkpt lat="60.098610662875" lon="23.6050397248">
        <ele>41</ele>
        <time>2014-06-24T17:29:21Z</time>
      </trkpt>
      <trkpt lat="60.098682579577" lon="23.605081969576">
        <ele>43.8</ele>
        <time>2014-06-24T17:29:29Z</time>
      </trkpt>
      <trkpt lat="60.09880889481" lon="23.605129662587">
        <ele>47</ele>
        <time>2014-06-24T17:29:38Z</time>
      </trkpt>
      <trkpt lat="60.098922553374" lon="23.605203674764">
        <ele>49.8</ele>
        <time>2014-06-24T17:29:46Z</time>
      </trkpt>
      <trkpt lat="60.09900922222" lon="23.605274334181">
        <ele>52.6</ele>
        <time>2014-06-24T17:29:53Z</time>
      </trkpt>
      <trkpt lat="60.099102093672" lon="23.605309454342">
        <ele>54.8</ele>
        <time>2014-06-24T17:30:00Z</time>
      </trkpt>
      <trkpt lat="60.099230336742" lon="23.605403331622">
        <ele>57.6</ele>
        <time>2014-06-24T17:30:10Z</time>
      </trkpt>
      <trkpt lat="60.099301331435" lon="23.605474829229">
        <ele>60</ele>
        <time>2014-06-24T17:30:17Z</time>
      </trkpt>
      <trkpt lat="60.099368135178" lon="23.605541968248">
        <ele>62.2</ele>
        <time>2014-06-24T17:30:24Z</time>
      </trkpt>
      <trkpt lat="60.099467628331" lon="23.605570885803">
        <ele>64.6</ele>
        <time>2014-06-24T17:30:32Z</time>
      </trkpt>
      <trkpt lat="60.09948279957" lon="23.605586643775">
        <ele>65.4</ele>
        <time>2014-06-24T17:30:34Z</time>
      </trkpt>
      <trkpt lat="60.099518757921" lon="23.60559795934">
        <ele>66.8</ele>
        <time>2014-06-24T17:30:38Z</time>
      </trkpt>
      <trkpt lat="60.09956578038" lon="23.605633079501">
        <ele>68.4</ele>
        <time>2014-06-24T17:30:43Z</time>
      </trkpt>
      <trkpt lat="60.099637529444" lon="23.605691333706">
        <ele>71.2</ele>
        <time>2014-06-24T17:30:50Z</time>
      </trkpt>
      <trkpt lat="60.099659238565" lon="23.605701391986">
        <ele>71.6</ele>
        <time>2014-06-24T17:30:52Z</time>
      </trkpt>
      <trkpt lat="60.099712212173" lon="23.605687813308">
        <ele>74.2</ele>
        <time>2014-06-24T17:30:58Z</time>
      </trkpt>
      <trkpt lat="60.099787733092" lon="23.605667361472">
        <ele>75.4</ele>
        <time>2014-06-24T17:31:03Z</time>
      </trkpt>
      <trkpt lat="60.099835509922" lon="23.605636348442">
        <ele>76</ele>
        <time>2014-06-24T17:31:05Z</time>
      </trkpt>
      <trkpt lat="60.099788571282" lon="23.605422693811">
        <ele>77.8</ele>
        <time>2014-06-24T17:31:10Z</time>
      </trkpt>
      <trkpt lat="60.099697627667" lon="23.605146426387">
        <ele>79</ele>
        <time>2014-06-24T17:31:16Z</time>
      </trkpt>
      <trkpt lat="60.099648509733" lon="23.604859597769">
        <ele>79.6</ele>
        <time>2014-06-24T17:31:22Z</time>
      </trkpt>
      <trkpt lat="60.09961858635" lon="23.604710567587">
        <ele>79.8</ele>
        <time>2014-06-24T17:31:25Z</time>
      </trkpt>
      <trkpt lat="60.099540718499" lon="23.604506384503">
        <ele>80</ele>
        <time>2014-06-24T17:31:28Z</time>
      </trkpt>
      <trkpt lat="60.099421779338" lon="23.604448968488">
        <ele>80</ele>
        <time>2014-06-24T17:31:32Z</time>
      </trkpt>
      <trkpt lat="60.099247938732" lon="23.604546533804">
        <ele>80</ele>
        <time>2014-06-24T17:31:38Z</time>
      </trkpt>
      <trkpt lat="60.099164371189" lon="23.604480232975">
        <ele>79.6</ele>
        <time>2014-06-24T17:31:41Z</time>
      </trkpt>
      <trkpt lat="60.099134531625" lon="23.604242773748">
        <ele>79.2</ele>
        <time>2014-06-24T17:31:45Z</time>
      </trkpt>
      <trkpt lat="60.099166718121" lon="23.603829881354">
        <ele>77.2</ele>
        <time>2014-06-24T17:31:52Z</time>
      </trkpt>
      <trkpt lat="60.09917099289" lon="23.603441967022">
        <ele>75</ele>
        <time>2014-06-24T17:31:59Z</time>
      </trkpt>
      <trkpt lat="60.099130592132" lon="23.603067212273">
        <ele>72.4</ele>
        <time>2014-06-24T17:32:05Z</time>
      </trkpt>
      <trkpt lat="60.09911902511" lon="23.603008036059">
        <ele>71.8</ele>
        <time>2014-06-24T17:32:06Z</time>
      </trkpt>
      <trkpt lat="60.099068566072" lon="23.602939304479">
        <ele>70.6</ele>
        <time>2014-06-24T17:32:09Z</time>
      </trkpt>
      <trkpt lat="60.09896563634" lon="23.603037456528">
        <ele>68.2</ele>
        <time>2014-06-24T17:32:14Z</time>
      </trkpt>
      <trkpt lat="60.098820880927" lon="23.603074839802">
        <ele>65</ele>
        <time>2014-06-24T17:32:20Z</time>
      </trkpt>
      <trkpt lat="60.098634299833" lon="23.60310518228">
        <ele>61.8</ele>
        <time>2014-06-24T17:32:26Z</time>
      </trkpt>
      <trkpt lat="60.098484431461" lon="23.60318145757">
        <ele>58.8</ele>
        <time>2014-06-24T17:32:31Z</time>
      </trkpt>
      <trkpt lat="60.098299442928" lon="23.60329293684">
        <ele>55.6</ele>
        <time>2014-06-24T17:32:37Z</time>
      </trkpt>
      <trkpt lat="60.098168601469" lon="23.603353957072">
        <ele>53</ele>
        <time>2014-06-24T17:32:42Z</time>
      </trkpt>
      <trkpt lat="60.098040106942" lon="23.603413384743">
        <ele>50.4</ele>
        <time>2014-06-24T17:32:47Z</time>
      </trkpt>
      <trkpt lat="60.097888981285" lon="23.603459988107">
        <ele>47.6</ele>
        <time>2014-06-24T17:32:53Z</time>
      </trkpt>
      <trkpt lat="60.09776115731" lon="23.603461329211">
        <ele>45.4</ele>
        <time>2014-06-24T17:32:58Z</time>
      </trkpt>
      <trkpt lat="60.097603242314" lon="23.603520840701">
        <ele>43.4</ele>
        <time>2014-06-24T17:33:03Z</time>
      </trkpt>
      <trkpt lat="60.09746946719" lon="23.603595104335">
        <ele>41</ele>
        <time>2014-06-24T17:33:08Z</time>
      </trkpt>
      <trkpt lat="60.097449434449" lon="23.603612790144">
        <ele>40.8</ele>
        <time>2014-06-24T17:33:09Z</time>
      </trkpt>
      <trkpt lat="60.097393610995" lon="23.603860223832">
        <ele>38.4</ele>
        <time>2014-06-24T17:33:14Z</time>
      </trkpt>
      <trkpt lat="60.097390425873" lon="23.603894924898">
        <ele>37.8</ele>
        <time>2014-06-24T17:33:15Z</time>
      </trkpt>
      <trkpt lat="60.097380870507" lon="23.604027358918">
        <ele>35.6</ele>
        <time>2014-06-24T17:33:20Z</time>
      </trkpt>
      <trkpt lat="60.097375086996" lon="23.604082428001">
        <ele>34.6</ele>
        <time>2014-06-24T17:33:22Z</time>
      </trkpt>
      <trkpt lat="60.097380702869" lon="23.604137664722">
        <ele>33.8</ele>
        <time>2014-06-24T17:33:24Z</time>
      </trkpt>
      <trkpt lat="60.097465611516" lon="23.60425601715">
        <ele>31</ele>
        <time>2014-06-24T17:33:32Z</time>
      </trkpt>
      <trkpt lat="60.097473490502" lon="23.604261213928">
        <ele>30.8</ele>
        <time>2014-06-24T17:33:33Z</time>
      </trkpt>
      <trkpt lat="60.097566278135" lon="23.604362551099">
        <ele>29.6</ele>
        <time>2014-06-24T17:33:40Z</time>
      </trkpt>
      <trkpt lat="60.097647750203" lon="23.604425918263">
        <ele>28.6</ele>
        <time>2014-06-24T17:33:47Z</time>
      </trkpt>
      <trkpt lat="60.097747327175" lon="23.604504372847">
        <ele>27.2</ele>
        <time>2014-06-24T17:33:55Z</time>
      </trkpt>
      <trkpt lat="60.097828883062" lon="23.60454435451">
        <ele>26.8</ele>
        <time>2014-06-24T17:34:03Z</time>
      </trkpt>
      <trkpt lat="60.097907589103" lon="23.604578385024">
        <ele>27.2</ele>
        <time>2014-06-24T17:34:10Z</time>
      </trkpt>
      <trkpt lat="60.097989228809" lon="23.604641836007">
        <ele>27.8</ele>
        <time>2014-06-24T17:34:17Z</time>
      </trkpt>
      <trkpt lat="60.098068689221" lon="23.604672010847">
        <ele>29</ele>
        <time>2014-06-24T17:34:24Z</time>
      </trkpt>
      <trkpt lat="60.098154519877" lon="23.6047463583">
        <ele>30.4</ele>
        <time>2014-06-24T17:34:33Z</time>
      </trkpt>
      <trkpt lat="60.098202464345" lon="23.604795308596">
        <ele>31.4</ele>
        <time>2014-06-24T17:34:38Z</time>
      </trkpt>
      <trkpt lat="60.098279745463" lon="23.604845935272">
        <ele>33</ele>
        <time>2014-06-24T17:34:46Z</time>
      </trkpt>
      <trkpt lat="60.09832693556" lon="23.60486202852">
        <ele>34.4</ele>
        <time>2014-06-24T17:34:52Z</time>
      </trkpt>
      <trkpt lat="60.098386614688" lon="23.604910894997">
        <ele>36.4</ele>
        <time>2014-06-24T17:35:01Z</time>
      </trkpt>
      <trkpt lat="60.09841913646" lon="23.604924557494">
        <ele>37.2</ele>
        <time>2014-06-24T17:35:04Z</time>
      </trkpt>
      <trkpt lat="60.098451490594" lon="23.604939896371">
        <ele>38.4</ele>
        <time>2014-06-24T17:35:08Z</time>
      </trkpt>
      <trkpt lat="60.098474708457" lon="23.604955235248">
        <ele>39.4</ele>
        <time>2014-06-24T17:35:11Z</time>
      </trkpt>
      <trkpt lat="60.098520892726" lon="23.604978369292">
        <ele>41.2</ele>
        <time>2014-06-24T17:35:17Z</time>
      </trkpt>
      <trkpt lat="60.09852726297" lon="23.604983482251">
        <ele>41.6</ele>
        <time>2014-06-24T17:35:18Z</time>
      </trkpt>
      <trkpt lat="60.09857839256" lon="23.605016842213">
        <ele>43.6</ele>
        <time>2014-06-24T17:35:24Z</time>
      </trkpt>
      <trkpt lat="60.098643519923" lon="23.6050564886">
        <ele>45.8</ele>
        <time>2014-06-24T17:35:31Z</time>
      </trkpt>
      <trkpt lat="60.098729602036" lon="23.605087250173">
        <ele>48.6</ele>
        <time>2014-06-24T17:35:39Z</time>
      </trkpt>
      <trkpt lat="60.098746282017" lon="23.60510007448">
        <ele>49</ele>
        <time>2014-06-24T17:35:40Z</time>
      </trkpt>
      <trkpt lat="60.098791628096" lon="23.605125387818">
        <ele>50.4</ele>
        <time>2014-06-24T17:35:44Z</time>
      </trkpt>
      <trkpt lat="60.098898664959" lon="23.605200238185">
        <ele>53.2</ele>
        <time>2014-06-24T17:35:53Z</time>
      </trkpt>
      <trkpt lat="60.098978712104" lon="23.605282632262">
        <ele>55.4</ele>
        <time>2014-06-24T17:36:00Z</time>
      </trkpt>
      <trkpt lat="60.09906454276" lon="23.605337617526">
        <ele>57</ele>
        <time>2014-06-24T17:36:07Z</time>
      </trkpt>
      <trkpt lat="60.099188259604" lon="23.605378940293">
        <ele>59.6</ele>
        <time>2014-06-24T17:36:16Z</time>
      </trkpt>
      <trkpt lat="60.099201419187" lon="23.605393943894">
        <ele>59.8</ele>
        <time>2014-06-24T17:36:17Z</time>
      </trkpt>
      <trkpt lat="60.09928833949" lon="23.6054839655">
        <ele>62.2</ele>
        <time>2014-06-24T17:36:26Z</time>
      </trkpt>
      <trkpt lat="60.099346509876" lon="23.605554038184">
        <ele>64</ele>
        <time>2014-06-24T17:36:33Z</time>
      </trkpt>
      <trkpt lat="60.099405183176" lon="23.605575495848">
        <ele>65.2</ele>
        <time>2014-06-24T17:36:38Z</time>
      </trkpt>
      <trkpt lat="60.099505095424" lon="23.605629475284">
        <ele>67.6</ele>
        <time>2014-06-24T17:36:47Z</time>
      </trkpt>
      <trkpt lat="60.099552620797" lon="23.605662080875">
        <ele>69.8</ele>
        <time>2014-06-24T17:36:53Z</time>
      </trkpt>
      <trkpt lat="60.099581203076" lon="23.605682951806">
        <ele>70.4</ele>
        <time>2014-06-24T17:36:55Z</time>
      </trkpt>
      <trkpt lat="60.099642977679" lon="23.605743050029">
        <ele>73</ele>
        <time>2014-06-24T17:37:01Z</time>
      </trkpt>
      <trkpt lat="60.099735262398" lon="23.605718071967">
        <ele>75.2</ele>
        <time>2014-06-24T17:37:08Z</time>
      </trkpt>
      <trkpt lat="60.099806257091" lon="23.605681945978">
        <ele>77</ele>
        <time>2014-06-24T17:37:13Z</time>
      </trkpt>
      <trkpt lat="60.09983316299" lon="23.605548673768">
        <ele>78.6</ele>
        <time>2014-06-24T17:37:18Z</time>
      </trkpt>
      <trkpt lat="60.099739704805" lon="23.605367708547">
        <ele>80.6</ele>
        <time>2014-06-24T17:37:27Z</time>
      </trkpt>
      <trkpt lat="60.099698968771" lon="23.605274837095">
        <ele>81.2</ele>
        <time>2014-06-24T17:37:31Z</time>
      </trkpt>
      <trkpt lat="60.099672817243" lon="23.605059506084">
        <ele>81.6</ele>
        <time>2014-06-24T17:37:37Z</time>
      </trkpt>
      <trkpt lat="60.099621771472" lon="23.604808551998">
        <ele>81.8</ele>
        <time>2014-06-24T17:37:43Z</time>
      </trkpt>
      <trkpt lat="60.099540047947" lon="23.604561537405">
        <ele>81.8</ele>
        <time>2014-06-24T17:37:49Z</time>
      </trkpt>
      <trkpt lat="60.099389173747" lon="23.604500265716">
        <ele>81</ele>
        <time>2014-06-24T17:37:55Z</time>
      </trkpt>
      <trkpt lat="60.09923804809" lon="23.604565812174">
        <ele>79.6</ele>
        <time>2014-06-24T17:38:01Z</time>
      </trkpt>
      <trkpt lat="60.099148780855" lon="23.604425080073">
        <ele>78.4</ele>
        <time>2014-06-24T17:38:05Z</time>
      </trkpt>
      <trkpt lat="60.099141907697" lon="23.604207737406">
        <ele>77.4</ele>
        <time>2014-06-24T17:38:09Z</time>
      </trkpt>
      <trkpt lat="60.099155737832" lon="23.603903222979">
        <ele>75.2</ele>
        <time>2014-06-24T17:38:15Z</time>
      </trkpt>
      <trkpt lat="60.099172836908" lon="23.603630392134">
        <ele>73.4</ele>
        <time>2014-06-24T17:38:20Z</time>
      </trkpt>
      <trkpt lat="60.099146098647" lon="23.60322336707">
        <ele>70.8</ele>
        <time>2014-06-24T17:38:26Z</time>
      </trkpt>
      <trkpt lat="60.099091867754" lon="23.602956655012">
        <ele>69.4</ele>
        <time>2014-06-24T17:38:30Z</time>
      </trkpt>
      <trkpt lat="60.099025734563" lon="23.602769235728">
        <ele>67.6</ele>
        <time>2014-06-24T17:38:34Z</time>
      </trkpt>
      <trkpt lat="60.09893462331" lon="23.602714837197">
        <ele>66.2</ele>
        <time>2014-06-24T17:38:38Z</time>
      </trkpt>
      <trkpt lat="60.098917691872" lon="23.602722883821">
        <ele>65.8</ele>
        <time>2014-06-24T17:38:39Z</time>
      </trkpt>
      <trkpt lat="60.098808308077" lon="23.602800835491">
        <ele>63.4</ele>
        <time>2014-06-24T17:38:46Z</time>
      </trkpt>
      <trkpt lat="60.098685177966" lon="23.602856072212">
        <ele>60.6</ele>
        <time>2014-06-24T17:38:54Z</time>
      </trkpt>
      <trkpt lat="60.098552743946" lon="23.602908459087">
        <ele>57.4</ele>
        <time>2014-06-24T17:39:01Z</time>
      </trkpt>
      <trkpt lat="60.098483593271" lon="23.602926731629">
        <ele>55.8</ele>
        <time>2014-06-24T17:39:05Z</time>
      </trkpt>
      <trkpt lat="60.09841075456" lon="23.602840649516">
        <ele>54.2</ele>
        <time>2014-06-24T17:39:09Z</time>
      </trkpt>
      <trkpt lat="60.098374209476" lon="23.60284785795">
        <ele>53.8</ele>
        <time>2014-06-24T17:39:10Z</time>
      </trkpt>
      <trkpt lat="60.098166422175" lon="23.602972832079">
        <ele>51.6</ele>
        <time>2014-06-24T17:39:16Z</time>
      </trkpt>
      <trkpt lat="60.098011189387" lon="23.603036618338">
        <ele>49.8</ele>
        <time>2014-06-24T17:39:21Z</time>
      </trkpt>
      <trkpt lat="60.097802312439" lon="23.603100320778">
        <ele>47.6</ele>
        <time>2014-06-24T17:39:27Z</time>
      </trkpt>
      <trkpt lat="60.097599721916" lon="23.60317391386">
        <ele>45.4</ele>
        <time>2014-06-24T17:39:33Z</time>
      </trkpt>
      <trkpt lat="60.097489667569" lon="23.603197969913">
        <ele>43.8</ele>
        <time>2014-06-24T17:39:37Z</time>
      </trkpt>
      <trkpt lat="60.097481704764" lon="23.603194365696">
        <ele>42.2</ele>
        <time>2014-06-24T17:39:41Z</time>
      </trkpt>
      <trkpt lat="60.09747449633" lon="23.603254799195">
        <ele>39</ele>
        <time>2014-06-24T17:39:48Z</time>
      </trkpt>
      <trkpt lat="60.097452200476" lon="23.60324516001">
        <ele>37.4</ele>
        <time>2014-06-24T17:39:53Z</time>
      </trkpt>
      <trkpt lat="60.097503330066" lon="23.603202077044">
        <ele>29.8</ele>
        <time>2014-06-24T17:40:21Z</time>
      </trkpt>
      <trkpt lat="60.097592094387" lon="23.603166956883">
        <ele>28.8</ele>
        <time>2014-06-24T17:40:26Z</time>
      </trkpt>
      <trkpt lat="60.097684295287" lon="23.603121443166">
        <ele>28</ele>
        <time>2014-06-24T17:40:31Z</time>
      </trkpt>
      <trkpt lat="60.097776999101" lon="23.603087245014">
        <ele>27.6</ele>
        <time>2014-06-24T17:40:36Z</time>
      </trkpt>
      <trkpt lat="60.097918234116" lon="23.603036702157">
        <ele>27.4</ele>
        <time>2014-06-24T17:40:43Z</time>
      </trkpt>
      <trkpt lat="60.098086039754" lon="23.602970904242">
        <ele>27.2</ele>
        <time>2014-06-24T17:40:51Z</time>
      </trkpt>
      <trkpt lat="60.098213612272" lon="23.602910051648">
        <ele>27.2</ele>
        <time>2014-06-24T17:40:57Z</time>
      </trkpt>
      <trkpt lat="60.098333221985" lon="23.602871746365">
        <ele>28</ele>
        <time>2014-06-24T17:41:03Z</time>
      </trkpt>
      <trkpt lat="60.098452328784" lon="23.60282857958">
        <ele>28.6</ele>
        <time>2014-06-24T17:41:09Z</time>
      </trkpt>
      <trkpt lat="60.098472612982" lon="23.602825143001">
        <ele>28.6</ele>
        <time>2014-06-24T17:41:10Z</time>
      </trkpt>
      <trkpt lat="60.098514354844" lon="23.602897730255">
        <ele>29.6</ele>
        <time>2014-06-24T17:41:14Z</time>
      </trkpt>
      <trkpt lat="60.098583673157" lon="23.602893455486">
        <ele>30.4</ele>
        <time>2014-06-24T17:41:19Z</time>
      </trkpt>
      <trkpt lat="60.098655841316" lon="23.602874093297">
        <ele>31.8</ele>
        <time>2014-06-24T17:41:24Z</time>
      </trkpt>
      <trkpt lat="60.098668749442" lon="23.602865040845">
        <ele>32.2</ele>
        <time>2014-06-24T17:41:25Z</time>
      </trkpt>
      <trkpt lat="60.098736139918" lon="23.602832016159">
        <ele>33.8</ele>
        <time>2014-06-24T17:41:30Z</time>
      </trkpt>
      <trkpt lat="60.098820210375" lon="23.602802847147">
        <ele>35.8</ele>
        <time>2014-06-24T17:41:36Z</time>
      </trkpt>
      <trkpt lat="60.098833872872" lon="23.602798740016">
        <ele>36.4</ele>
        <time>2014-06-24T17:41:37Z</time>
      </trkpt>
      <trkpt lat="60.098927666333" lon="23.602733361196">
        <ele>38</ele>
        <time>2014-06-24T17:41:42Z</time>
      </trkpt>
      <trkpt lat="60.099040738164" lon="23.602824472449">
        <ele>39.8</ele>
        <time>2014-06-24T17:41:47Z</time>
      </trkpt>
      <trkpt lat="60.099053730109" lon="23.602870321442">
        <ele>40</ele>
        <time>2014-06-24T17:41:48Z</time>
      </trkpt>
      <trkpt lat="60.099133190521" lon="23.603170393462">
        <ele>41.8</ele>
        <time>2014-06-24T17:41:55Z</time>
      </trkpt>
      <trkpt lat="60.099190690355" lon="23.603599043828">
        <ele>45</ele>
        <time>2014-06-24T17:42:07Z</time>
      </trkpt>
      <trkpt lat="60.099190355079" lon="23.603625279175">
        <ele>45.4</ele>
        <time>2014-06-24T17:42:08Z</time>
      </trkpt>
      <trkpt lat="60.09919697678" lon="23.603774979909">
        <ele>47</ele>
        <time>2014-06-24T17:42:13Z</time>
      </trkpt>
      <trkpt lat="60.099195468038" lon="23.603946473583">
        <ele>48.8</ele>
        <time>2014-06-24T17:42:18Z</time>
      </trkpt>
      <trkpt lat="60.099197898789" lon="23.604113692488">
        <ele>50.6</ele>
        <time>2014-06-24T17:42:23Z</time>
      </trkpt>
      <trkpt lat="60.099188008147" lon="23.604276552805">
        <ele>52.4</ele>
        <time>2014-06-24T17:42:28Z</time>
      </trkpt>
      <trkpt lat="60.099202425015" lon="23.604447208289">
        <ele>54</ele>
        <time>2014-06-24T17:42:33Z</time>
      </trkpt>
      <trkpt lat="60.099268139111" lon="23.604563968156">
        <ele>55.6</ele>
        <time>2014-06-24T17:42:38Z</time>
      </trkpt>
      <trkpt lat="60.099376181802" lon="23.604532787488">
        <ele>57.8</ele>
        <time>2014-06-24T17:42:44Z</time>
      </trkpt>
      <trkpt lat="60.099439968061" lon="23.604482999002">
        <ele>58.6</ele>
        <time>2014-06-24T17:42:47Z</time>
      </trkpt>
      <trkpt lat="60.099565528923" lon="23.604546952899">
        <ele>60</ele>
        <time>2014-06-24T17:42:53Z</time>
      </trkpt>
      <trkpt lat="60.099638786729" lon="23.604787345791">
        <ele>62.6</ele>
        <time>2014-06-24T17:43:01Z</time>
      </trkpt>
      <trkpt lat="60.099676756736" lon="23.6049475239">
        <ele>64.4</ele>
        <time>2014-06-24T17:43:07Z</time>
      </trkpt>
      <trkpt lat="60.099712882725" lon="23.605136032831">
        <ele>66.8</ele>
        <time>2014-06-24T17:43:13Z</time>
      </trkpt>
      <trkpt lat="60.099758144985" lon="23.605311801274">
        <ele>69.4</ele>
        <time>2014-06-24T17:43:19Z</time>
      </trkpt>
      <trkpt lat="60.099836683388" lon="23.605483211129">
        <ele>72.4</ele>
        <time>2014-06-24T17:43:26Z</time>
      </trkpt>
      <trkpt lat="60.099860068889" lon="23.605577172228">
        <ele>74</ele>
        <time>2014-06-24T17:43:29Z</time>
      </trkpt>
      <trkpt lat="60.099856129396" lon="23.605639365926">
        <ele>75.2</ele>
        <time>2014-06-24T17:43:32Z</time>
      </trkpt>
      <trkpt lat="60.099861242355" lon="23.605641964315">
        <ele>78.8</ele>
        <time>2014-06-24T17:43:41Z</time>
      </trkpt>
      <trkpt lat="60.099854369197" lon="23.605633330958">
        <ele>83</ele>
        <time>2014-06-24T17:43:58Z</time>
      </trkpt>
      <trkpt lat="60.099847998953" lon="23.605655459174">
        <ele>85.8</ele>
        <time>2014-06-24T17:44:14Z</time>
      </trkpt>
      <trkpt lat="60.099859398337" lon="23.605652022595">
        <ele>88</ele>
        <time>2014-06-24T17:44:35Z</time>
      </trkpt>
      <trkpt lat="60.099885046951" lon="23.605628050361">
        <ele>91.4</ele>
        <time>2014-06-24T17:45:12Z</time>
      </trkpt>
      <trkpt lat="60.099884124942" lon="23.605565940482">
        <ele>92</ele>
        <time>2014-06-24T17:45:18Z</time>
      </trkpt>
      <trkpt lat="60.099848837143" lon="23.605432249177">
        <ele>92.2</ele>
        <time>2014-06-24T17:45:25Z</time>
      </trkpt>
      <trkpt lat="60.099838695044" lon="23.605417999947">
        <ele>92.2</ele>
        <time>2014-06-24T17:45:26Z</time>
      </trkpt>
      <trkpt lat="60.099765437238" lon="23.605317333328">
        <ele>92.4</ele>
        <time>2014-06-24T17:45:32Z</time>
      </trkpt>
      <trkpt lat="60.099707518309" lon="23.605126393646">
        <ele>92.2</ele>
        <time>2014-06-24T17:45:40Z</time>
      </trkpt>
      <trkpt lat="60.099668793931" lon="23.604953223592">
        <ele>91.4</ele>
        <time>2014-06-24T17:45:46Z</time>
      </trkpt>
      <trkpt lat="60.09962445368" lon="23.604740155694">
        <ele>89.6</ele>
        <time>2014-06-24T17:45:52Z</time>
      </trkpt>
      <trkpt lat="60.099574246099" lon="23.604563297604">
        <ele>87.6</ele>
        <time>2014-06-24T17:45:58Z</time>
      </trkpt>
      <trkpt lat="60.099500066284" lon="23.604446789194">
        <ele>85.4</ele>
        <time>2014-06-24T17:46:04Z</time>
      </trkpt>
      <trkpt lat="60.099407865384" lon="23.604494733662">
        <ele>83.6</ele>
        <time>2014-06-24T17:46:10Z</time>
      </trkpt>
      <trkpt lat="60.099309378059" lon="23.604563129966">
        <ele>82</ele>
        <time>2014-06-24T17:46:15Z</time>
      </trkpt>
      <trkpt lat="60.099202425015" lon="23.60454183994">
        <ele>81</ele>
        <time>2014-06-24T17:46:19Z</time>
      </trkpt>
      <trkpt lat="60.099178368962" lon="23.604506133046">
        <ele>80.6</ele>
        <time>2014-06-24T17:46:20Z</time>
      </trkpt>
      <trkpt lat="60.099140231317" lon="23.604320473961">
        <ele>79.6</ele>
        <time>2014-06-24T17:46:24Z</time>
      </trkpt>
      <trkpt lat="60.099170909071" lon="23.603939600425">
        <ele>77.4</ele>
        <time>2014-06-24T17:46:32Z</time>
      </trkpt>
      <trkpt lat="60.099175016202" lon="23.603669703245">
        <ele>75.4</ele>
        <time>2014-06-24T17:46:38Z</time>
      </trkpt>
      <trkpt lat="60.099163365361" lon="23.603368206302">
        <ele>72.8</ele>
        <time>2014-06-24T17:46:44Z</time>
      </trkpt>
      <trkpt lat="60.099107374269" lon="23.602997558684">
        <ele>70</ele>
        <time>2014-06-24T17:46:50Z</time>
      </trkpt>
      <trkpt lat="60.098991368773" lon="23.602699163044">
        <ele>67</ele>
        <time>2014-06-24T17:46:56Z</time>
      </trkpt>
      <trkpt lat="60.098951051834" lon="23.602684997633">
        <ele>65.8</ele>
        <time>2014-06-24T17:46:58Z</time>
      </trkpt>
      <trkpt lat="60.098859270029" lon="23.602758674534">
        <ele>63.2</ele>
        <time>2014-06-24T17:47:05Z</time>
      </trkpt>
      <trkpt lat="60.098732200425" lon="23.602834614548">
        <ele>60</ele>
        <time>2014-06-24T17:47:13Z</time>
      </trkpt>
      <trkpt lat="60.098631282349" lon="23.60287384184">
        <ele>57.4</ele>
        <time>2014-06-24T17:47:19Z</time>
      </trkpt>
      <trkpt lat="60.098527849703" lon="23.602908878182">
        <ele>54.8</ele>
        <time>2014-06-24T17:47:25Z</time>
      </trkpt>
      <trkpt lat="60.098488790049" lon="23.602920529023">
        <ele>53.6</ele>
        <time>2014-06-24T17:47:28Z</time>
      </trkpt>
      <trkpt lat="60.098387033783" lon="23.602858586782">
        <ele>51.2</ele>
        <time>2014-06-24T17:47:33Z</time>
      </trkpt>
      <trkpt lat="60.098351494527" lon="23.602874177116">
        <ele>50.8</ele>
        <time>2014-06-24T17:47:34Z</time>
      </trkpt>
      <trkpt lat="60.098159632836" lon="23.602979286142">
        <ele>48.6</ele>
        <time>2014-06-24T17:47:39Z</time>
      </trkpt>
      <trkpt lat="60.097962993462" lon="23.603070481214">
        <ele>45.6</ele>
        <time>2014-06-24T17:47:45Z</time>
      </trkpt>
      <trkpt lat="60.097776999101" lon="23.603132926369">
        <ele>43.4</ele>
        <time>2014-06-24T17:47:50Z</time>
      </trkpt>
      <trkpt lat="60.097577006967" lon="23.603205345985">
        <ele>40.4</ele>
        <time>2014-06-24T17:47:56Z</time>
      </trkpt>
      <trkpt lat="60.097456559064" lon="23.603247590761">
        <ele>38.4</ele>
        <time>2014-06-24T17:48:00Z</time>
      </trkpt>
      <trkpt lat="60.097461336747" lon="23.603261588534">
        <ele>34.2</ele>
        <time>2014-06-24T17:48:09Z</time>
      </trkpt>
      <trkpt lat="60.097448763897" lon="23.603262510543">
        <ele>27.4</ele>
        <time>2014-06-24T17:48:27Z</time>
      </trkpt>
      <trkpt lat="60.097451194648" lon="23.603258068136">
        <ele>24.8</ele>
        <time>2014-06-24T17:48:37Z</time>
      </trkpt>
      <trkpt lat="60.097464773326" lon="23.603269802796">
        <ele>21.6</ele>
        <time>2014-06-24T17:48:56Z</time>
      </trkpt>
      <trkpt lat="60.097559321158" lon="23.603223031794">
        <ele>21.2</ele>
        <time>2014-06-24T17:49:03Z</time>
      </trkpt>
      <trkpt lat="60.097573235112" lon="23.603214566075">
        <ele>21.2</ele>
        <time>2014-06-24T17:49:04Z</time>
      </trkpt>
      <trkpt lat="60.097647834022" lon="23.60317810481">
        <ele>21</ele>
        <time>2014-06-24T17:49:10Z</time>
      </trkpt>
      <trkpt lat="60.097737855628" lon="23.603151031273">
        <ele>20.8</ele>
        <time>2014-06-24T17:49:17Z</time>
      </trkpt>
      <trkpt lat="60.097828463967" lon="23.603131333808">
        <ele>20.8</ele>
        <time>2014-06-24T17:49:24Z</time>
      </trkpt>
      <trkpt lat="60.097843132292" lon="23.60313200436">
        <ele>20.8</ele>
        <time>2014-06-24T17:49:25Z</time>
      </trkpt>
      <trkpt lat="60.097922341247" lon="23.603105517556">
        <ele>20.8</ele>
        <time>2014-06-24T17:49:31Z</time>
      </trkpt>
      <trkpt lat="60.098060726416" lon="23.603058578916">
        <ele>20.8</ele>
        <time>2014-06-24T17:49:41Z</time>
      </trkpt>
      <trkpt lat="60.098159129922" lon="23.603018345796">
        <ele>20.8</ele>
        <time>2014-06-24T17:49:48Z</time>
      </trkpt>
      <trkpt lat="60.098235740488" lon="23.602989595879">
        <ele>20.8</ele>
        <time>2014-06-24T17:49:53Z</time>
      </trkpt>
      <trkpt lat="60.09833615565" lon="23.602949027483">
        <ele>21.4</ele>
        <time>2014-06-24T17:50:00Z</time>
      </trkpt>
      <trkpt lat="60.098429613835" lon="23.602898903721">
        <ele>22.4</ele>
        <time>2014-06-24T17:50:07Z</time>
      </trkpt>
      <trkpt lat="60.098511756455" lon="23.602861185171">
        <ele>23.4</ele>
        <time>2014-06-24T17:50:13Z</time>
      </trkpt>
      <trkpt lat="60.098524580762" lon="23.602862274818">
        <ele>23.6</ele>
        <time>2014-06-24T17:50:14Z</time>
      </trkpt>
      <trkpt lat="60.098556180525" lon="23.602925222887">
        <ele>24.4</ele>
        <time>2014-06-24T17:50:18Z</time>
      </trkpt>
      <trkpt lat="60.09861611111" lon="23.602922875955">
        <ele>25.8</ele>
        <time>2014-06-24T17:50:24Z</time>
      </trkpt>
      <trkpt lat="60.098697499359" lon="23.602894545133">
        <ele>27.4</ele>
        <time>2014-06-24T17:50:31Z</time>
      </trkpt>
      <trkpt lat="60.098783916748" lon="23.602875434401">
        <ele>29.2</ele>
        <time>2014-06-24T17:50:39Z</time>
      </trkpt>
      <trkpt lat="60.098837141813" lon="23.602856742764">
        <ele>30</ele>
        <time>2014-06-24T17:50:44Z</time>
      </trkpt>
      <trkpt lat="60.098846864817" lon="23.602857580954">
        <ele>30.2</ele>
        <time>2014-06-24T17:50:45Z</time>
      </trkpt>
      <trkpt lat="60.098896569484" lon="23.602824723906">
        <ele>31.4</ele>
        <time>2014-06-24T17:50:50Z</time>
      </trkpt>
      <trkpt lat="60.098909980524" lon="23.602803601518">
        <ele>31.8</ele>
        <time>2014-06-24T17:50:51Z</time>
      </trkpt>
      <trkpt lat="60.099001007958" lon="23.602799745844">
        <ele>32.4</ele>
        <time>2014-06-24T17:50:57Z</time>
      </trkpt>
      <trkpt lat="60.099091197202" lon="23.602957241745">
        <ele>34.2</ele>
        <time>2014-06-24T17:51:05Z</time>
      </trkpt>
      <trkpt lat="60.099139393127" lon="23.603119347691">
        <ele>35</ele>
        <time>2014-06-24T17:51:11Z</time>
      </trkpt>
      <trkpt lat="60.099183062826" lon="23.603371391424">
        <ele>37.4</ele>
        <time>2014-06-24T17:51:21Z</time>
      </trkpt>
      <trkpt lat="60.099192282916" lon="23.603568785169">
        <ele>39.2</ele>
        <time>2014-06-24T17:51:29Z</time>
      </trkpt>
      <trkpt lat="60.099188678699" lon="23.603715636057">
        <ele>40.8</ele>
        <time>2014-06-24T17:51:36Z</time>
      </trkpt>
      <trkpt lat="60.09918524212" lon="23.603872629044">
        <ele>42.6</ele>
        <time>2014-06-24T17:51:43Z</time>
      </trkpt>
      <trkpt lat="60.099184068654" lon="23.604022078321">
        <ele>44.2</ele>
        <time>2014-06-24T17:51:49Z</time>
      </trkpt>
      <trkpt lat="60.099173172184" lon="23.60421746041">
        <ele>46.6</ele>
        <time>2014-06-24T17:51:57Z</time>
      </trkpt>
      <trkpt lat="60.099165544655" lon="23.604412674861">
        <ele>48.6</ele>
        <time>2014-06-24T17:52:05Z</time>
      </trkpt>
      <trkpt lat="60.099203263205" lon="23.604539576827">
        <ele>49.8</ele>
        <time>2014-06-24T17:52:11Z</time>
      </trkpt>
      <trkpt lat="60.099284064721" lon="23.604586934562">
        <ele>51.2</ele>
        <time>2014-06-24T17:52:18Z</time>
      </trkpt>
      <trkpt lat="60.099411637239" lon="23.604531362565">
        <ele>52.4</ele>
        <time>2014-06-24T17:52:27Z</time>
      </trkpt>
      <trkpt lat="60.099501072112" lon="23.604526836339">
        <ele>53.4</ele>
        <time>2014-06-24T17:52:33Z</time>
      </trkpt>
      <trkpt lat="60.099585310207" lon="23.604671005019">
        <ele>54.4</ele>
        <time>2014-06-24T17:52:41Z</time>
      </trkpt>
      <trkpt lat="60.09962780644" lon="23.60482766273">
        <ele>56</ele>
        <time>2014-06-24T17:52:49Z</time>
      </trkpt>
      <trkpt lat="60.099654796158" lon="23.604949703194">
        <ele>57.8</ele>
        <time>2014-06-24T17:52:55Z</time>
      </trkpt>
      <trkpt lat="60.099698046762" lon="23.605143827998">
        <ele>60.6</ele>
        <time>2014-06-24T17:53:04Z</time>
      </trkpt>
      <trkpt lat="60.099729311249" lon="23.605289673058">
        <ele>63</ele>
        <time>2014-06-24T17:53:11Z</time>
      </trkpt>
      <trkpt lat="60.099774154414" lon="23.60542948315">
        <ele>65.6</ele>
        <time>2014-06-24T17:53:18Z</time>
      </trkpt>
      <trkpt lat="60.099783542142" lon="23.605450856995">
        <ele>66</ele>
        <time>2014-06-24T17:53:19Z</time>
      </trkpt>
      <trkpt lat="60.09984154489" lon="23.605577507504">
        <ele>68.4</ele>
        <time>2014-06-24T17:53:26Z</time>
      </trkpt>
      <trkpt lat="60.099851267894" lon="23.605609442543">
        <ele>69.2</ele>
        <time>2014-06-24T17:53:28Z</time>
      </trkpt>
      <trkpt lat="60.09985830869" lon="23.605668032024">
        <ele>70.4</ele>
        <time>2014-06-24T17:53:31Z</time>
      </trkpt>
      <trkpt lat="60.099863002554" lon="23.605601563557">
        <ele>72.4</ele>
        <time>2014-06-24T17:53:36Z</time>
      </trkpt>
      <trkpt lat="60.099852860455" lon="23.605565521387">
        <ele>72.8</ele>
        <time>2014-06-24T17:53:37Z</time>
      </trkpt>
      <trkpt lat="60.099747835248" lon="23.605344323046">
        <ele>74.6</ele>
        <time>2014-06-24T17:53:43Z</time>
      </trkpt>
      <trkpt lat="60.099705171377" lon="23.605115580995">
        <ele>76</ele>
        <time>2014-06-24T17:53:48Z</time>
      </trkpt>
      <trkpt lat="60.099644905516" lon="23.604827327454">
        <ele>76.6</ele>
        <time>2014-06-24T17:53:54Z</time>
      </trkpt>
      <trkpt lat="60.099536946644" lon="23.604522058656">
        <ele>75.8</ele>
        <time>2014-06-24T17:54:00Z</time>
      </trkpt>
      <trkpt lat="60.099431921437" lon="23.604466067564">
        <ele>74.6</ele>
        <time>2014-06-24T17:54:04Z</time>
      </trkpt>
      <trkpt lat="60.099311054439" lon="23.604550054202">
        <ele>73.2</ele>
        <time>2014-06-24T17:54:09Z</time>
      </trkpt>
      <trkpt lat="60.099222038661" lon="23.604544438329">
        <ele>72.2</ele>
        <time>2014-06-24T17:54:12Z</time>
      </trkpt>
      <trkpt lat="60.099154564366" lon="23.604241600282">
        <ele>70.2</ele>
        <time>2014-06-24T17:54:18Z</time>
      </trkpt>
      <trkpt lat="60.099158252402" lon="23.604187537027">
        <ele>69.8</ele>
        <time>2014-06-24T17:54:19Z</time>
      </trkpt>
      <trkpt lat="60.099178452781" lon="23.603833150295">
        <ele>67.6</ele>
        <time>2014-06-24T17:54:26Z</time>
      </trkpt>
      <trkpt lat="60.099183901016" lon="23.603543974745">
        <ele>65.8</ele>
        <time>2014-06-24T17:54:32Z</time>
      </trkpt>
      <trkpt lat="60.099155570194" lon="23.603257565222">
        <ele>64.2</ele>
        <time>2014-06-24T17:54:37Z</time>
      </trkpt>
      <trkpt lat="60.099085832786" lon="23.602933772425">
        <ele>62.4</ele>
        <time>2014-06-24T17:54:42Z</time>
      </trkpt>
      <trkpt lat="60.099008300211" lon="23.602731600997">
        <ele>60.8</ele>
        <time>2014-06-24T17:54:46Z</time>
      </trkpt>
      <trkpt lat="60.09893043236" lon="23.602709975695">
        <ele>59.6</ele>
        <time>2014-06-24T17:54:49Z</time>
      </trkpt>
      <trkpt lat="60.098852899785" lon="23.602767810805">
        <ele>57.6</ele>
        <time>2014-06-24T17:54:55Z</time>
      </trkpt>
      <trkpt lat="60.098738151574" lon="23.602830842693">
        <ele>54.4</ele>
        <time>2014-06-24T17:55:04Z</time>
      </trkpt>
      <trkpt lat="60.098669503813" lon="23.602862610094">
        <ele>52.8</ele>
        <time>2014-06-24T17:55:09Z</time>
      </trkpt>
      <trkpt lat="60.098623487182" lon="23.602894126038">
        <ele>50.8</ele>
        <time>2014-06-24T17:55:15Z</time>
      </trkpt>
      <trkpt lat="60.098508236057" lon="23.602935784081">
        <ele>48.6</ele>
        <time>2014-06-24T17:55:21Z</time>
      </trkpt>
      <trkpt lat="60.098491053162" lon="23.602938801565">
        <ele>48.4</ele>
        <time>2014-06-24T17:55:22Z</time>
      </trkpt>
      <trkpt lat="60.098360882255" lon="23.602888677803">
        <ele>47.2</ele>
        <time>2014-06-24T17:55:26Z</time>
      </trkpt>
      <trkpt lat="60.09822048543" lon="23.602961265057">
        <ele>46</ele>
        <time>2014-06-24T17:55:29Z</time>
      </trkpt>
      <trkpt lat="60.098103306468" lon="23.603016250321">
        <ele>45.2</ele>
        <time>2014-06-24T17:55:32Z</time>
      </trkpt>
      <trkpt lat="60.097995766691" lon="23.603062769866">
        <ele>44.2</ele>
        <time>2014-06-24T17:55:35Z</time>
      </trkpt>
      <trkpt lat="60.097868194173" lon="23.603113312723">
        <ele>43</ele>
        <time>2014-06-24T17:55:39Z</time>
      </trkpt>
      <trkpt lat="60.097680523432" lon="23.603172740394">
        <ele>40.6</ele>
        <time>2014-06-24T17:55:45Z</time>
      </trkpt>
      <trkpt lat="60.097535348924" lon="23.603221103957">
        <ele>38.4</ele>
        <time>2014-06-24T17:55:50Z</time>
      </trkpt>
      <trkpt lat="60.097461252928" lon="23.603228731486">
        <ele>37</ele>
        <time>2014-06-24T17:55:53Z</time>
      </trkpt>
      <trkpt lat="60.097456391426" lon="23.603255385928">
        <ele>35.2</ele>
        <time>2014-06-24T17:55:57Z</time>
      </trkpt>
      <trkpt lat="60.097496037813" lon="23.603227390382">
        <ele>33.6</ele>
        <time>2014-06-24T17:56:00Z</time>
      </trkpt>
      <trkpt lat="60.097626041082" lon="23.603166453969">
        <ele>30.2</ele>
        <time>2014-06-24T17:56:09Z</time>
      </trkpt>
      <trkpt lat="60.097735089601" lon="23.603129825066">
        <ele>28.6</ele>
        <time>2014-06-24T17:56:17Z</time>
      </trkpt>
      <trkpt lat="60.097849083441" lon="23.603095040181">
        <ele>26.6</ele>
        <time>2014-06-24T17:56:25Z</time>
      </trkpt>
      <trkpt lat="60.097980511633" lon="23.603060842029">
        <ele>25.8</ele>
        <time>2014-06-24T17:56:34Z</time>
      </trkpt>
      <trkpt lat="60.098067767212" lon="23.603024129307">
        <ele>25.6</ele>
        <time>2014-06-24T17:56:40Z</time>
      </trkpt>
      <trkpt lat="60.098157956456" lon="23.602984734377">
        <ele>25.4</ele>
        <time>2014-06-24T17:56:46Z</time>
      </trkpt>
      <trkpt lat="60.098278571997" lon="23.60294676437">
        <ele>25.2</ele>
        <time>2014-06-24T17:56:54Z</time>
      </trkpt>
      <trkpt lat="60.098393655484" lon="23.602886498509">
        <ele>25.2</ele>
        <time>2014-06-24T17:57:03Z</time>
      </trkpt>
      <trkpt lat="60.098491136981" lon="23.602845930113">
        <ele>25.4</ele>
        <time>2014-06-24T17:57:10Z</time>
      </trkpt>
      <trkpt lat="60.098502620184" lon="23.602846013932">
        <ele>25.6</ele>
        <time>2014-06-24T17:57:11Z</time>
      </trkpt>
      <trkpt lat="60.098533381757" lon="23.60292497143">
        <ele>26.2</ele>
        <time>2014-06-24T17:57:15Z</time>
      </trkpt>
      <trkpt lat="60.098549977919" lon="23.602934023882">
        <ele>26.4</ele>
        <time>2014-06-24T17:57:17Z</time>
      </trkpt>
      <trkpt lat="60.098685848518" lon="23.602887588156">
        <ele>27.4</ele>
        <time>2014-06-24T17:57:29Z</time>
      </trkpt>
      <trkpt lat="60.098768326414" lon="23.602863867379">
        <ele>28.4</ele>
        <time>2014-06-24T17:57:36Z</time>
      </trkpt>
      <trkpt lat="60.098858012744" lon="23.60284115243">
        <ele>30.2</ele>
        <time>2014-06-24T17:57:45Z</time>
      </trkpt>
      <trkpt lat="60.09888014096" lon="23.602825478277">
        <ele>30.4</ele>
        <time>2014-06-24T17:57:47Z</time>
      </trkpt>
      <trkpt lat="60.098970497842" lon="23.602766050606">
        <ele>31.8</ele>
        <time>2014-06-24T17:57:53Z</time>
      </trkpt>
      <trkpt lat="60.099070745366" lon="23.602889935088">
        <ele>32.6</ele>
        <time>2014-06-24T17:57:58Z</time>
      </trkpt>
      <trkpt lat="60.099082731483" lon="23.602929581475">
        <ele>32.8</ele>
        <time>2014-06-24T17:57:59Z</time>
      </trkpt>
      <trkpt lat="60.099147188294" lon="23.603160083725">
        <ele>34.8</ele>
        <time>2014-06-24T17:58:07Z</time>
      </trkpt>
      <trkpt lat="60.099182476093" lon="23.603309365364">
        <ele>36</ele>
        <time>2014-06-24T17:58:12Z</time>
      </trkpt>
      <trkpt lat="60.099195048943" lon="23.603456132433">
        <ele>37.2</ele>
        <time>2014-06-24T17:58:17Z</time>
      </trkpt>
      <trkpt lat="60.099201419187" lon="23.603640953328">
        <ele>39</ele>
        <time>2014-06-24T17:58:24Z</time>
      </trkpt>
      <trkpt lat="60.09919781497" lon="23.603723263586">
        <ele>40</ele>
        <time>2014-06-24T17:58:28Z</time>
      </trkpt>
      <trkpt lat="60.099203598481" lon="23.603830048992">
        <ele>41.2</ele>
        <time>2014-06-24T17:58:32Z</time>
      </trkpt>
      <trkpt lat="60.099194797486" lon="23.604013193507">
        <ele>43.4</ele>
        <time>2014-06-24T17:58:40Z</time>
      </trkpt>
      <trkpt lat="60.099189600708" lon="23.60413867055">
        <ele>44.6</ele>
        <time>2014-06-24T17:58:45Z</time>
      </trkpt>
      <trkpt lat="60.099182056998" lon="23.604346793127">
        <ele>46.6</ele>
        <time>2014-06-24T17:58:53Z</time>
      </trkpt>
      <trkpt lat="60.099200748635" lon="23.604510743091">
        <ele>48</ele>
        <time>2014-06-24T17:58:59Z</time>
      </trkpt>
      <trkpt lat="60.099259924849" lon="23.60464493731">
        <ele>50</ele>
        <time>2014-06-24T17:59:06Z</time>
      </trkpt>
      <trkpt lat="60.099285070549" lon="23.604653235391">
        <ele>50.6</ele>
        <time>2014-06-24T17:59:08Z</time>
      </trkpt>
      <trkpt lat="60.099347264247" lon="23.604624988388">
        <ele>51.4</ele>
        <time>2014-06-24T17:59:13Z</time>
      </trkpt>
      <trkpt lat="60.099469053254" lon="23.604531362565">
        <ele>53.2</ele>
        <time>2014-06-24T17:59:21Z</time>
      </trkpt>
      <trkpt lat="60.099548513666" lon="23.604567656192">
        <ele>54.2</ele>
        <time>2014-06-24T17:59:27Z</time>
      </trkpt>
      <trkpt lat="60.099616155599" lon="23.604734288364">
        <ele>55.8</ele>
        <time>2014-06-24T17:59:35Z</time>
      </trkpt>
      <trkpt lat="60.099657562185" lon="23.604887006582">
        <ele>57.4</ele>
        <time>2014-06-24T17:59:42Z</time>
      </trkpt>
      <trkpt lat="60.099699806961" lon="23.60505481222">
        <ele>60.2</ele>
        <time>2014-06-24T17:59:50Z</time>
      </trkpt>
      <trkpt lat="60.09973258019" lon="23.605237370002">
        <ele>63.2</ele>
        <time>2014-06-24T17:59:58Z</time>
      </trkpt>
      <trkpt lat="60.099761330107" lon="23.605345831788">
        <ele>65.8</ele>
        <time>2014-06-24T18:00:04Z</time>
      </trkpt>
      <trkpt lat="60.099825786918" lon="23.60548899464">
        <ele>69.2</ele>
        <time>2014-06-24T18:00:12Z</time>
      </trkpt>
      <trkpt lat="60.099872809377" lon="23.605639114469">
        <ele>71.8</ele>
        <time>2014-06-24T18:00:19Z</time>
      </trkpt>
      <trkpt lat="60.099874318119" lon="23.60566082359">
        <ele>72.4</ele>
        <time>2014-06-24T18:00:20Z</time>
      </trkpt>
      <trkpt lat="60.099873731386" lon="23.605631822216">
        <ele>75</ele>
        <time>2014-06-24T18:00:26Z</time>
      </trkpt>
      <trkpt lat="60.0998323248" lon="23.605499220558">
        <ele>77</ele>
        <time>2014-06-24T18:00:32Z</time>
      </trkpt>
      <trkpt lat="60.099819584312" lon="23.605486731527">
        <ele>77.2</ele>
        <time>2014-06-24T18:00:33Z</time>
      </trkpt>
      <trkpt lat="60.099720091159" lon="23.605223036953">
        <ele>79.2</ele>
        <time>2014-06-24T18:00:41Z</time>
      </trkpt>
      <trkpt lat="60.099686395921" lon="23.60501625548">
        <ele>79.6</ele>
        <time>2014-06-24T18:00:46Z</time>
      </trkpt>
      <trkpt lat="60.099634847236" lon="23.604784412126">
        <ele>79</ele>
        <time>2014-06-24T18:00:51Z</time>
      </trkpt>
      <trkpt lat="60.099537701015" lon="23.604535218239">
        <ele>77.8</ele>
        <time>2014-06-24T18:00:56Z</time>
      </trkpt>
      <trkpt lat="60.099512471496" lon="23.60450076863">
        <ele>77.6</ele>
        <time>2014-06-24T18:00:57Z</time>
      </trkpt>
      <trkpt lat="60.09936210021" lon="23.604564806346">
        <ele>75.8</ele>
        <time>2014-06-24T18:01:03Z</time>
      </trkpt>
      <trkpt lat="60.099314742475" lon="23.604590622598">
        <ele>75.2</ele>
        <time>2014-06-24T18:01:05Z</time>
      </trkpt>
      <trkpt lat="60.099186415586" lon="23.604494985119">
        <ele>74</ele>
        <time>2014-06-24T18:01:10Z</time>
      </trkpt>
      <trkpt lat="60.099158336221" lon="23.604218382419">
        <ele>72.4</ele>
        <time>2014-06-24T18:01:15Z</time>
      </trkpt>
      <trkpt lat="60.099167304854" lon="23.604052672256">
        <ele>71.8</ele>
        <time>2014-06-24T18:01:18Z</time>
      </trkpt>
      <trkpt lat="60.099184823025" lon="23.603702476474">
        <ele>69.6</ele>
        <time>2014-06-24T18:01:25Z</time>
      </trkpt>
      <trkpt lat="60.099163784456" lon="23.603315651789">
        <ele>67.4</ele>
        <time>2014-06-24T18:01:32Z</time>
      </trkpt>
      <trkpt lat="60.099099998197" lon="23.602979537599">
        <ele>65.4</ele>
        <time>2014-06-24T18:01:37Z</time>
      </trkpt>
      <trkpt lat="60.098981478131" lon="23.602741743096">
        <ele>63.6</ele>
        <time>2014-06-24T18:01:42Z</time>
      </trkpt>
      <trkpt lat="60.098923140107" lon="23.602743754752">
        <ele>62.8</ele>
        <time>2014-06-24T18:01:44Z</time>
      </trkpt>
      <trkpt lat="60.098864382988" lon="23.602799494387">
        <ele>61.6</ele>
        <time>2014-06-24T18:01:48Z</time>
      </trkpt>
      <trkpt lat="60.098723650887" lon="23.602858670601">
        <ele>57.8</ele>
        <time>2014-06-24T18:01:59Z</time>
      </trkpt>
      <trkpt lat="60.098686435251" lon="23.602855234022">
        <ele>56</ele>
        <time>2014-06-24T18:02:04Z</time>
      </trkpt>
      <trkpt lat="60.098648297606" lon="23.602888426346">
        <ele>54.2</ele>
        <time>2014-06-24T18:02:09Z</time>
      </trkpt>
      <trkpt lat="60.098530196635" lon="23.602926563991">
        <ele>52</ele>
        <time>2014-06-24T18:02:15Z</time>
      </trkpt>
      <trkpt lat="60.098423746505" lon="23.602903849042">
        <ele>50.2</ele>
        <time>2014-06-24T18:02:20Z</time>
      </trkpt>
      <trkpt lat="60.098311261407" lon="23.602918768824">
        <ele>49.2</ele>
        <time>2014-06-24T18:02:23Z</time>
      </trkpt>
      <trkpt lat="60.098122584838" lon="23.603014322484">
        <ele>47.2</ele>
        <time>2014-06-24T18:02:28Z</time>
      </trkpt>
      <trkpt lat="60.097943379816" lon="23.60307752201">
        <ele>45.4</ele>
        <time>2014-06-24T18:02:33Z</time>
      </trkpt>
      <trkpt lat="60.097749590288" lon="23.603136111491">
        <ele>43</ele>
        <time>2014-06-24T18:02:39Z</time>
      </trkpt>
      <trkpt lat="60.097548424688" lon="23.603225127269">
        <ele>40</ele>
        <time>2014-06-24T18:02:45Z</time>
      </trkpt>
      <trkpt lat="60.09746695262" lon="23.603244154182">
        <ele>38.2</ele>
        <time>2014-06-24T18:02:48Z</time>
      </trkpt>
      <trkpt lat="60.097471562665" lon="23.60328455494">
        <ele>35.4</ele>
        <time>2014-06-24T18:02:53Z</time>
      </trkpt>
      <trkpt lat="60.097478184366" lon="23.603276340678">
        <ele>34.8</ele>
        <time>2014-06-24T18:02:54Z</time>
      </trkpt>
      <trkpt lat="60.097560746081" lon="23.603207357641">
        <ele>31.4</ele>
        <time>2014-06-24T18:03:01Z</time>
      </trkpt>
      <trkpt lat="60.097615815164" lon="23.603166621607">
        <ele>29.4</ele>
        <time>2014-06-24T18:03:04Z</time>
      </trkpt>
      <trkpt lat="60.09776534826" lon="23.603100320778">
        <ele>27.4</ele>
        <time>2014-06-24T18:03:12Z</time>
      </trkpt>
      <trkpt lat="60.097870373467" lon="23.603075761811">
        <ele>25.6</ele>
        <time>2014-06-24T18:03:18Z</time>
      </trkpt>
      <trkpt lat="60.097963915471" lon="23.603050532292">
        <ele>24.8</ele>
        <time>2014-06-24T18:03:23Z</time>
      </trkpt>
      <trkpt lat="60.098080004786" lon="23.602978867047">
        <ele>24.2</ele>
        <time>2014-06-24T18:03:29Z</time>
      </trkpt>
      <trkpt lat="60.098202129069" lon="23.602940729402">
        <ele>24</ele>
        <time>2014-06-24T18:03:35Z</time>
      </trkpt>
      <trkpt lat="60.098316122909" lon="23.602894461314">
        <ele>23.8</ele>
        <time>2014-06-24T18:03:41Z</time>
      </trkpt>
      <trkpt lat="60.098405390144" lon="23.602851378348">
        <ele>23.8</ele>
        <time>2014-06-24T18:03:46Z</time>
      </trkpt>
      <trkpt lat="60.098495160293" lon="23.602825059182">
        <ele>24.4</ele>
        <time>2014-06-24T18:03:51Z</time>
      </trkpt>
      <trkpt lat="60.09850714641" lon="23.602824891544">
        <ele>24.6</ele>
        <time>2014-06-24T18:03:52Z</time>
      </trkpt>
      <trkpt lat="60.098542937123" lon="23.60290150211">
        <ele>25</ele>
        <time>2014-06-24T18:03:57Z</time>
      </trkpt>
      <trkpt lat="60.098573447239" lon="23.602886749966">
        <ele>25.2</ele>
        <time>2014-06-24T18:03:59Z</time>
      </trkpt>
      <trkpt lat="60.098593396161" lon="23.602882894292">
        <ele>25.4</ele>
        <time>2014-06-24T18:04:00Z</time>
      </trkpt>
      <trkpt lat="60.098686854346" lon="23.602857161859">
        <ele>26.6</ele>
        <time>2014-06-24T18:04:07Z</time>
      </trkpt>
      <trkpt lat="60.098768410233" lon="23.602832016159">
        <ele>27.4</ele>
        <time>2014-06-24T18:04:13Z</time>
      </trkpt>
      <trkpt lat="60.098856755459" lon="23.602793962333">
        <ele>28.6</ele>
        <time>2014-06-24T18:04:20Z</time>
      </trkpt>
      <trkpt lat="60.098942669934" lon="23.602739982897">
        <ele>29.8</ele>
        <time>2014-06-24T18:04:25Z</time>
      </trkpt>
      <trkpt lat="60.099047108408" lon="23.602845091923">
        <ele>30.8</ele>
        <time>2014-06-24T18:04:30Z</time>
      </trkpt>
      <trkpt lat="60.099099998197" lon="23.603012394647">
        <ele>32</ele>
        <time>2014-06-24T18:04:34Z</time>
      </trkpt>
      <trkpt lat="60.099114750341" lon="23.603057992183">
        <ele>32.2</ele>
        <time>2014-06-24T18:04:35Z</time>
      </trkpt>
      <trkpt lat="60.099167807768" lon="23.603280615447">
        <ele>33.6</ele>
        <time>2014-06-24T18:04:41Z</time>
      </trkpt>
      <trkpt lat="60.099196557685" lon="23.603501143236">
        <ele>35</ele>
        <time>2014-06-24T18:04:47Z</time>
      </trkpt>
      <trkpt lat="60.099208292345" lon="23.603652939445">
        <ele>36.6</ele>
        <time>2014-06-24T18:04:52Z</time>
      </trkpt>
      <trkpt lat="60.099213656761" lon="23.603815213029">
        <ele>38.2</ele>
        <time>2014-06-24T18:04:57Z</time>
      </trkpt>
      <trkpt lat="60.099199072255" lon="23.603935912389">
        <ele>39.4</ele>
        <time>2014-06-24T18:05:01Z</time>
      </trkpt>
      <trkpt lat="60.099193959296" lon="23.604092653919">
        <ele>40.8</ele>
        <time>2014-06-24T18:05:06Z</time>
      </trkpt>
      <trkpt lat="60.099183481921" lon="23.604279737927">
        <ele>42.8</ele>
        <time>2014-06-24T18:05:12Z</time>
      </trkpt>
      <trkpt lat="60.099206448327" lon="23.604462966261">
        <ele>44.6</ele>
        <time>2014-06-24T18:05:17Z</time>
      </trkpt>
      <trkpt lat="60.099283645626" lon="23.604594059177">
        <ele>46.4</ele>
        <time>2014-06-24T18:05:22Z</time>
      </trkpt>
      <trkpt lat="60.099296889028" lon="23.60459883686">
        <ele>46.8</ele>
        <time>2014-06-24T18:05:23Z</time>
      </trkpt>
      <trkpt lat="60.099382552046" lon="23.604544941243">
        <ele>48.6</ele>
        <time>2014-06-24T18:05:28Z</time>
      </trkpt>
      <trkpt lat="60.099513980238" lon="23.60449322492">
        <ele>50.8</ele>
        <time>2014-06-24T18:05:34Z</time>
      </trkpt>
      <trkpt lat="60.09953309097" lon="23.604512419471">
        <ele>51</ele>
        <time>2014-06-24T18:05:35Z</time>
      </trkpt>
      <trkpt lat="60.099613724848" lon="23.604689445199">
        <ele>52.8</ele>
        <time>2014-06-24T18:05:41Z</time>
      </trkpt>
      <trkpt lat="60.099669380664" lon="23.604875104284">
        <ele>55</ele>
        <time>2014-06-24T18:05:47Z</time>
      </trkpt>
      <trkpt lat="60.099749260171" lon="23.60514198398">
        <ele>58.6</ele>
        <time>2014-06-24T18:05:55Z</time>
      </trkpt>
      <trkpt lat="60.09981053186" lon="23.605315740767">
        <ele>61.8</ele>
        <time>2014-06-24T18:06:01Z</time>
      </trkpt>
      <trkpt lat="60.099889908453" lon="23.605484552233">
        <ele>65.2</ele>
        <time>2014-06-24T18:06:07Z</time>
      </trkpt>
      <trkpt lat="60.099892758299" lon="23.605514224159">
        <ele>65.6</ele>
        <time>2014-06-24T18:06:08Z</time>
      </trkpt>
      <trkpt lat="60.099883622028" lon="23.605548422311">
        <ele>68.4</ele>
        <time>2014-06-24T18:06:13Z</time>
      </trkpt>
      <trkpt lat="60.09986752878" lon="23.605585637947">
        <ele>80.8</ele>
        <time>2014-06-24T18:06:48Z</time>
      </trkpt>
      <trkpt lat="60.099873479929" lon="23.605622099212">
        <ele>84.6</ele>
        <time>2014-06-24T18:07:12Z</time>
      </trkpt>
      <trkpt lat="60.099871803549" lon="23.605639533564">
        <ele>85</ele>
        <time>2014-06-24T18:07:19Z</time>
      </trkpt>
      <trkpt lat="60.099868786065" lon="23.605664846902">
        <ele>87.2</ele>
        <time>2014-06-24T18:07:53Z</time>
      </trkpt>
      <trkpt lat="60.099873479929" lon="23.60565244169">
        <ele>87.2</ele>
        <time>2014-06-24T18:09:06Z</time>
      </trkpt>
      <trkpt lat="60.099882197105" lon="23.605570969622">
        <ele>88.8</ele>
        <time>2014-06-24T18:09:18Z</time>
      </trkpt>
      <trkpt lat="60.099849759152" lon="23.605416155929">
        <ele>89</ele>
        <time>2014-06-24T18:09:25Z</time>
      </trkpt>
      <trkpt lat="60.099755965691" lon="23.605231418853">
        <ele>89.2</ele>
        <time>2014-06-24T18:09:32Z</time>
      </trkpt>
      <trkpt lat="60.099720342616" lon="23.604991277418">
        <ele>88.4</ele>
        <time>2014-06-24T18:09:37Z</time>
      </trkpt>
      <trkpt lat="60.099670805587" lon="23.604800589193">
        <ele>87</ele>
        <time>2014-06-24T18:09:42Z</time>
      </trkpt>
      <trkpt lat="60.099577934135" lon="23.604480987346">
        <ele>84</ele>
        <time>2014-06-24T18:09:49Z</time>
      </trkpt>
      <trkpt lat="60.099385150435" lon="23.604454416723">
        <ele>80.4</ele>
        <time>2014-06-24T18:09:57Z</time>
      </trkpt>
      <trkpt lat="60.099265792179" lon="23.604501942096">
        <ele>78.6</ele>
        <time>2014-06-24T18:10:02Z</time>
      </trkpt>
      <trkpt lat="60.099166382845" lon="23.604352241362">
        <ele>76.8</ele>
        <time>2014-06-24T18:10:07Z</time>
      </trkpt>
      <trkpt lat="60.099163281542" lon="23.604141939491">
        <ele>75</ele>
        <time>2014-06-24T18:10:11Z</time>
      </trkpt>
      <trkpt lat="60.099191863821" lon="23.603797694858">
        <ele>72.2</ele>
        <time>2014-06-24T18:10:18Z</time>
      </trkpt>
      <trkpt lat="60.099199575169" lon="23.603506591471">
        <ele>69.2</ele>
        <time>2014-06-24T18:10:24Z</time>
      </trkpt>
      <trkpt lat="60.099163197723" lon="23.603165867236">
        <ele>66</ele>
        <time>2014-06-24T18:10:30Z</time>
      </trkpt>
      <trkpt lat="60.09908968846" lon="23.602865879035">
        <ele>63.4</ele>
        <time>2014-06-24T18:10:35Z</time>
      </trkpt>
      <trkpt lat="60.098994470076" lon="23.602705617107">
        <ele>61.6</ele>
        <time>2014-06-24T18:10:39Z</time>
      </trkpt>
      <trkpt lat="60.098912662732" lon="23.602690864963">
        <ele>60.2</ele>
        <time>2014-06-24T18:10:42Z</time>
      </trkpt>
      <trkpt lat="60.098843595876" lon="23.6027514661">
        <ele>58.2</ele>
        <time>2014-06-24T18:10:47Z</time>
      </trkpt>
      <trkpt lat="60.098703450508" lon="23.602822879888">
        <ele>55</ele>
        <time>2014-06-24T18:10:55Z</time>
      </trkpt>
      <trkpt lat="60.098590630134" lon="23.602872836012">
        <ele>52.2</ele>
        <time>2014-06-24T18:11:01Z</time>
      </trkpt>
      <trkpt lat="60.09848535347" lon="23.602909213458">
        <ele>49.6</ele>
        <time>2014-06-24T18:11:06Z</time>
      </trkpt>
      <trkpt lat="60.098410503103" lon="23.602867639234">
        <ele>48</ele>
        <time>2014-06-24T18:11:09Z</time>
      </trkpt>
      <trkpt lat="60.098269268088" lon="23.602932263683">
        <ele>45.2</ele>
        <time>2014-06-24T18:11:14Z</time>
      </trkpt>
      <trkpt lat="60.098086961763" lon="23.603020944185">
        <ele>41</ele>
        <time>2014-06-24T18:11:21Z</time>
      </trkpt>
      <trkpt lat="60.097959137788" lon="23.603066457902">
        <ele>38.4</ele>
        <time>2014-06-24T18:11:26Z</time>
      </trkpt>
      <trkpt lat="60.097797283299" lon="23.603106355746">
        <ele>35.2</ele>
        <time>2014-06-24T18:11:32Z</time>
      </trkpt>
      <trkpt lat="60.097656299741" lon="23.60316050282">
        <ele>32.8</ele>
        <time>2014-06-24T18:11:37Z</time>
      </trkpt>
      <trkpt lat="60.097550184887" lon="23.603201155035">
        <ele>30.8</ele>
        <time>2014-06-24T18:11:41Z</time>
      </trkpt>
      <trkpt lat="60.097495199623" lon="23.603204843071">
        <ele>29</ele>
        <time>2014-06-24T18:11:45Z</time>
      </trkpt>
      <trkpt lat="60.097560159348" lon="23.60319486861">
        <ele>25.6</ele>
        <time>2014-06-24T18:11:54Z</time>
      </trkpt>
      <trkpt lat="60.097670297514" lon="23.603175925516">
        <ele>23</ele>
        <time>2014-06-24T18:12:02Z</time>
      </trkpt>
      <trkpt lat="60.097771969961" lon="23.603144996305">
        <ele>21.4</ele>
        <time>2014-06-24T18:12:10Z</time>
      </trkpt>
      <trkpt lat="60.097878168634" lon="23.603118677139">
        <ele>20</ele>
        <time>2014-06-24T18:12:18Z</time>
      </trkpt>
      <trkpt lat="60.097970285715" lon="23.603090681593">
        <ele>19.4</ele>
        <time>2014-06-24T18:12:25Z</time>
      </trkpt>
      <trkpt lat="60.098061564606" lon="23.603064194789">
        <ele>19.2</ele>
        <time>2014-06-24T18:12:32Z</time>
      </trkpt>
      <trkpt lat="60.098170026392" lon="23.603017507606">
        <ele>19</ele>
        <time>2014-06-24T18:12:40Z</time>
      </trkpt>
      <trkpt lat="60.098322828429" lon="23.60294173523">
        <ele>19</ele>
        <time>2014-06-24T18:12:51Z</time>
      </trkpt>
      <trkpt lat="60.098372533096" lon="23.602939555936">
        <ele>19.6</ele>
        <time>2014-06-24T18:12:55Z</time>
      </trkpt>
      <trkpt lat="60.098487616583" lon="23.60288725288">
        <ele>20.6</ele>
        <time>2014-06-24T18:13:05Z</time>
      </trkpt>
      <trkpt lat="60.098501698175" lon="23.602887336699">
        <ele>20.6</ele>
        <time>2014-06-24T18:13:06Z</time>
      </trkpt>
      <trkpt lat="60.098550564652" lon="23.602932598959">
        <ele>21.2</ele>
        <time>2014-06-24T18:13:11Z</time>
      </trkpt>
      <trkpt lat="60.098582164415" lon="23.602940477945">
        <ele>21.8</ele>
        <time>2014-06-24T18:13:15Z</time>
      </trkpt>
      <trkpt lat="60.098593815256" lon="23.602935197348">
        <ele>22</ele>
        <time>2014-06-24T18:13:16Z</time>
      </trkpt>
      <trkpt lat="60.098675203505" lon="23.602915248426">
        <ele>22.6</ele>
        <time>2014-06-24T18:13:23Z</time>
      </trkpt>
      <trkpt lat="60.098736056099" lon="23.60290988401">
        <ele>23.4</ele>
        <time>2014-06-24T18:13:28Z</time>
      </trkpt>
      <trkpt lat="60.098809146267" lon="23.602871075813">
        <ele>24.2</ele>
        <time>2014-06-24T18:13:35Z</time>
      </trkpt>
      <trkpt lat="60.098883074625" lon="23.602830507417">
        <ele>25.6</ele>
        <time>2014-06-24T18:13:43Z</time>
      </trkpt>
      <trkpt lat="60.098939317174" lon="23.60276571533">
        <ele>26.8</ele>
        <time>2014-06-24T18:13:48Z</time>
      </trkpt>
      <trkpt lat="60.099045599666" lon="23.602782646768">
        <ele>27.8</ele>
        <time>2014-06-24T18:13:53Z</time>
      </trkpt>
      <trkpt lat="60.099066135321" lon="23.602797901826">
        <ele>28</ele>
        <time>2014-06-24T18:13:54Z</time>
      </trkpt>
      <trkpt lat="60.099116594359" lon="23.602990266431">
        <ele>29.2</ele>
        <time>2014-06-24T18:13:59Z</time>
      </trkpt>
      <trkpt lat="60.099122796965" lon="23.603014406303">
        <ele>29.4</ele>
        <time>2014-06-24T18:14:00Z</time>
      </trkpt>
      <trkpt lat="60.099155821651" lon="23.603130411799">
        <ele>30.6</ele>
        <time>2014-06-24T18:14:04Z</time>
      </trkpt>
      <trkpt lat="60.099194629848" lon="23.6033381991">
        <ele>33</ele>
        <time>2014-06-24T18:14:12Z</time>
      </trkpt>
      <trkpt lat="60.099208208526" lon="23.603502065245">
        <ele>35</ele>
        <time>2014-06-24T18:14:18Z</time>
      </trkpt>
      <trkpt lat="60.099216506607" lon="23.603644306088">
        <ele>37.2</ele>
        <time>2014-06-24T18:14:24Z</time>
      </trkpt>
      <trkpt lat="60.099209465811" lon="23.603730304382">
        <ele>38.8</ele>
        <time>2014-06-24T18:14:28Z</time>
      </trkpt>
      <trkpt lat="60.099211896562" lon="23.603869360103">
        <ele>41</ele>
        <time>2014-06-24T18:14:34Z</time>
      </trkpt>
      <trkpt lat="60.099212650933" lon="23.603986036151">
        <ele>42.8</ele>
        <time>2014-06-24T18:14:39Z</time>
      </trkpt>
      <trkpt lat="60.099209046716" lon="23.604104807674">
        <ele>44.6</ele>
        <time>2014-06-24T18:14:44Z</time>
      </trkpt>
      <trkpt lat="60.099206532146" lon="23.604276217529">
        <ele>47</ele>
        <time>2014-06-24T18:14:51Z</time>
      </trkpt>
      <trkpt lat="60.099202508834" lon="23.604457601845">
        <ele>49.2</ele>
        <time>2014-06-24T18:14:58Z</time>
      </trkpt>
      <trkpt lat="60.099237628995" lon="23.604579642309">
        <ele>51.2</ele>
        <time>2014-06-24T18:15:04Z</time>
      </trkpt>
      <trkpt lat="60.099289764413" lon="23.60463823179">
        <ele>53</ele>
        <time>2014-06-24T18:15:09Z</time>
      </trkpt>
      <trkpt lat="60.099377103811" lon="23.60460470419">
        <ele>54.6</ele>
        <time>2014-06-24T18:15:16Z</time>
      </trkpt>
      <trkpt lat="60.099446254486" lon="23.604543767777">
        <ele>56</ele>
        <time>2014-06-24T18:15:21Z</time>
      </trkpt>
      <trkpt lat="60.099516578627" lon="23.60449071035">
        <ele>57</ele>
        <time>2014-06-24T18:15:26Z</time>
      </trkpt>
      <trkpt lat="60.099594614116" lon="23.604618785782">
        <ele>58.4</ele>
        <time>2014-06-24T18:15:33Z</time>
      </trkpt>
      <trkpt lat="60.099634931055" lon="23.604739401323">
        <ele>59.4</ele>
        <time>2014-06-24T18:15:39Z</time>
      </trkpt>
      <trkpt lat="60.099641301299" lon="23.60475893115">
        <ele>59.6</ele>
        <time>2014-06-24T18:15:40Z</time>
      </trkpt>
      <trkpt lat="60.099670637949" lon="23.604887090401">
        <ele>61.2</ele>
        <time>2014-06-24T18:15:47Z</time>
      </trkpt>
      <trkpt lat="60.099702572988" lon="23.605006783933">
        <ele>63.2</ele>
        <time>2014-06-24T18:15:54Z</time>
      </trkpt>
      <trkpt lat="60.099736352045" lon="23.605181546548">
        <ele>65.8</ele>
        <time>2014-06-24T18:16:02Z</time>
      </trkpt>
      <trkpt lat="60.099756636243" lon="23.605291265619">
        <ele>67.8</ele>
        <time>2014-06-24T18:16:08Z</time>
      </trkpt>
      <trkpt lat="60.099799886847" lon="23.605412467893">
        <ele>70.4</ele>
        <time>2014-06-24T18:16:15Z</time>
      </trkpt>
      <trkpt lat="60.099850094428" lon="23.605522689878">
        <ele>72.4</ele>
        <time>2014-06-24T18:16:21Z</time>
      </trkpt>
      <trkpt lat="60.099896194878" lon="23.605659566305">
        <ele>74.6</ele>
        <time>2014-06-24T18:16:28Z</time>
      </trkpt>
      <trkpt lat="60.099897871258" lon="23.605676330105">
        <ele>75</ele>
        <time>2014-06-24T18:16:29Z</time>
      </trkpt>
      <trkpt lat="60.099905331149" lon="23.605659901581">
        <ele>76</ele>
        <time>2014-06-24T18:16:33Z</time>
      </trkpt>
      <trkpt lat="60.099836934845" lon="23.605493688504">
        <ele>77.8</ele>
        <time>2014-06-24T18:16:39Z</time>
      </trkpt>
      <trkpt lat="60.099752948207" lon="23.605296378578">
        <ele>78.8</ele>
        <time>2014-06-24T18:16:45Z</time>
      </trkpt>
      <trkpt lat="60.099709529965" lon="23.605040227714">
        <ele>78.8</ele>
        <time>2014-06-24T18:16:51Z</time>
      </trkpt>
      <trkpt lat="60.099658484194" lon="23.604820538115">
        <ele>77.8</ele>
        <time>2014-06-24T18:16:57Z</time>
      </trkpt>
      <trkpt lat="60.09953392916" lon="23.604506216865">
        <ele>75.8</ele>
        <time>2014-06-24T18:17:04Z</time>
      </trkpt>
      <trkpt lat="60.099506604166" lon="23.604490123617">
        <ele>75.4</ele>
        <time>2014-06-24T18:17:05Z</time>
      </trkpt>
      <trkpt lat="60.0994048479" lon="23.604550976211">
        <ele>74</ele>
        <time>2014-06-24T18:17:09Z</time>
      </trkpt>
      <trkpt lat="60.099359334183" lon="23.604577798291">
        <ele>73.4</ele>
        <time>2014-06-24T18:17:11Z</time>
      </trkpt>
      <trkpt lat="60.099206615965" lon="23.604523483579">
        <ele>71.4</ele>
        <time>2014-06-24T18:17:17Z</time>
      </trkpt>
      <trkpt lat="60.099171328166" lon="23.604312427337">
        <ele>70.2</ele>
        <time>2014-06-24T18:17:21Z</time>
      </trkpt>
      <trkpt lat="60.099187589052" lon="23.603968434161">
        <ele>68</ele>
        <time>2014-06-24T18:17:28Z</time>
      </trkpt>
      <trkpt lat="60.099196557685" lon="23.603713875858">
        <ele>65.8</ele>
        <time>2014-06-24T18:17:34Z</time>
      </trkpt>
      <trkpt lat="60.099183062826" lon="23.603412127458">
        <ele>63.4</ele>
        <time>2014-06-24T18:17:40Z</time>
      </trkpt>
      <trkpt lat="60.099127993743" lon="23.603093782896">
        <ele>61</ele>
        <time>2014-06-24T18:17:45Z</time>
      </trkpt>
      <trkpt lat="60.099030344608" lon="23.60276068619">
        <ele>58.4</ele>
        <time>2014-06-24T18:17:51Z</time>
      </trkpt>
      <trkpt lat="60.098918865338" lon="23.602745766408">
        <ele>56.2</ele>
        <time>2014-06-24T18:17:57Z</time>
      </trkpt>
      <trkpt lat="60.098910483438" lon="23.602761356742">
        <ele>55.8</ele>
        <time>2014-06-24T18:17:58Z</time>
      </trkpt>
      <trkpt lat="60.0988851701" lon="23.602794800523">
        <ele>55.4</ele>
        <time>2014-06-24T18:18:00Z</time>
      </trkpt>
      <trkpt lat="60.098750975881" lon="23.602862861551">
        <ele>52.8</ele>
        <time>2014-06-24T18:18:08Z</time>
      </trkpt>
      <trkpt lat="60.098612506893" lon="23.602913907322">
        <ele>50.2</ele>
        <time>2014-06-24T18:18:15Z</time>
      </trkpt>
      <trkpt lat="60.098458112295" lon="23.602928994742">
        <ele>46.8</ele>
        <time>2014-06-24T18:18:23Z</time>
      </trkpt>
      <trkpt lat="60.09829424615" lon="23.602937209004">
        <ele>44.2</ele>
        <time>2014-06-24T18:18:28Z</time>
      </trkpt>
      <trkpt lat="60.098135241507" lon="23.603024296945">
        <ele>41.6</ele>
        <time>2014-06-24T18:18:33Z</time>
      </trkpt>
      <trkpt lat="60.097948492775" lon="23.603080707132">
        <ele>38</ele>
        <time>2014-06-24T18:18:39Z</time>
      </trkpt>
      <trkpt lat="60.097793427625" lon="23.603125634116">
        <ele>35.2</ele>
        <time>2014-06-24T18:18:44Z</time>
      </trkpt>
      <trkpt lat="60.097676332482" lon="23.603166118693">
        <ele>33</ele>
        <time>2014-06-24T18:18:48Z</time>
      </trkpt>
      <trkpt lat="60.097524368635" lon="23.603216745369">
        <ele>30.4</ele>
        <time>2014-06-24T18:18:53Z</time>
      </trkpt>
      <trkpt lat="60.097480279841" lon="23.603231078418">
        <ele>29</ele>
        <time>2014-06-24T18:18:55Z</time>
      </trkpt>
      <trkpt lat="60.097507353378" lon="23.603243315992">
        <ele>26.4</ele>
        <time>2014-06-24T18:19:00Z</time>
      </trkpt>
      <trkpt lat="60.097521770246" lon="23.603231916608">
        <ele>26</ele>
        <time>2014-06-24T18:19:01Z</time>
      </trkpt>
      <trkpt lat="60.097587232885" lon="23.603203501967">
        <ele>24.2</ele>
        <time>2014-06-24T18:19:06Z</time>
      </trkpt>
      <trkpt lat="60.09768320564" lon="23.603175338783">
        <ele>21.6</ele>
        <time>2014-06-24T18:19:14Z</time>
      </trkpt>
      <trkpt lat="60.097752943048" lon="23.603153126748">
        <ele>20.6</ele>
        <time>2014-06-24T18:19:20Z</time>
      </trkpt>
      <trkpt lat="60.097874648236" lon="23.603116833121">
        <ele>19.8</ele>
        <time>2014-06-24T18:19:30Z</time>
      </trkpt>
      <trkpt lat="60.097951174983" lon="23.603089005213">
        <ele>19.6</ele>
        <time>2014-06-24T18:19:37Z</time>
      </trkpt>
      <trkpt lat="60.098007501351" lon="23.603078108743">
        <ele>19.6</ele>
        <time>2014-06-24T18:19:41Z</time>
      </trkpt>
      <trkpt lat="60.098111353092" lon="23.60302471604">
        <ele>20</ele>
        <time>2014-06-24T18:19:49Z</time>
      </trkpt>
      <trkpt lat="60.098128200711" lon="23.603023542574">
        <ele>20.2</ele>
        <time>2014-06-24T18:19:50Z</time>
      </trkpt>
      <trkpt lat="60.098211768254" lon="23.602981884531">
        <ele>20.8</ele>
        <time>2014-06-24T18:19:56Z</time>
      </trkpt>
      <trkpt lat="60.09833280289" lon="23.602919523195">
        <ele>21.4</ele>
        <time>2014-06-24T18:20:05Z</time>
      </trkpt>
      <trkpt lat="60.098344202274" lon="23.602912817675">
        <ele>21.4</ele>
        <time>2014-06-24T18:20:06Z</time>
      </trkpt>
      <trkpt lat="60.098386530869" lon="23.602894293676">
        <ele>22.4</ele>
        <time>2014-06-24T18:20:11Z</time>
      </trkpt>
      <trkpt lat="60.098489879696" lon="23.602854814927">
        <ele>23.6</ele>
        <time>2014-06-24T18:20:19Z</time>
      </trkpt>
      <trkpt lat="60.098530699549" lon="23.602841739163">
        <ele>24.2</ele>
        <time>2014-06-24T18:20:22Z</time>
      </trkpt>
      <trkpt lat="60.098558695095" lon="23.602923211231">
        <ele>25.2</ele>
        <time>2014-06-24T18:20:27Z</time>
      </trkpt>
      <trkpt lat="60.098578057284" lon="23.602928910923">
        <ele>25.8</ele>
        <time>2014-06-24T18:20:29Z</time>
      </trkpt>
      <trkpt lat="60.09867226984" lon="23.602910554562">
        <ele>27.4</ele>
        <time>2014-06-24T18:20:38Z</time>
      </trkpt>
      <trkpt lat="60.098744940913" lon="23.602877865152">
        <ele>29</ele>
        <time>2014-06-24T18:20:45Z</time>
      </trkpt>
      <trkpt lat="60.098805039136" lon="23.602879876808">
        <ele>30.4</ele>
        <time>2014-06-24T18:20:51Z</time>
      </trkpt>
      <trkpt lat="60.098848205921" lon="23.602855485479">
        <ele>31.2</ele>
        <time>2014-06-24T18:20:56Z</time>
      </trkpt>
      <trkpt lat="60.098868993033" lon="23.602858586782">
        <ele>31.8</ele>
        <time>2014-06-24T18:20:58Z</time>
      </trkpt>
      <trkpt lat="60.098901850081" lon="23.602849450511">
        <ele>32.8</ele>
        <time>2014-06-24T18:21:02Z</time>
      </trkpt>
      <trkpt lat="60.098921715184" lon="23.602834949824">
        <ele>33</ele>
        <time>2014-06-24T18:21:04Z</time>
      </trkpt>
      <trkpt lat="60.099066386778" lon="23.602843583181">
        <ele>35.6</ele>
        <time>2014-06-24T18:21:15Z</time>
      </trkpt>
      <trkpt lat="60.099114079789" lon="23.602976855391">
        <ele>36.8</ele>
        <time>2014-06-24T18:21:20Z</time>
      </trkpt>
      <trkpt lat="60.099147272113" lon="23.603109289411">
        <ele>37.6</ele>
        <time>2014-06-24T18:21:25Z</time>
      </trkpt>
      <trkpt lat="60.099191696183" lon="23.603260331249">
        <ele>39</ele>
        <time>2014-06-24T18:21:31Z</time>
      </trkpt>
      <trkpt lat="60.099217847711" lon="23.603385556835">
        <ele>39.8</ele>
        <time>2014-06-24T18:21:36Z</time>
      </trkpt>
      <trkpt lat="60.09923134257" lon="23.603566689694">
        <ele>41.4</ele>
        <time>2014-06-24T18:21:43Z</time>
      </trkpt>
      <trkpt lat="60.099232767493" lon="23.603676408765">
        <ele>42.6</ele>
        <time>2014-06-24T18:21:48Z</time>
      </trkpt>
      <trkpt lat="60.099237042262" lon="23.60387380251">
        <ele>44.6</ele>
        <time>2014-06-24T18:21:56Z</time>
      </trkpt>
      <trkpt lat="60.099228911819" lon="23.604016378629">
        <ele>46.2</ele>
        <time>2014-06-24T18:22:02Z</time>
      </trkpt>
      <trkpt lat="60.099216087512" lon="23.604196421841">
        <ele>48.2</ele>
        <time>2014-06-24T18:22:09Z</time>
      </trkpt>
      <trkpt lat="60.099211142191" lon="23.604399766735">
        <ele>50.8</ele>
        <time>2014-06-24T18:22:17Z</time>
      </trkpt>
      <trkpt lat="60.099248860741" lon="23.604581151051">
        <ele>53</ele>
        <time>2014-06-24T18:22:25Z</time>
      </trkpt>
      <trkpt lat="60.09932605804" lon="23.604647368061">
        <ele>54.8</ele>
        <time>2014-06-24T18:22:32Z</time>
      </trkpt>
      <trkpt lat="60.099346509876" lon="23.604633118831">
        <ele>55.4</ele>
        <time>2014-06-24T18:22:34Z</time>
      </trkpt>
      <trkpt lat="60.099382468227" lon="23.604618701963">
        <ele>56</ele>
        <time>2014-06-24T18:22:37Z</time>
      </trkpt>
      <trkpt lat="60.099455055481" lon="23.604564554889">
        <ele>57.4</ele>
        <time>2014-06-24T18:22:42Z</time>
      </trkpt>
      <trkpt lat="60.099553710444" lon="23.604566398907">
        <ele>59</ele>
        <time>2014-06-24T18:22:49Z</time>
      </trkpt>
      <trkpt lat="60.099617496703" lon="23.60468936138">
        <ele>60.4</ele>
        <time>2014-06-24T18:22:55Z</time>
      </trkpt>
      <trkpt lat="60.099663345696" lon="23.604837134277">
        <ele>62.4</ele>
        <time>2014-06-24T18:23:03Z</time>
      </trkpt>
      <trkpt lat="60.099696454201" lon="23.60497099322">
        <ele>64.4</ele>
        <time>2014-06-24T18:23:10Z</time>
      </trkpt>
      <trkpt lat="60.09974096209" lon="23.605139217953">
        <ele>67.4</ele>
        <time>2014-06-24T18:23:18Z</time>
      </trkpt>
      <trkpt lat="60.099757055338" lon="23.605262264245">
        <ele>69.6</ele>
        <time>2014-06-24T18:23:24Z</time>
      </trkpt>
      <trkpt lat="60.099777088079" lon="23.605328816531">
        <ele>70.6</ele>
        <time>2014-06-24T18:23:27Z</time>
      </trkpt>
      <trkpt lat="60.099814974267" lon="23.605422107078">
        <ele>73</ele>
        <time>2014-06-24T18:23:34Z</time>
      </trkpt>
      <trkpt lat="60.099821763606" lon="23.60544037962">
        <ele>73.6</ele>
        <time>2014-06-24T18:23:35Z</time>
      </trkpt>
      <trkpt lat="60.099872306463" lon="23.605567113948">
        <ele>75.8</ele>
        <time>2014-06-24T18:23:42Z</time>
      </trkpt>
      <trkpt lat="60.099895775783" lon="23.605699296511">
        <ele>78.2</ele>
        <time>2014-06-24T18:23:49Z</time>
      </trkpt>
      <trkpt lat="60.099891333376" lon="23.605618327357">
        <ele>79.4</ele>
        <time>2014-06-24T18:23:53Z</time>
      </trkpt>
      <trkpt lat="60.099814387534" lon="23.605481283292">
        <ele>80.6</ele>
        <time>2014-06-24T18:24:00Z</time>
      </trkpt>
      <trkpt lat="60.099793600422" lon="23.605437697412">
        <ele>80.8</ele>
        <time>2014-06-24T18:24:02Z</time>
      </trkpt>
      <trkpt lat="60.09972922743" lon="23.60520652461">
        <ele>81.4</ele>
        <time>2014-06-24T18:24:10Z</time>
      </trkpt>
      <trkpt lat="60.099668291017" lon="23.604903602744">
        <ele>81.2</ele>
        <time>2014-06-24T18:24:17Z</time>
      </trkpt>
      <trkpt lat="60.099563098172" lon="23.604570841314">
        <ele>79.8</ele>
        <time>2014-06-24T18:24:23Z</time>
      </trkpt>
      <trkpt lat="60.099511214211" lon="23.604521639561">
        <ele>79.4</ele>
        <time>2014-06-24T18:24:25Z</time>
      </trkpt>
      <trkpt lat="60.099360340011" lon="23.604602608715">
        <ele>77.4</ele>
        <time>2014-06-24T18:24:31Z</time>
      </trkpt>
      <trkpt lat="60.099223547403" lon="23.604557262636">
        <ele>75.4</ele>
        <time>2014-06-24T18:24:36Z</time>
      </trkpt>
      <trkpt lat="60.099189935984" lon="23.604470845247">
        <ele>75</ele>
        <time>2014-06-24T18:24:38Z</time>
      </trkpt>
      <trkpt lat="60.099182895188" lon="23.604097515421">
        <ele>72.4</ele>
        <time>2014-06-24T18:24:45Z</time>
      </trkpt>
      <trkpt lat="60.099193875477" lon="23.60371706098">
        <ele>69.6</ele>
        <time>2014-06-24T18:24:52Z</time>
      </trkpt>
      <trkpt lat="60.099178117505" lon="23.603367200474">
        <ele>66.8</ele>
        <time>2014-06-24T18:24:58Z</time>
      </trkpt>
      <trkpt lat="60.099118438377" lon="23.603045335514">
        <ele>64.2</ele>
        <time>2014-06-24T18:25:03Z</time>
      </trkpt>
      <trkpt lat="60.098994721533" lon="23.60276906809">
        <ele>61.2</ele>
        <time>2014-06-24T18:25:09Z</time>
      </trkpt>
      <trkpt lat="60.098951303291" lon="23.602747191331">
        <ele>60.2</ele>
        <time>2014-06-24T18:25:11Z</time>
      </trkpt>
      <trkpt lat="60.098902688271" lon="23.602771331203">
        <ele>58.2</ele>
        <time>2014-06-24T18:25:17Z</time>
      </trkpt>
      <trkpt lat="60.098888439041" lon="23.602810893771">
        <ele>57.2</ele>
        <time>2014-06-24T18:25:20Z</time>
      </trkpt>
      <trkpt lat="60.098785760766" lon="23.602866465768">
        <ele>55.4</ele>
        <time>2014-06-24T18:25:27Z</time>
      </trkpt>
      <trkpt lat="60.098646872683" lon="23.602914661693">
        <ele>53.2</ele>
        <time>2014-06-24T18:25:34Z</time>
      </trkpt>
      <trkpt lat="60.098508068419" lon="23.602957912297">
        <ele>50.4</ele>
        <time>2014-06-24T18:25:41Z</time>
      </trkpt>
      <trkpt lat="60.098482252167" lon="23.602966545654">
        <ele>49.6</ele>
        <time>2014-06-24T18:25:43Z</time>
      </trkpt>
      <trkpt lat="60.098377981331" lon="23.602904603413">
        <ele>47.8</ele>
        <time>2014-06-24T18:25:47Z</time>
      </trkpt>
      <trkpt lat="60.09815007747" lon="23.603026140963">
        <ele>45.4</ele>
        <time>2014-06-24T18:25:54Z</time>
      </trkpt>
      <trkpt lat="60.097989815542" lon="23.603079030752">
        <ele>43.6</ele>
        <time>2014-06-24T18:25:59Z</time>
      </trkpt>
      <trkpt lat="60.097790913055" lon="23.603137787871">
        <ele>41.2</ele>
        <time>2014-06-24T18:26:05Z</time>
      </trkpt>
      <trkpt lat="60.097606259798" lon="23.603197634637">
        <ele>38.4</ele>
        <time>2014-06-24T18:26:11Z</time>
      </trkpt>
      <trkpt lat="60.097466365887" lon="23.603235185549">
        <ele>36</ele>
        <time>2014-06-24T18:26:16Z</time>
      </trkpt>
      <trkpt lat="60.097463096946" lon="23.60325773286">
        <ele>34</ele>
        <time>2014-06-24T18:26:20Z</time>
      </trkpt>
      <trkpt lat="60.097472317036" lon="23.603254212462">
        <ele>33.6</ele>
        <time>2014-06-24T18:26:21Z</time>
      </trkpt>
      <trkpt lat="60.09752897868" lon="23.603209285478">
        <ele>31.8</ele>
        <time>2014-06-24T18:26:25Z</time>
      </trkpt>
      <trkpt lat="60.09754741886" lon="23.603202915234">
        <ele>31.4</ele>
        <time>2014-06-24T18:26:26Z</time>
      </trkpt>
      <trkpt lat="60.097563931203" lon="23.603190258565">
        <ele>31</ele>
        <time>2014-06-24T18:26:27Z</time>
      </trkpt>
      <trkpt lat="60.097632495145" lon="23.603170644919">
        <ele>29.4</ele>
        <time>2014-06-24T18:26:31Z</time>
      </trkpt>
      <trkpt lat="60.097681277803" lon="23.60316134101">
        <ele>28.4</ele>
        <time>2014-06-24T18:26:34Z</time>
      </trkpt>
      <trkpt lat="60.097818070411" lon="23.603123873917">
        <ele>27</ele>
        <time>2014-06-24T18:26:42Z</time>
      </trkpt>
      <trkpt lat="60.09792795712" lon="23.603086323005">
        <ele>26.4</ele>
        <time>2014-06-24T18:26:48Z</time>
      </trkpt>
      <trkpt lat="60.098025690074" lon="23.60305489088">
        <ele>26.2</ele>
        <time>2014-06-24T18:26:53Z</time>
      </trkpt>
      <trkpt lat="60.09812325539" lon="23.60302052509">
        <ele>26</ele>
        <time>2014-06-24T18:26:58Z</time>
      </trkpt>
      <trkpt lat="60.098249738261" lon="23.602985824024">
        <ele>25.8</ele>
        <time>2014-06-24T18:27:04Z</time>
      </trkpt>
      <trkpt lat="60.098289719924" lon="23.602963695808">
        <ele>25.8</ele>
        <time>2014-06-24T18:27:06Z</time>
      </trkpt>
      <trkpt lat="60.098416370433" lon="23.602910470743">
        <ele>26.2</ele>
        <time>2014-06-24T18:27:13Z</time>
      </trkpt>
      <trkpt lat="60.098485604927" lon="23.602880295903">
        <ele>26.8</ele>
        <time>2014-06-24T18:27:17Z</time>
      </trkpt>
      <trkpt lat="60.098531789196" lon="23.60295430808">
        <ele>27.2</ele>
        <time>2014-06-24T18:27:22Z</time>
      </trkpt>
      <trkpt lat="60.098541679838" lon="23.602958079935">
        <ele>27.4</ele>
        <time>2014-06-24T18:27:23Z</time>
      </trkpt>
      <trkpt lat="60.098637652593" lon="23.60293251514">
        <ele>28.8</ele>
        <time>2014-06-24T18:27:30Z</time>
      </trkpt>
      <trkpt lat="60.098702947594" lon="23.60292245686">
        <ele>29.8</ele>
        <time>2014-06-24T18:27:35Z</time>
      </trkpt>
      <trkpt lat="60.098754915374" lon="23.60290401668">
        <ele>30.6</ele>
        <time>2014-06-24T18:27:39Z</time>
      </trkpt>
      <trkpt lat="60.09878039635" lon="23.602893455486">
        <ele>31</ele>
        <time>2014-06-24T18:27:41Z</time>
      </trkpt>
      <trkpt lat="60.098790370811" lon="23.602884319215">
        <ele>31.2</ele>
        <time>2014-06-24T18:27:42Z</time>
      </trkpt>
      <trkpt lat="60.098840913668" lon="23.602859173515">
        <ele>32.2</ele>
        <time>2014-06-24T18:27:46Z</time>
      </trkpt>
      <trkpt lat="60.098867903386" lon="23.602838805498">
        <ele>32.6</ele>
        <time>2014-06-24T18:27:48Z</time>
      </trkpt>
      <trkpt lat="60.098951722386" lon="23.602798237102">
        <ele>33.8</ele>
        <time>2014-06-24T18:27:52Z</time>
      </trkpt>
      <trkpt lat="60.099035709024" lon="23.6028688127">
        <ele>34.6</ele>
        <time>2014-06-24T18:27:56Z</time>
      </trkpt>
      <trkpt lat="60.099114498884" lon="23.603146421228">
        <ele>36.6</ele>
        <time>2014-06-24T18:28:03Z</time>
      </trkpt>
      <trkpt lat="60.099162108076" lon="23.603363680076">
        <ele>38.2</ele>
        <time>2014-06-24T18:28:09Z</time>
      </trkpt>
      <trkpt lat="60.099188008147" lon="23.603565935323">
        <ele>40</ele>
        <time>2014-06-24T18:28:15Z</time>
      </trkpt>
      <trkpt lat="60.099195551857" lon="23.60372460469">
        <ele>42</ele>
        <time>2014-06-24T18:28:21Z</time>
      </trkpt>
      <trkpt lat="60.099187672871" lon="23.60391319744">
        <ele>44.4</ele>
        <time>2014-06-24T18:28:27Z</time>
      </trkpt>
      <trkpt lat="60.09918608031" lon="23.60413364141">
        <ele>47.4</ele>
        <time>2014-06-24T18:28:34Z</time>
      </trkpt>
      <trkpt lat="60.099193288744" lon="23.604389624636">
        <ele>50.2</ele>
        <time>2014-06-24T18:28:41Z</time>
      </trkpt>
      <trkpt lat="60.09920032954" lon="23.604418877467">
        <ele>50.6</ele>
        <time>2014-06-24T18:28:42Z</time>
      </trkpt>
      <trkpt lat="60.099245843257" lon="23.604545108881">
        <ele>52.2</ele>
        <time>2014-06-24T18:28:46Z</time>
      </trkpt>
      <trkpt lat="60.099297308123" lon="23.604575702816">
        <ele>53.2</ele>
        <time>2014-06-24T18:28:49Z</time>
      </trkpt>
      <trkpt lat="60.099433933093" lon="23.604511078367">
        <ele>56</ele>
        <time>2014-06-24T18:28:56Z</time>
      </trkpt>
      <trkpt lat="60.099531749866" lon="23.604501858277">
        <ele>57.4</ele>
        <time>2014-06-24T18:29:00Z</time>
      </trkpt>
      <trkpt lat="60.099571060977" lon="23.604543432501">
        <ele>58</ele>
        <time>2014-06-24T18:29:02Z</time>
      </trkpt>
      <trkpt lat="60.099635517788" lon="23.604729175405">
        <ele>60.2</ele>
        <time>2014-06-24T18:29:08Z</time>
      </trkpt>
      <trkpt lat="60.099660076755" lon="23.604821879219">
        <ele>61.2</ele>
        <time>2014-06-24T18:29:11Z</time>
      </trkpt>
      <trkpt lat="60.099687569387" lon="23.604935034869">
        <ele>62.6</ele>
        <time>2014-06-24T18:29:15Z</time>
      </trkpt>
      <trkpt lat="60.099738112244" lon="23.60513527846">
        <ele>65</ele>
        <time>2014-06-24T18:29:21Z</time>
      </trkpt>
      <trkpt lat="60.099779854106" lon="23.605280704425">
        <ele>67</ele>
        <time>2014-06-24T18:29:26Z</time>
      </trkpt>
      <trkpt lat="60.099853363369" lon="23.605419592508">
        <ele>69.8</ele>
        <time>2014-06-24T18:29:32Z</time>
      </trkpt>
      <trkpt lat="60.099887561521" lon="23.605569879975">
        <ele>72.2</ele>
        <time>2014-06-24T18:29:37Z</time>
      </trkpt>
      <trkpt lat="60.099896530154" lon="23.605578261875">
        <ele>75.8</ele>
        <time>2014-06-24T18:29:45Z</time>
      </trkpt>
      <trkpt lat="60.099897284525" lon="23.605631319302">
        <ele>78</ele>
        <time>2014-06-24T18:29:50Z</time>
      </trkpt>
      <trkpt lat="60.099876245956" lon="23.605626206343">
        <ele>90.4</ele>
        <time>2014-06-24T18:31:38Z</time>
      </trkpt>
      <trkpt lat="60.099869540436" lon="23.605600138634">
        <ele>90.6</ele>
        <time>2014-06-24T18:31:45Z</time>
      </trkpt>
      <trkpt lat="60.099852273722" lon="23.605490587201">
        <ele>90.6</ele>
        <time>2014-06-24T18:31:53Z</time>
      </trkpt>
      <trkpt lat="60.099763090306" lon="23.605331247282">
        <ele>90.6</ele>
        <time>2014-06-24T18:32:00Z</time>
      </trkpt>
      <trkpt lat="60.09973090381" lon="23.605098481919">
        <ele>90.6</ele>
        <time>2014-06-24T18:32:07Z</time>
      </trkpt>
      <trkpt lat="60.099696789477" lon="23.604926652969">
        <ele>90.2</ele>
        <time>2014-06-24T18:32:11Z</time>
      </trkpt>
      <trkpt lat="60.099611126459" lon="23.604649547355">
        <ele>88.6</ele>
        <time>2014-06-24T18:32:17Z</time>
      </trkpt>
      <trkpt lat="60.099541891965" lon="23.604481574079">
        <ele>87.4</ele>
        <time>2014-06-24T18:32:20Z</time>
      </trkpt>
      <trkpt lat="60.099436615301" lon="23.604473778912">
        <ele>85.6</ele>
        <time>2014-06-24T18:32:24Z</time>
      </trkpt>
      <trkpt lat="60.099289429137" lon="23.604544438329">
        <ele>83</ele>
        <time>2014-06-24T18:32:30Z</time>
      </trkpt>
      <trkpt lat="60.099220865195" lon="23.604506971236">
        <ele>82.2</ele>
        <time>2014-06-24T18:32:32Z</time>
      </trkpt>
      <trkpt lat="60.099177949867" lon="23.604428349014">
        <ele>81.2</ele>
        <time>2014-06-24T18:32:34Z</time>
      </trkpt>
      <trkpt lat="60.099155234918" lon="23.604187117932">
        <ele>79.4</ele>
        <time>2014-06-24T18:32:38Z</time>
      </trkpt>
      <trkpt lat="60.099163952094" lon="23.603989053635">
        <ele>77.8</ele>
        <time>2014-06-24T18:32:42Z</time>
      </trkpt>
      <trkpt lat="60.099175016202" lon="23.603640953328">
        <ele>74.6</ele>
        <time>2014-06-24T18:32:49Z</time>
      </trkpt>
      <trkpt lat="60.099168143044" lon="23.603347586828">
        <ele>71.4</ele>
        <time>2014-06-24T18:32:55Z</time>
      </trkpt>
      <trkpt lat="60.09909974674" lon="23.603008119878">
        <ele>68.6</ele>
        <time>2014-06-24T18:33:00Z</time>
      </trkpt>
      <trkpt lat="60.099015341007" lon="23.602756579059">
        <ele>66.4</ele>
        <time>2014-06-24T18:33:04Z</time>
      </trkpt>
      <trkpt lat="60.098907214497" lon="23.602737971241">
        <ele>64</ele>
        <time>2014-06-24T18:33:09Z</time>
      </trkpt>
      <trkpt lat="60.098897323855" lon="23.602752136652">
        <ele>63.6</ele>
        <time>2014-06-24T18:33:10Z</time>
      </trkpt>
      <trkpt lat="60.098810906466" lon="23.602809720305">
        <ele>60.8</ele>
        <time>2014-06-24T18:33:16Z</time>
      </trkpt>
      <trkpt lat="60.098652404737" lon="23.602873674202">
        <ele>57.2</ele>
        <time>2014-06-24T18:33:24Z</time>
      </trkpt>
      <trkpt lat="60.098509325704" lon="23.602925390525">
        <ele>53.4</ele>
        <time>2014-06-24T18:33:32Z</time>
      </trkpt>
      <trkpt lat="60.098407485619" lon="23.602900747739">
        <ele>51.6</ele>
        <time>2014-06-24T18:33:36Z</time>
      </trkpt>
      <trkpt lat="60.098292905046" lon="23.602928910923">
        <ele>50</ele>
        <time>2014-06-24T18:33:39Z</time>
      </trkpt>
      <trkpt lat="60.098153849325" lon="23.603013232837">
        <ele>48</ele>
        <time>2014-06-24T18:33:43Z</time>
      </trkpt>
      <trkpt lat="60.097993168302" lon="23.603078192562">
        <ele>45.6</ele>
        <time>2014-06-24T18:33:48Z</time>
      </trkpt>
      <trkpt lat="60.097807509217" lon="23.603140218622">
        <ele>43</ele>
        <time>2014-06-24T18:33:54Z</time>
      </trkpt>
      <trkpt lat="60.09763375243" lon="23.603201155035">
        <ele>40.2</ele>
        <time>2014-06-24T18:34:00Z</time>
      </trkpt>
      <trkpt lat="60.097510035586" lon="23.603246082019">
        <ele>37.6</ele>
        <time>2014-06-24T18:34:05Z</time>
      </trkpt>
      <trkpt lat="60.097498300926" lon="23.603245327648">
        <ele>37</ele>
        <time>2014-06-24T18:34:06Z</time>
      </trkpt>
      <trkpt lat="60.097477094719" lon="23.60327701123">
        <ele>33.6</ele>
        <time>2014-06-24T18:34:13Z</time>
      </trkpt>
      <trkpt lat="60.09748120185" lon="23.603379102772">
        <ele>28.4</ele>
        <time>2014-06-24T18:34:39Z</time>
      </trkpt>
      <trkpt lat="60.097491511587" lon="23.603358567117">
        <ele>28</ele>
        <time>2014-06-24T18:34:49Z</time>
      </trkpt>
      <trkpt lat="60.097554208199" lon="23.603256475575">
        <ele>29.8</ele>
        <time>2014-06-24T18:35:53Z</time>
      </trkpt>
      <trkpt lat="60.097686809857" lon="23.603172069842">
        <ele>29.8</ele>
        <time>2014-06-24T18:35:59Z</time>
      </trkpt>
      <trkpt lat="60.097798624403" lon="23.603111384886">
        <ele>29.8</ele>
        <time>2014-06-24T18:36:06Z</time>
      </trkpt>
      <trkpt lat="60.097878671548" lon="23.603082970245">
        <ele>29.8</ele>
        <time>2014-06-24T18:36:11Z</time>
      </trkpt>
      <trkpt lat="60.097990569913" lon="23.603049945559">
        <ele>29.8</ele>
        <time>2014-06-24T18:36:17Z</time>
      </trkpt>
      <trkpt lat="60.098069192135" lon="23.603027482067">
        <ele>29.8</ele>
        <time>2014-06-24T18:36:22Z</time>
      </trkpt>
      <trkpt lat="60.098156196257" lon="23.602995295571">
        <ele>29</ele>
        <time>2014-06-24T18:36:27Z</time>
      </trkpt>
      <trkpt lat="60.098250827908" lon="23.602980459608">
        <ele>28.4</ele>
        <time>2014-06-24T18:36:33Z</time>
      </trkpt>
      <trkpt lat="60.098364402653" lon="23.602921283394">
        <ele>28</ele>
        <time>2014-06-24T18:36:39Z</time>
      </trkpt>
      <trkpt lat="60.098483090357" lon="23.602885995595">
        <ele>28</ele>
        <time>2014-06-24T18:36:45Z</time>
      </trkpt>
      <trkpt lat="60.098553833593" lon="23.602857245678">
        <ele>27.8</ele>
        <time>2014-06-24T18:36:49Z</time>
      </trkpt>
      <trkpt lat="60.09859264179" lon="23.602913404408">
        <ele>28.6</ele>
        <time>2014-06-24T18:36:53Z</time>
      </trkpt>
      <trkpt lat="60.098620972612" lon="23.602928240371">
        <ele>29.2</ele>
        <time>2014-06-24T18:37:00Z</time>
      </trkpt>
      <trkpt lat="60.098693727504" lon="23.602910135467">
        <ele>29.8</ele>
        <time>2014-06-24T18:37:06Z</time>
      </trkpt>
      <trkpt lat="60.098722309783" lon="23.602902927033">
        <ele>30.2</ele>
        <time>2014-06-24T18:37:08Z</time>
      </trkpt>
      <trkpt lat="60.098807386068" lon="23.602869986166">
        <ele>31</ele>
        <time>2014-06-24T18:37:14Z</time>
      </trkpt>
      <trkpt lat="60.098818450176" lon="23.602864454112">
        <ele>31</ele>
        <time>2014-06-24T18:37:15Z</time>
      </trkpt>
      <trkpt lat="60.098892797629" lon="23.602815922911">
        <ele>32.6</ele>
        <time>2014-06-24T18:37:22Z</time>
      </trkpt>
      <trkpt lat="60.09897988557" lon="23.602759596543">
        <ele>34</ele>
        <time>2014-06-24T18:37:27Z</time>
      </trkpt>
      <trkpt lat="60.099082396207" lon="23.602855150203">
        <ele>35.2</ele>
        <time>2014-06-24T18:37:32Z</time>
      </trkpt>
      <trkpt lat="60.099141320964" lon="23.603090513955">
        <ele>36.8</ele>
        <time>2014-06-24T18:37:38Z</time>
      </trkpt>
      <trkpt lat="60.099172501632" lon="23.603228982943">
        <ele>38</ele>
        <time>2014-06-24T18:37:42Z</time>
      </trkpt>
      <trkpt lat="60.099195719495" lon="23.603390837432">
        <ele>39.4</ele>
        <time>2014-06-24T18:37:47Z</time>
      </trkpt>
      <trkpt lat="60.099207454155" lon="23.603683449561">
        <ele>42.6</ele>
        <time>2014-06-24T18:37:57Z</time>
      </trkpt>
      <trkpt lat="60.099203179386" lon="23.603856451977">
        <ele>45</ele>
        <time>2014-06-24T18:38:03Z</time>
      </trkpt>
      <trkpt lat="60.099197563513" lon="23.60391068287">
        <ele>46</ele>
        <time>2014-06-24T18:38:05Z</time>
      </trkpt>
      <trkpt lat="60.099206029232" lon="23.604079326698">
        <ele>49.2</ele>
        <time>2014-06-24T18:38:12Z</time>
      </trkpt>
      <trkpt lat="60.099198485522" lon="23.604266243068">
        <ele>52</ele>
        <time>2014-06-24T18:38:18Z</time>
      </trkpt>
      <trkpt lat="60.099196892961" lon="23.604307565835">
        <ele>52.6</ele>
        <time>2014-06-24T18:38:19Z</time>
      </trkpt>
      <trkpt lat="60.099212315657" lon="23.604481322622">
        <ele>55</ele>
        <time>2014-06-24T18:38:24Z</time>
      </trkpt>
      <trkpt lat="60.099220781376" lon="23.604519795543">
        <ele>55.4</ele>
        <time>2014-06-24T18:38:25Z</time>
      </trkpt>
      <trkpt lat="60.09925732646" lon="23.604609062778">
        <ele>56.8</ele>
        <time>2014-06-24T18:38:28Z</time>
      </trkpt>
      <trkpt lat="60.099341480736" lon="23.604618031411">
        <ele>58.6</ele>
        <time>2014-06-24T18:38:32Z</time>
      </trkpt>
      <trkpt lat="60.0994383755" lon="23.604561202129">
        <ele>60.6</ele>
        <time>2014-06-24T18:38:37Z</time>
      </trkpt>
      <trkpt lat="60.099557147023" lon="23.604515269317">
        <ele>62.4</ele>
        <time>2014-06-24T18:38:42Z</time>
      </trkpt>
      <trkpt lat="60.099607606061" lon="23.604551143849">
        <ele>63</ele>
        <time>2014-06-24T18:38:44Z</time>
      </trkpt>
      <trkpt lat="60.099673823071" lon="23.604728588672">
        <ele>64.4</ele>
        <time>2014-06-24T18:38:50Z</time>
      </trkpt>
      <trkpt lat="60.099682037333" lon="23.604761026625">
        <ele>64.8</ele>
        <time>2014-06-24T18:38:51Z</time>
      </trkpt>
      <trkpt lat="60.099720342616" lon="23.604916678508">
        <ele>66.2</ele>
        <time>2014-06-24T18:38:57Z</time>
      </trkpt>
      <trkpt lat="60.099763006487" lon="23.605093788055">
        <ele>67.8</ele>
        <time>2014-06-24T18:39:04Z</time>
      </trkpt>
      <trkpt lat="60.099796617906" lon="23.605259246761">
        <ele>69.4</ele>
        <time>2014-06-24T18:39:10Z</time>
      </trkpt>
      <trkpt lat="60.099821512149" lon="23.60533560587">
        <ele>70.4</ele>
        <time>2014-06-24T18:39:13Z</time>
      </trkpt>
      <trkpt lat="60.099886388055" lon="23.605453120108">
        <ele>72</ele>
        <time>2014-06-24T18:39:18Z</time>
      </trkpt>
      <trkpt lat="60.099912036669" lon="23.605491844486">
        <ele>72.8</ele>
        <time>2014-06-24T18:39:20Z</time>
      </trkpt>
      <trkpt lat="60.099936930912" lon="23.605604497222">
        <ele>74.2</ele>
        <time>2014-06-24T18:39:24Z</time>
      </trkpt>
      <trkpt lat="60.099942546785" lon="23.60569183662">
        <ele>77.6</ele>
        <time>2014-06-24T18:39:37Z</time>
      </trkpt>
      <trkpt lat="60.099936847093" lon="23.605709522429">
        <ele>79</ele>
        <time>2014-06-24T18:39:43Z</time>
      </trkpt>
      <trkpt lat="60.099943301156" lon="23.605693261543">
        <ele>88.2</ele>
        <time>2014-06-24T18:40:39Z</time>
      </trkpt>
      <trkpt lat="60.099907594262" lon="23.605611538018">
        <ele>89</ele>
        <time>2014-06-24T18:41:10Z</time>
      </trkpt>
      <trkpt lat="60.099886220417" lon="23.605528892484">
        <ele>89</ele>
        <time>2014-06-24T18:41:17Z</time>
      </trkpt>
      <trkpt lat="60.099875575404" lon="23.605491006296">
        <ele>89</ele>
        <time>2014-06-24T18:41:19Z</time>
      </trkpt>
      <trkpt lat="60.099860068889" lon="23.605456808144">
        <ele>89</ele>
        <time>2014-06-24T18:41:21Z</time>
      </trkpt>
      <trkpt lat="60.099837689216" lon="23.605439876706">
        <ele>89</ele>
        <time>2014-06-24T18:41:23Z</time>
      </trkpt>
      <trkpt lat="60.099774238233" lon="23.605331163463">
        <ele>88.8</ele>
        <time>2014-06-24T18:41:29Z</time>
      </trkpt>
      <trkpt lat="60.099753115845" lon="23.605270646145">
        <ele>88.4</ele>
        <time>2014-06-24T18:41:31Z</time>
      </trkpt>
      <trkpt lat="60.099721180806" lon="23.605029834158">
        <ele>87.6</ele>
        <time>2014-06-24T18:41:36Z</time>
      </trkpt>
      <trkpt lat="60.099668458655" lon="23.604818191183">
        <ele>86</ele>
        <time>2014-06-24T18:41:41Z</time>
      </trkpt>
      <trkpt lat="60.099550273865" lon="23.604522645389">
        <ele>84</ele>
        <time>2014-06-24T18:41:46Z</time>
      </trkpt>
      <trkpt lat="60.099484308312" lon="23.604444861357">
        <ele>83.4</ele>
        <time>2014-06-24T18:41:48Z</time>
      </trkpt>
      <trkpt lat="60.099306695851" lon="23.604551562944">
        <ele>80.8</ele>
        <time>2014-06-24T18:41:54Z</time>
      </trkpt>
      <trkpt lat="60.09917686022" lon="23.604483250459">
        <ele>79.2</ele>
        <time>2014-06-24T18:41:58Z</time>
      </trkpt>
      <trkpt lat="60.099130173037" lon="23.604231206726">
        <ele>77.6</ele>
        <time>2014-06-24T18:42:02Z</time>
      </trkpt>
      <trkpt lat="60.099138387299" lon="23.603871036483">
        <ele>75.4</ele>
        <time>2014-06-24T18:42:08Z</time>
      </trkpt>
      <trkpt lat="60.099141404783" lon="23.603576328879">
        <ele>73.2</ele>
        <time>2014-06-24T18:42:14Z</time>
      </trkpt>
      <trkpt lat="60.099130256856" lon="23.603264019285">
        <ele>70.8</ele>
        <time>2014-06-24T18:42:20Z</time>
      </trkpt>
      <trkpt lat="60.099081641836" lon="23.602980962522">
        <ele>68.8</ele>
        <time>2014-06-24T18:42:25Z</time>
      </trkpt>
      <trkpt lat="60.099012155885" lon="23.60273637868">
        <ele>67.2</ele>
        <time>2014-06-24T18:42:29Z</time>
      </trkpt>
      <trkpt lat="60.098996314094" lon="23.602687176927">
        <ele>66.8</ele>
        <time>2014-06-24T18:42:30Z</time>
      </trkpt>
      <trkpt lat="60.098917691872" lon="23.602562118979">
        <ele>64.8</ele>
        <time>2014-06-24T18:42:35Z</time>
      </trkpt>
      <trkpt lat="60.098920290261" lon="23.602524651886">
        <ele>64.6</ele>
        <time>2014-06-24T18:42:36Z</time>
      </trkpt>
      <trkpt lat="60.098923978297" lon="23.602143191617">
        <ele>62.4</ele>
        <time>2014-06-24T18:42:42Z</time>
      </trkpt>
      <trkpt lat="60.098915009664" lon="23.601979157834">
        <ele>61</ele>
        <time>2014-06-24T18:42:45Z</time>
      </trkpt>
      <trkpt lat="60.098825323334" lon="23.601950240279">
        <ele>60</ele>
        <time>2014-06-24T18:42:49Z</time>
      </trkpt>
      <trkpt lat="60.098795986684" lon="23.601939427628">
        <ele>59.4</ele>
        <time>2014-06-24T18:42:50Z</time>
      </trkpt>
      <trkpt lat="60.098749467139" lon="23.601866002184">
        <ele>58.8</ele>
        <time>2014-06-24T18:42:52Z</time>
      </trkpt>
      <trkpt lat="60.098675706419" lon="23.60202978451">
        <ele>57.2</ele>
        <time>2014-06-24T18:42:57Z</time>
      </trkpt>
      <trkpt lat="60.098660870456" lon="23.602385596165">
        <ele>55.6</ele>
        <time>2014-06-24T18:43:02Z</time>
      </trkpt>
      <trkpt lat="60.098654416393" lon="23.602705784745">
        <ele>54.2</ele>
        <time>2014-06-24T18:43:07Z</time>
      </trkpt>
      <trkpt lat="60.098547211892" lon="23.602851881262">
        <ele>53.2</ele>
        <time>2014-06-24T18:43:11Z</time>
      </trkpt>
      <trkpt lat="60.098435732622" lon="23.602899238997">
        <ele>52.2</ele>
        <time>2014-06-24T18:43:14Z</time>
      </trkpt>
      <trkpt lat="60.098262478749" lon="23.603001330539">
        <ele>50.4</ele>
        <time>2014-06-24T18:43:19Z</time>
      </trkpt>
      <trkpt lat="60.09808637503" lon="23.603074839802">
        <ele>48.4</ele>
        <time>2014-06-24T18:43:24Z</time>
      </trkpt>
      <trkpt lat="60.097892836959" lon="23.603147175599">
        <ele>45.8</ele>
        <time>2014-06-24T18:43:30Z</time>
      </trkpt>
      <trkpt lat="60.097713129023" lon="23.603205262166">
        <ele>43.4</ele>
        <time>2014-06-24T18:43:36Z</time>
      </trkpt>
      <trkpt lat="60.097573738026" lon="23.603264186923">
        <ele>41.4</ele>
        <time>2014-06-24T18:43:41Z</time>
      </trkpt>
      <trkpt lat="60.097475418339" lon="23.603329314286">
        <ele>39</ele>
        <time>2014-06-24T18:43:46Z</time>
      </trkpt>
      <trkpt lat="60.09745270339" lon="23.603342473869">
        <ele>36.6</ele>
        <time>2014-06-24T18:43:51Z</time>
      </trkpt>
      <trkpt lat="60.097451110829" lon="23.603283884388">
        <ele>33.8</ele>
        <time>2014-06-24T18:43:58Z</time>
      </trkpt>
      <trkpt lat="60.09746611443" lon="23.603239711775">
        <ele>32.6</ele>
        <time>2014-06-24T18:44:03Z</time>
      </trkpt>
      <trkpt lat="60.097522859893" lon="23.603166034874">
        <ele>30</ele>
        <time>2014-06-24T18:44:13Z</time>
      </trkpt>
      <trkpt lat="60.09759771026" lon="23.602956738831">
        <ele>29.4</ele>
        <time>2014-06-24T18:44:18Z</time>
      </trkpt>
      <trkpt lat="60.097605505427" lon="23.602707796401">
        <ele>28.2</ele>
        <time>2014-06-24T18:44:23Z</time>
      </trkpt>
      <trkpt lat="60.09761531225" lon="23.602431696615">
        <ele>27.4</ele>
        <time>2014-06-24T18:44:30Z</time>
      </trkpt>
      <trkpt lat="60.097672225351" lon="23.602337064964">
        <ele>27.2</ele>
        <time>2014-06-24T18:44:34Z</time>
      </trkpt>
      <trkpt lat="60.097813292728" lon="23.602176719217">
        <ele>27</ele>
        <time>2014-06-24T18:44:42Z</time>
      </trkpt>
      <trkpt lat="60.097854866952" lon="23.602288617582">
        <ele>26.8</ele>
        <time>2014-06-24T18:44:46Z</time>
      </trkpt>
      <trkpt lat="60.097859141721" lon="23.602413507892">
        <ele>26.8</ele>
        <time>2014-06-24T18:44:49Z</time>
      </trkpt>
      <trkpt lat="60.09788437124" lon="23.602688266574">
        <ele>26.8</ele>
        <time>2014-06-24T18:44:56Z</time>
      </trkpt>
      <trkpt lat="60.097929884957" lon="23.602906698888">
        <ele>26.8</ele>
        <time>2014-06-24T18:45:02Z</time>
      </trkpt>
      <trkpt lat="60.097979421986" lon="23.602987416585">
        <ele>26.8</ele>
        <time>2014-06-24T18:45:06Z</time>
      </trkpt>
      <trkpt lat="60.098029629567" lon="23.602911979485">
        <ele>27.4</ele>
        <time>2014-06-24T18:45:10Z</time>
      </trkpt>
      <trkpt lat="60.098141863208" lon="23.60275565705">
        <ele>28.2</ele>
        <time>2014-06-24T18:45:17Z</time>
      </trkpt>
      <trkpt lat="60.098159800474" lon="23.602764960959">
        <ele>28.2</ele>
        <time>2014-06-24T18:45:18Z</time>
      </trkpt>
      <trkpt lat="60.098219898697" lon="23.602846516846">
        <ele>28.4</ele>
        <time>2014-06-24T18:45:22Z</time>
      </trkpt>
      <trkpt lat="60.09831436271" lon="23.602867890691">
        <ele>29.6</ele>
        <time>2014-06-24T18:45:28Z</time>
      </trkpt>
      <trkpt lat="60.098371611087" lon="23.602721877993">
        <ele>30</ele>
        <time>2014-06-24T18:45:33Z</time>
      </trkpt>
      <trkpt lat="60.098402121203" lon="23.602445275293">
        <ele>31</ele>
        <time>2014-06-24T18:45:39Z</time>
      </trkpt>
      <trkpt lat="60.098478396493" lon="23.602205050039">
        <ele>32</ele>
        <time>2014-06-24T18:45:46Z</time>
      </trkpt>
      <trkpt lat="60.09849541175" lon="23.602197506329">
        <ele>32</ele>
        <time>2014-06-24T18:45:47Z</time>
      </trkpt>
      <trkpt lat="60.098551905756" lon="23.602314182377">
        <ele>32.4</ele>
        <time>2014-06-24T18:45:52Z</time>
      </trkpt>
      <trkpt lat="60.098577051456" lon="23.602463631654">
        <ele>32.6</ele>
        <time>2014-06-24T18:45:56Z</time>
      </trkpt>
      <trkpt lat="60.098635054204" lon="23.602677453923">
        <ele>33.2</ele>
        <time>2014-06-24T18:46:02Z</time>
      </trkpt>
      <trkpt lat="60.098649303434" lon="23.602696313198">
        <ele>33.4</ele>
        <time>2014-06-24T18:46:03Z</time>
      </trkpt>
      <trkpt lat="60.098683669224" lon="23.602573686001">
        <ele>34</ele>
        <time>2014-06-24T18:46:08Z</time>
      </trkpt>
      <trkpt lat="60.09868148993" lon="23.602525070981">
        <ele>34.2</ele>
        <time>2014-06-24T18:46:09Z</time>
      </trkpt>
      <trkpt lat="60.098670006727" lon="23.602167080032">
        <ele>34.8</ele>
        <time>2014-06-24T18:46:17Z</time>
      </trkpt>
      <trkpt lat="60.098674449134" lon="23.602130199672">
        <ele>35</ele>
        <time>2014-06-24T18:46:18Z</time>
      </trkpt>
      <trkpt lat="60.098746198198" lon="23.601928866434">
        <ele>36</ele>
        <time>2014-06-24T18:46:24Z</time>
      </trkpt>
      <trkpt lat="60.098768242595" lon="23.601919730163">
        <ele>36</ele>
        <time>2014-06-24T18:46:25Z</time>
      </trkpt>
      <trkpt lat="60.098828089361" lon="23.601999442032">
        <ele>37.2</ele>
        <time>2014-06-24T18:46:29Z</time>
      </trkpt>
      <trkpt lat="60.098900006063" lon="23.602015870556">
        <ele>37.8</ele>
        <time>2014-06-24T18:46:33Z</time>
      </trkpt>
      <trkpt lat="60.098960439562" lon="23.6020306227">
        <ele>38.8</ele>
        <time>2014-06-24T18:46:37Z</time>
      </trkpt>
      <trkpt lat="60.098983992701" lon="23.602256598724">
        <ele>39.6</ele>
        <time>2014-06-24T18:46:41Z</time>
      </trkpt>
      <trkpt lat="60.098986004357" lon="23.602310745798">
        <ele>39.8</ele>
        <time>2014-06-24T18:46:42Z</time>
      </trkpt>
      <trkpt lat="60.098985249986" lon="23.60259975371">
        <ele>41.4</ele>
        <time>2014-06-24T18:46:49Z</time>
      </trkpt>
      <trkpt lat="60.098980639941" lon="23.602636466432">
        <ele>41.6</ele>
        <time>2014-06-24T18:46:50Z</time>
      </trkpt>
      <trkpt lat="60.098983405968" lon="23.602686338737">
        <ele>42</ele>
        <time>2014-06-24T18:46:52Z</time>
      </trkpt>
      <trkpt lat="60.09897066548" lon="23.602726068943">
        <ele>44.8</ele>
        <time>2014-06-24T18:47:11Z</time>
      </trkpt>
      <trkpt lat="60.0989941348" lon="23.602653900784">
        <ele>46.8</ele>
        <time>2014-06-24T18:47:25Z</time>
      </trkpt>
      <trkpt lat="60.098997403741" lon="23.602634035681">
        <ele>46.8</ele>
        <time>2014-06-24T18:47:26Z</time>
      </trkpt>
      <trkpt lat="60.098998996302" lon="23.602511659941">
        <ele>47</ele>
        <time>2014-06-24T18:47:31Z</time>
      </trkpt>
      <trkpt lat="60.09899664937" lon="23.602454914478">
        <ele>47</ele>
        <time>2014-06-24T18:47:33Z</time>
      </trkpt>
      <trkpt lat="60.098985836719" lon="23.602245534616">
        <ele>47.2</ele>
        <time>2014-06-24T18:47:40Z</time>
      </trkpt>
      <trkpt lat="60.098981478131" lon="23.602107652361">
        <ele>47.2</ele>
        <time>2014-06-24T18:47:45Z</time>
      </trkpt>
      <trkpt lat="60.098945938875" lon="23.602040932437">
        <ele>47.4</ele>
        <time>2014-06-24T18:47:50Z</time>
      </trkpt>
      <trkpt lat="60.098853235061" lon="23.60211611808">
        <ele>47.4</ele>
        <time>2014-06-24T18:47:54Z</time>
      </trkpt>
      <trkpt lat="60.098756256478" lon="23.60196859664">
        <ele>47.4</ele>
        <time>2014-06-24T18:47:59Z</time>
      </trkpt>
      <trkpt lat="60.098695320065" lon="23.602131792233">
        <ele>47.4</ele>
        <time>2014-06-24T18:48:03Z</time>
      </trkpt>
      <trkpt lat="60.098683333948" lon="23.602274200714">
        <ele>47.4</ele>
        <time>2014-06-24T18:48:06Z</time>
      </trkpt>
      <trkpt lat="60.098700852119" lon="23.602618696804">
        <ele>47.4</ele>
        <time>2014-06-24T18:48:13Z</time>
      </trkpt>
      <trkpt lat="60.098674868229" lon="23.602786502442">
        <ele>47.4</ele>
        <time>2014-06-24T18:48:17Z</time>
      </trkpt>
      <trkpt lat="60.098541596019" lon="23.602922708317">
        <ele>47.2</ele>
        <time>2014-06-24T18:48:23Z</time>
      </trkpt>
      <trkpt lat="60.09847780976" lon="23.602951961148">
        <ele>46.8</ele>
        <time>2014-06-24T18:48:25Z</time>
      </trkpt>
      <trkpt lat="60.098254264487" lon="23.603067882825">
        <ele>45.4</ele>
        <time>2014-06-24T18:48:32Z</time>
      </trkpt>
      <trkpt lat="60.09808972779" lon="23.603119263872">
        <ele>44.2</ele>
        <time>2014-06-24T18:48:37Z</time>
      </trkpt>
      <trkpt lat="60.097916473917" lon="23.603171902204">
        <ele>43</ele>
        <time>2014-06-24T18:48:42Z</time>
      </trkpt>
      <trkpt lat="60.097775155083" lon="23.603191180574">
        <ele>41.2</ele>
        <time>2014-06-24T18:48:47Z</time>
      </trkpt>
      <trkpt lat="60.097646073823" lon="23.603243567449">
        <ele>39</ele>
        <time>2014-06-24T18:48:53Z</time>
      </trkpt>
      <trkpt lat="60.097541635349" lon="23.603297043971">
        <ele>37.6</ele>
        <time>2014-06-24T18:48:57Z</time>
      </trkpt>
      <trkpt lat="60.097493020329" lon="23.603314478323">
        <ele>36.8</ele>
        <time>2014-06-24T18:48:59Z</time>
      </trkpt>
      <trkpt lat="60.097488913198" lon="23.603399554608">
        <ele>34.8</ele>
        <time>2014-06-24T18:49:04Z</time>
      </trkpt>
      <trkpt lat="60.097491679225" lon="23.603442386117">
        <ele>34</ele>
        <time>2014-06-24T18:49:06Z</time>
      </trkpt>
      <trkpt lat="60.097492517415" lon="23.603484630893">
        <ele>33.2</ele>
        <time>2014-06-24T18:49:08Z</time>
      </trkpt>
      <trkpt lat="60.097494109976" lon="23.603507429661">
        <ele>31.6</ele>
        <time>2014-06-24T18:49:13Z</time>
      </trkpt>
      <trkpt lat="60.097489080836" lon="23.603570210092">
        <ele>30</ele>
        <time>2014-06-24T18:49:18Z</time>
      </trkpt>
      <trkpt lat="60.097482207678" lon="23.603676157308">
        <ele>27.2</ele>
        <time>2014-06-24T18:49:34Z</time>
      </trkpt>
      <trkpt lat="60.09745521796" lon="23.603901798056">
        <ele>26.2</ele>
        <time>2014-06-24T18:49:42Z</time>
      </trkpt>
      <trkpt lat="60.097448009526" lon="23.604048900401">
        <ele>25.8</ele>
        <time>2014-06-24T18:49:48Z</time>
      </trkpt>
      <trkpt lat="60.097446752241" lon="23.604095000851">
        <ele>25.8</ele>
        <time>2014-06-24T18:49:50Z</time>
      </trkpt>
      <trkpt lat="60.097466868801" lon="23.604215951668">
        <ele>25.2</ele>
        <time>2014-06-24T18:49:57Z</time>
      </trkpt>
      <trkpt lat="60.097466365887" lon="23.604223160102">
        <ele>25</ele>
        <time>2014-06-24T18:49:58Z</time>
      </trkpt>
      <trkpt lat="60.097480866574" lon="23.604247970526">
        <ele>23.8</ele>
        <time>2014-06-24T18:50:10Z</time>
      </trkpt>
      <trkpt lat="60.097495953994" lon="23.604256268607">
        <ele>23.6</ele>
        <time>2014-06-24T18:50:15Z</time>
      </trkpt>
      <trkpt lat="60.097532750535" lon="23.604279318832">
        <ele>23.4</ele>
        <time>2014-06-24T18:50:21Z</time>
      </trkpt>
      <trkpt lat="60.097578264252" lon="23.604338914141">
        <ele>23.4</ele>
        <time>2014-06-24T18:50:29Z</time>
      </trkpt>
      <trkpt lat="60.097630064394" lon="23.604380488365">
        <ele>23.4</ele>
        <time>2014-06-24T18:50:37Z</time>
      </trkpt>
      <trkpt lat="60.097668788772" lon="23.604413848327">
        <ele>23.4</ele>
        <time>2014-06-24T18:50:43Z</time>
      </trkpt>
      <trkpt lat="60.097713464299" lon="23.604451231601">
        <ele>23.4</ele>
        <time>2014-06-24T18:50:49Z</time>
      </trkpt>
      <trkpt lat="60.097765515898" lon="23.604490626531">
        <ele>24.2</ele>
        <time>2014-06-24T18:50:57Z</time>
      </trkpt>
      <trkpt lat="60.097799630231" lon="23.604508899073">
        <ele>24.8</ele>
        <time>2014-06-24T18:51:03Z</time>
      </trkpt>
      <trkpt lat="60.097835672401" lon="23.604522896846">
        <ele>26</ele>
        <time>2014-06-24T18:51:09Z</time>
      </trkpt>
      <trkpt lat="60.097861572472" lon="23.604536391705">
        <ele>26.8</ele>
        <time>2014-06-24T18:51:14Z</time>
      </trkpt>
      <trkpt lat="60.097899291022" lon="23.60455944193">
        <ele>28.2</ele>
        <time>2014-06-24T18:51:21Z</time>
      </trkpt>
      <trkpt lat="60.09792460436" lon="23.604556172989">
        <ele>28.8</ele>
        <time>2014-06-24T18:51:25Z</time>
      </trkpt>
      <trkpt lat="60.097959053969" lon="23.604585006725">
        <ele>30.2</ele>
        <time>2014-06-24T18:51:31Z</time>
      </trkpt>
      <trkpt lat="60.098002723668" lon="23.604603363086">
        <ele>31.6</ele>
        <time>2014-06-24T18:51:38Z</time>
      </trkpt>
      <trkpt lat="60.098033401422" lon="23.604625407483">
        <ele>32.6</ele>
        <time>2014-06-24T18:51:44Z</time>
      </trkpt>
      <trkpt lat="60.098065336461" lon="23.604649547355">
        <ele>33.4</ele>
        <time>2014-06-24T18:51:49Z</time>
      </trkpt>
      <trkpt lat="60.098093583464" lon="23.604672178485">
        <ele>34.6</ele>
        <time>2014-06-24T18:51:55Z</time>
      </trkpt>
      <trkpt lat="60.098114622033" lon="23.604687768819">
        <ele>35.6</ele>
        <time>2014-06-24T18:52:01Z</time>
      </trkpt>
      <trkpt lat="60.098147814357" lon="23.604700425488">
        <ele>37.2</ele>
        <time>2014-06-24T18:52:09Z</time>
      </trkpt>
      <trkpt lat="60.098156028619" lon="23.604723475713">
        <ele>37.6</ele>
        <time>2014-06-24T18:52:11Z</time>
      </trkpt>
      <trkpt lat="60.098193914807" lon="23.604770079077">
        <ele>38.8</ele>
        <time>2014-06-24T18:52:17Z</time>
      </trkpt>
      <trkpt lat="60.098221910353" lon="23.604794218949">
        <ele>39.6</ele>
        <time>2014-06-24T18:52:23Z</time>
      </trkpt>
      <trkpt lat="60.098280918929" lon="23.604822885047">
        <ele>41</ele>
        <time>2014-06-24T18:52:30Z</time>
      </trkpt>
      <trkpt lat="60.098309668846" lon="23.604841995779">
        <ele>41.6</ele>
        <time>2014-06-24T18:52:36Z</time>
      </trkpt>
      <trkpt lat="60.09833699384" lon="23.604858843398">
        <ele>43</ele>
        <time>2014-06-24T18:52:43Z</time>
      </trkpt>
      <trkpt lat="60.098371024354" lon="23.604875774836">
        <ele>43.8</ele>
        <time>2014-06-24T18:52:50Z</time>
      </trkpt>
      <trkpt lat="60.098400025728" lon="23.604890275523">
        <ele>45.2</ele>
        <time>2014-06-24T18:52:57Z</time>
      </trkpt>
      <trkpt lat="60.098411760388" lon="23.604898573604">
        <ele>45.8</ele>
        <time>2014-06-24T18:53:02Z</time>
      </trkpt>
      <trkpt lat="60.098430787301" lon="23.604915505042">
        <ele>47</ele>
        <time>2014-06-24T18:53:08Z</time>
      </trkpt>
      <trkpt lat="60.098448892205" lon="23.60494249476">
        <ele>48</ele>
        <time>2014-06-24T18:53:16Z</time>
      </trkpt>
      <trkpt lat="60.098445371807" lon="23.604931263014">
        <ele>48.8</ele>
        <time>2014-06-24T18:53:20Z</time>
      </trkpt>
      <trkpt lat="60.098460710684" lon="23.604952133945">
        <ele>49.8</ele>
        <time>2014-06-24T18:53:26Z</time>
      </trkpt>
      <trkpt lat="60.098479737597" lon="23.604957079266">
        <ele>50.8</ele>
        <time>2014-06-24T18:53:33Z</time>
      </trkpt>
      <trkpt lat="60.098497674863" lon="23.604972753419">
        <ele>52</ele>
        <time>2014-06-24T18:53:41Z</time>
      </trkpt>
      <trkpt lat="60.098532208291" lon="23.604992702341">
        <ele>53.8</ele>
        <time>2014-06-24T18:53:51Z</time>
      </trkpt>
      <trkpt lat="60.098551989575" lon="23.604998150576">
        <ele>54.2</ele>
        <time>2014-06-24T18:53:58Z</time>
      </trkpt>
      <trkpt lat="60.098567160814" lon="23.605006783933">
        <ele>55.4</ele>
        <time>2014-06-24T18:54:04Z</time>
      </trkpt>
      <trkpt lat="60.098580236578" lon="23.60501122634">
        <ele>56</ele>
        <time>2014-06-24T18:54:08Z</time>
      </trkpt>
      <trkpt lat="60.098599012034" lon="23.605007203028">
        <ele>56.4</ele>
        <time>2014-06-24T18:54:15Z</time>
      </trkpt>
      <trkpt lat="60.098623235725" lon="23.60502379919">
        <ele>57.6</ele>
        <time>2014-06-24T18:54:22Z</time>
      </trkpt>
      <trkpt lat="60.098641089172" lon="23.605041904094">
        <ele>58.2</ele>
        <time>2014-06-24T18:54:28Z</time>
      </trkpt>
      <trkpt lat="60.098668665623" lon="23.605058835532">
        <ele>59.4</ele>
        <time>2014-06-24T18:54:34Z</time>
      </trkpt>
      <trkpt lat="60.098687608717" lon="23.605055566591">
        <ele>60</ele>
        <time>2014-06-24T18:54:38Z</time>
      </trkpt>
      <trkpt lat="60.09872423762" lon="23.605089597105">
        <ele>61</ele>
        <time>2014-06-24T18:54:44Z</time>
      </trkpt>
      <trkpt lat="60.098756424116" lon="23.605115832452">
        <ele>62</ele>
        <time>2014-06-24T18:54:50Z</time>
      </trkpt>
      <trkpt lat="60.098815348873" lon="23.605140642876">
        <ele>64</ele>
        <time>2014-06-24T18:54:58Z</time>
      </trkpt>
      <trkpt lat="60.098879554227" lon="23.605179953987">
        <ele>66.2</ele>
        <time>2014-06-24T18:55:08Z</time>
      </trkpt>
      <trkpt lat="60.098930516179" lon="23.605212559578">
        <ele>67.8</ele>
        <time>2014-06-24T18:55:16Z</time>
      </trkpt>
      <trkpt lat="60.098960523381" lon="23.605232424681">
        <ele>68.6</ele>
        <time>2014-06-24T18:55:21Z</time>
      </trkpt>
      <trkpt lat="60.098994805352" lon="23.605265030272">
        <ele>70</ele>
        <time>2014-06-24T18:55:27Z</time>
      </trkpt>
      <trkpt lat="60.099029925513" lon="23.605291600895">
        <ele>70.8</ele>
        <time>2014-06-24T18:55:32Z</time>
      </trkpt>
      <trkpt lat="60.099069655719" lon="23.60531381293">
        <ele>72.4</ele>
        <time>2014-06-24T18:55:40Z</time>
      </trkpt>
      <trkpt lat="60.099102764224" lon="23.605337617526">
        <ele>73</ele>
        <time>2014-06-24T18:55:46Z</time>
      </trkpt>
      <trkpt lat="60.099158587678" lon="23.605371564221">
        <ele>73.6</ele>
        <time>2014-06-24T18:55:53Z</time>
      </trkpt>
      <trkpt lat="60.099164455008" lon="23.605375671352">
        <ele>74</ele>
        <time>2014-06-24T18:55:54Z</time>
      </trkpt>
      <trkpt lat="60.099210471639" lon="23.605396877559">
        <ele>75.2</ele>
        <time>2014-06-24T18:56:03Z</time>
      </trkpt>
      <trkpt lat="60.099249196017" lon="23.60543870324">
        <ele>76.8</ele>
        <time>2014-06-24T18:56:11Z</time>
      </trkpt>
      <trkpt lat="60.099303259272" lon="23.605484300776">
        <ele>78.6</ele>
        <time>2014-06-24T18:56:21Z</time>
      </trkpt>
      <trkpt lat="60.099348437713" lon="23.605509781752">
        <ele>80.4</ele>
        <time>2014-06-24T18:56:30Z</time>
      </trkpt>
      <trkpt lat="60.099393364697" lon="23.605558229134">
        <ele>82</ele>
        <time>2014-06-24T18:56:38Z</time>
      </trkpt>
      <trkpt lat="60.099431083247" lon="23.605576501676">
        <ele>83.2</ele>
        <time>2014-06-24T18:56:44Z</time>
      </trkpt>
      <trkpt lat="60.099468047426" lon="23.605599468082">
        <ele>84.6</ele>
        <time>2014-06-24T18:56:51Z</time>
      </trkpt>
      <trkpt lat="60.099506771804" lon="23.605614639321">
        <ele>85.6</ele>
        <time>2014-06-24T18:56:59Z</time>
      </trkpt>
      <trkpt lat="60.099547843114" lon="23.605649256568">
        <ele>87</ele>
        <time>2014-06-24T18:57:09Z</time>
      </trkpt>
      <trkpt lat="60.099593021555" lon="23.60568429291">
        <ele>88.2</ele>
        <time>2014-06-24T18:57:18Z</time>
      </trkpt>
      <trkpt lat="60.099650856665" lon="23.605712623732">
        <ele>89.4</ele>
        <time>2014-06-24T18:57:24Z</time>
      </trkpt>
      <trkpt lat="60.099658568013" lon="23.605713294284">
        <ele>89.6</ele>
        <time>2014-06-24T18:57:25Z</time>
      </trkpt>
      <trkpt lat="60.099715648752" lon="23.605753192128">
        <ele>91</ele>
        <time>2014-06-24T18:57:31Z</time>
      </trkpt>
      <trkpt lat="60.099759905184" lon="23.605721592365">
        <ele>91.8</ele>
        <time>2014-06-24T18:57:36Z</time>
      </trkpt>
      <trkpt lat="60.099790499119" lon="23.605740116364">
        <ele>92.2</ele>
        <time>2014-06-24T18:57:42Z</time>
      </trkpt>
      <trkpt lat="60.099814219896" lon="23.605740870735">
        <ele>92.6</ele>
        <time>2014-06-24T18:57:48Z</time>
      </trkpt>
      <trkpt lat="60.099856380853" lon="23.605738691441">
        <ele>92.6</ele>
        <time>2014-06-24T18:57:52Z</time>
      </trkpt>
      <trkpt lat="60.099892339204" lon="23.605703822737">
        <ele>92.8</ele>
        <time>2014-06-24T18:57:56Z</time>
      </trkpt>
      <trkpt lat="60.099907929538" lon="23.605678006485">
        <ele>92.8</ele>
        <time>2014-06-24T18:57:58Z</time>
      </trkpt>
      <trkpt lat="60.099881610372" lon="23.605596366779">
        <ele>92.8</ele>
        <time>2014-06-24T18:58:04Z</time>
      </trkpt>
      <trkpt lat="60.099877922336" lon="23.605573484192">
        <ele>92.8</ele>
        <time>2014-06-24T18:58:05Z</time>
      </trkpt>
      <trkpt lat="60.099866271495" lon="23.605496203074">
        <ele>92.8</ele>
        <time>2014-06-24T18:58:09Z</time>
      </trkpt>
      <trkpt lat="60.09984238308" lon="23.60547223084">
        <ele>92.8</ele>
        <time>2014-06-24T18:58:13Z</time>
      </trkpt>
      <trkpt lat="60.099756720062" lon="23.605372234773">
        <ele>92.8</ele>
        <time>2014-06-24T18:58:20Z</time>
      </trkpt>
      <trkpt lat="60.099751439465" lon="23.605350106557">
        <ele>92.8</ele>
        <time>2014-06-24T18:58:21Z</time>
      </trkpt>
      <trkpt lat="60.099726377584" lon="23.605199567633">
        <ele>92.8</ele>
        <time>2014-06-24T18:58:26Z</time>
      </trkpt>
      <trkpt lat="60.099721767539" lon="23.605159669789">
        <ele>92.8</ele>
        <time>2014-06-24T18:58:27Z</time>
      </trkpt>
      <trkpt lat="60.099711373983" lon="23.605078952092">
        <ele>92.8</ele>
        <time>2014-06-24T18:58:29Z</time>
      </trkpt>
      <trkpt lat="60.099703327359" lon="23.604990858323">
        <ele>92.2</ele>
        <time>2014-06-24T18:58:33Z</time>
      </trkpt>
      <trkpt lat="60.099685893007" lon="23.604918690164">
        <ele>92</ele>
        <time>2014-06-24T18:58:35Z</time>
      </trkpt>
      <trkpt lat="60.099615065952" lon="23.604666059698">
        <ele>90.4</ele>
        <time>2014-06-24T18:58:41Z</time>
      </trkpt>
      <trkpt lat="60.099572904995" lon="23.604507977064">
        <ele>89.4</ele>
        <time>2014-06-24T18:58:44Z</time>
      </trkpt>
      <trkpt lat="60.099641720394" lon="23.604281833402">
        <ele>87.4</ele>
        <time>2014-06-24T18:58:49Z</time>
      </trkpt>
      <trkpt lat="60.099660160574" lon="23.60424009154">
        <ele>86.6</ele>
        <time>2014-06-24T18:58:51Z</time>
      </trkpt>
      <trkpt lat="60.0996730687" lon="23.604202875904">
        <ele>85.8</ele>
        <time>2014-06-24T18:58:53Z</time>
      </trkpt>
      <trkpt lat="60.099714894381" lon="23.604083266191">
        <ele>83.6</ele>
        <time>2014-06-24T18:58:59Z</time>
      </trkpt>
      <trkpt lat="60.099737441692" lon="23.604053091351">
        <ele>82.8</ele>
        <time>2014-06-24T18:59:01Z</time>
      </trkpt>
      <trkpt lat="60.099813549344" lon="23.603920657331">
        <ele>80.6</ele>
        <time>2014-06-24T18:59:08Z</time>
      </trkpt>
      <trkpt lat="60.099861912907" lon="23.603752600236">
        <ele>78.4</ele>
        <time>2014-06-24T18:59:16Z</time>
      </trkpt>
      <trkpt lat="60.099872474101" lon="23.603694094574">
        <ele>78</ele>
        <time>2014-06-24T18:59:18Z</time>
      </trkpt>
      <trkpt lat="60.099936176541" lon="23.603577167069">
        <ele>76.2</ele>
        <time>2014-06-24T18:59:24Z</time>
      </trkpt>
      <trkpt lat="60.100000549533" lon="23.603511536792">
        <ele>75</ele>
        <time>2014-06-24T18:59:29Z</time>
      </trkpt>
      <trkpt lat="60.100057630272" lon="23.603435261502">
        <ele>73.8</ele>
        <time>2014-06-24T18:59:34Z</time>
      </trkpt>
      <trkpt lat="60.100086883103" lon="23.603417743331">
        <ele>73.4</ele>
        <time>2014-06-24T18:59:36Z</time>
      </trkpt>
      <trkpt lat="60.100125942757" lon="23.603394693106">
        <ele>73</ele>
        <time>2014-06-24T18:59:39Z</time>
      </trkpt>
      <trkpt lat="60.100210767585" lon="23.603272987918">
        <ele>71.4</ele>
        <time>2014-06-24T18:59:47Z</time>
      </trkpt>
      <trkpt lat="60.100221412598" lon="23.603257984317">
        <ele>71.2</ele>
        <time>2014-06-24T18:59:48Z</time>
      </trkpt>
      <trkpt lat="60.100310596014" lon="23.603125969392">
        <ele>70.6</ele>
        <time>2014-06-24T18:59:55Z</time>
      </trkpt>
      <trkpt lat="60.100322246855" lon="23.603116330207">
        <ele>70.4</ele>
        <time>2014-06-24T18:59:56Z</time>
      </trkpt>
      <trkpt lat="60.100371364789" lon="23.603008036059">
        <ele>70.2</ele>
        <time>2014-06-24T19:00:02Z</time>
      </trkpt>
      <trkpt lat="60.10040816133" lon="23.602923714145">
        <ele>69.6</ele>
        <time>2014-06-24T19:00:06Z</time>
      </trkpt>
      <trkpt lat="60.100431295374" lon="23.602901585929">
        <ele>69.2</ele>
        <time>2014-06-24T19:00:08Z</time>
      </trkpt>
      <trkpt lat="60.100518467134" lon="23.602739899078">
        <ele>68.6</ele>
        <time>2014-06-24T19:00:13Z</time>
      </trkpt>
      <trkpt lat="60.100581415203" lon="23.602565555558">
        <ele>68.4</ele>
        <time>2014-06-24T19:00:17Z</time>
      </trkpt>
      <trkpt lat="60.100666742945" lon="23.602300016966">
        <ele>67.6</ele>
        <time>2014-06-24T19:00:23Z</time>
      </trkpt>
      <trkpt lat="60.100757099827" lon="23.602111172759">
        <ele>67</ele>
        <time>2014-06-24T19:00:27Z</time>
      </trkpt>
      <trkpt lat="60.100790208332" lon="23.602017714574">
        <ele>66.8</ele>
        <time>2014-06-24T19:00:29Z</time>
      </trkpt>
      <trkpt lat="60.100840080637" lon="23.601754774371">
        <ele>66.4</ele>
        <time>2014-06-24T19:00:34Z</time>
      </trkpt>
      <trkpt lat="60.100877044816" lon="23.601580011756">
        <ele>65.6</ele>
        <time>2014-06-24T19:00:38Z</time>
      </trkpt>
      <trkpt lat="60.100923899637" lon="23.601337523389">
        <ele>64.8</ele>
        <time>2014-06-24T19:00:43Z</time>
      </trkpt>
      <trkpt lat="60.100967736974" lon="23.601065363096">
        <ele>63.8</ele>
        <time>2014-06-24T19:00:48Z</time>
      </trkpt>
      <trkpt lat="60.101017106365" lon="23.60083536376">
        <ele>63</ele>
        <time>2014-06-24T19:00:53Z</time>
      </trkpt>
      <trkpt lat="60.101079216244" lon="23.600526155469">
        <ele>61.6</ele>
        <time>2014-06-24T19:00:59Z</time>
      </trkpt>
      <trkpt lat="60.101104110487" lon="23.600373437251">
        <ele>61</ele>
        <time>2014-06-24T19:01:02Z</time>
      </trkpt>
      <trkpt lat="60.1011901926" lon="23.600130613608">
        <ele>60</ele>
        <time>2014-06-24T19:01:08Z</time>
      </trkpt>
      <trkpt lat="60.101251212832" lon="23.599797768359">
        <ele>58.6</ele>
        <time>2014-06-24T19:01:15Z</time>
      </trkpt>
      <trkpt lat="60.10128490807" lon="23.599591908895">
        <ele>58.2</ele>
        <time>2014-06-24T19:01:19Z</time>
      </trkpt>
      <trkpt lat="60.101335115651" lon="23.599484704394">
        <ele>58</ele>
        <time>2014-06-24T19:01:22Z</time>
      </trkpt>
      <trkpt lat="60.101405020697" lon="23.599190248247">
        <ele>57</ele>
        <time>2014-06-24T19:01:29Z</time>
      </trkpt>
      <trkpt lat="60.101407870543" lon="23.599139453933">
        <ele>56.8</ele>
        <time>2014-06-24T19:01:30Z</time>
      </trkpt>
      <trkpt lat="60.101440392315" lon="23.598941138179">
        <ele>56.4</ele>
        <time>2014-06-24T19:01:34Z</time>
      </trkpt>
      <trkpt lat="60.101464699825" lon="23.598793700558">
        <ele>56.2</ele>
        <time>2014-06-24T19:01:37Z</time>
      </trkpt>
      <trkpt lat="60.10155480525" lon="23.598526317948">
        <ele>55.8</ele>
        <time>2014-06-24T19:01:43Z</time>
      </trkpt>
      <trkpt lat="60.101666116882" lon="23.598376449576">
        <ele>55.6</ele>
        <time>2014-06-24T19:01:47Z</time>
      </trkpt>
      <trkpt lat="60.10177357284" lon="23.598080065592">
        <ele>55.6</ele>
        <time>2014-06-24T19:01:52Z</time>
      </trkpt>
      <trkpt lat="60.101910868362" lon="23.597815449009">
        <ele>55.4</ele>
        <time>2014-06-24T19:01:57Z</time>
      </trkpt>
      <trkpt lat="60.102027879686" lon="23.597548569313">
        <ele>56.4</ele>
        <time>2014-06-24T19:02:03Z</time>
      </trkpt>
      <trkpt lat="60.102085211882" lon="23.597402724253">
        <ele>56.8</ele>
        <time>2014-06-24T19:02:07Z</time>
      </trkpt>
      <trkpt lat="60.102111111953" lon="23.597344134772">
        <ele>57</ele>
        <time>2014-06-24T19:02:11Z</time>
      </trkpt>
      <trkpt lat="60.102125277364" lon="23.597302141453">
        <ele>57</ele>
        <time>2014-06-24T19:02:12Z</time>
      </trkpt>
      <trkpt lat="60.102059898544" lon="23.597132827073">
        <ele>57.2</ele>
        <time>2014-06-24T19:02:16Z</time>
      </trkpt>
      <trkpt lat="60.101982868883" lon="23.597124109897">
        <ele>57.2</ele>
        <time>2014-06-24T19:02:19Z</time>
      </trkpt>
      <trkpt lat="60.101956884993" lon="23.597133413806">
        <ele>57.2</ele>
        <time>2014-06-24T19:02:20Z</time>
      </trkpt>
      <trkpt lat="60.101851356872" lon="23.597200049911">
        <ele>57.4</ele>
        <time>2014-06-24T19:02:25Z</time>
      </trkpt>
      <trkpt lat="60.101724538725" lon="23.597296693218">
        <ele>57.4</ele>
        <time>2014-06-24T19:02:31Z</time>
      </trkpt>
      <trkpt lat="60.101582297882" lon="23.597379590209">
        <ele>56.8</ele>
        <time>2014-06-24T19:02:37Z</time>
      </trkpt>
      <trkpt lat="60.101456150287" lon="23.59742644503">
        <ele>56.2</ele>
        <time>2014-06-24T19:02:42Z</time>
      </trkpt>
      <trkpt lat="60.101340899162" lon="23.597454272938">
        <ele>55.8</ele>
        <time>2014-06-24T19:02:47Z</time>
      </trkpt>
      <trkpt lat="60.101245010226" lon="23.597453602386">
        <ele>55.8</ele>
        <time>2014-06-24T19:02:51Z</time>
      </trkpt>
      <trkpt lat="60.101085502669" lon="23.597479753914">
        <ele>55.6</ele>
        <time>2014-06-24T19:02:57Z</time>
      </trkpt>
      <trkpt lat="60.100960863816" lon="23.597444969029">
        <ele>55.4</ele>
        <time>2014-06-24T19:03:02Z</time>
      </trkpt>
      <trkpt lat="60.100856509161" lon="23.597406747565">
        <ele>55.4</ele>
        <time>2014-06-24T19:03:07Z</time>
      </trkpt>
      <trkpt lat="60.100841086465" lon="23.597406244651">
        <ele>55.4</ele>
        <time>2014-06-24T19:03:08Z</time>
      </trkpt>
      <trkpt lat="60.100755507266" lon="23.597383278245">
        <ele>55.4</ele>
        <time>2014-06-24T19:03:12Z</time>
      </trkpt>
      <trkpt lat="60.100631874241" lon="23.597287556947">
        <ele>55.4</ele>
        <time>2014-06-24T19:03:17Z</time>
      </trkpt>
      <trkpt lat="60.100600693573" lon="23.59726383617">
        <ele>55.4</ele>
        <time>2014-06-24T19:03:18Z</time>
      </trkpt>
      <trkpt lat="60.100447137165" lon="23.597141879525">
        <ele>55.4</ele>
        <time>2014-06-24T19:03:23Z</time>
      </trkpt>
      <trkpt lat="60.100317301534" lon="23.597042386372">
        <ele>55.4</ele>
        <time>2014-06-24T19:03:28Z</time>
      </trkpt>
      <trkpt lat="60.100176904709" lon="23.596947335626">
        <ele>55.4</ele>
        <time>2014-06-24T19:03:33Z</time>
      </trkpt>
      <trkpt lat="60.100043129585" lon="23.596849602672">
        <ele>55.4</ele>
        <time>2014-06-24T19:03:38Z</time>
      </trkpt>
      <trkpt lat="60.099982612267" lon="23.596806268249">
        <ele>55.4</ele>
        <time>2014-06-24T19:03:40Z</time>
      </trkpt>
      <trkpt lat="60.099925615347" lon="23.596776177228">
        <ele>55.4</ele>
        <time>2014-06-24T19:03:42Z</time>
      </trkpt>
      <trkpt lat="60.099819081398" lon="23.596706104544">
        <ele>54.6</ele>
        <time>2014-06-24T19:03:46Z</time>
      </trkpt>
      <trkpt lat="60.099679522763" lon="23.596640306629">
        <ele>54.2</ele>
        <time>2014-06-24T19:03:51Z</time>
      </trkpt>
      <trkpt lat="60.09951632717" lon="23.596570988316">
        <ele>53.4</ele>
        <time>2014-06-24T19:03:56Z</time>
      </trkpt>
      <trkpt lat="60.099394873439" lon="23.596542741313">
        <ele>52.6</ele>
        <time>2014-06-24T19:04:00Z</time>
      </trkpt>
      <trkpt lat="60.09924978275" lon="23.596515583957">
        <ele>52</ele>
        <time>2014-06-24T19:04:05Z</time>
      </trkpt>
      <trkpt lat="60.099072840841" lon="23.596465544014">
        <ele>50.6</ele>
        <time>2014-06-24T19:04:11Z</time>
      </trkpt>
      <trkpt lat="60.098950968015" lon="23.596455653372">
        <ele>50</ele>
        <time>2014-06-24T19:04:16Z</time>
      </trkpt>
      <trkpt lat="60.098897407674" lon="23.59646839386">
        <ele>49.8</ele>
        <time>2014-06-24T19:04:19Z</time>
      </trkpt>
      <trkpt lat="60.098740498506" lon="23.596420030297">
        <ele>49.4</ele>
        <time>2014-06-24T19:04:25Z</time>
      </trkpt>
      <trkpt lat="60.098632791091" lon="23.596383820489">
        <ele>49.4</ele>
        <time>2014-06-24T19:04:29Z</time>
      </trkpt>
      <trkpt lat="60.098519216346" lon="23.596354819115">
        <ele>49.2</ele>
        <time>2014-06-24T19:04:34Z</time>
      </trkpt>
      <trkpt lat="60.098362642454" lon="23.596348867966">
        <ele>49.2</ele>
        <time>2014-06-24T19:04:40Z</time>
      </trkpt>
      <trkpt lat="60.098236075764" lon="23.596346772491">
        <ele>48.6</ele>
        <time>2014-06-24T19:04:44Z</time>
      </trkpt>
      <trkpt lat="60.098058295665" lon="23.596407625085">
        <ele>47.8</ele>
        <time>2014-06-24T19:04:50Z</time>
      </trkpt>
      <trkpt lat="60.097953438096" lon="23.596576436551">
        <ele>46.8</ele>
        <time>2014-06-24T19:04:55Z</time>
      </trkpt>
      <trkpt lat="60.097901386497" lon="23.596802747851">
        <ele>46.2</ele>
        <time>2014-06-24T19:04:59Z</time>
      </trkpt>
      <trkpt lat="60.097901386497" lon="23.596854715631">
        <ele>46</ele>
        <time>2014-06-24T19:05:00Z</time>
      </trkpt>
      <trkpt lat="60.09789023857" lon="23.597082954768">
        <ele>45.6</ele>
        <time>2014-06-24T19:05:04Z</time>
      </trkpt>
      <trkpt lat="60.097867691259" lon="23.597338183623">
        <ele>45.4</ele>
        <time>2014-06-24T19:05:09Z</time>
      </trkpt>
      <trkpt lat="60.097862997395" lon="23.597500373388">
        <ele>45.2</ele>
        <time>2014-06-24T19:05:12Z</time>
      </trkpt>
      <trkpt lat="60.097847407061" lon="23.597606320604">
        <ele>45.2</ele>
        <time>2014-06-24T19:05:14Z</time>
      </trkpt>
      <trkpt lat="60.097840533903" lon="23.597833218637">
        <ele>45.2</ele>
        <time>2014-06-24T19:05:18Z</time>
      </trkpt>
      <trkpt lat="60.09781899242" lon="23.598107809681">
        <ele>45</ele>
        <time>2014-06-24T19:05:23Z</time>
      </trkpt>
      <trkpt lat="60.097763923337" lon="23.598436799256">
        <ele>45</ele>
        <time>2014-06-24T19:05:29Z</time>
      </trkpt>
      <trkpt lat="60.097667112392" lon="23.599026465921">
        <ele>44</ele>
        <time>2014-06-24T19:05:40Z</time>
      </trkpt>
      <trkpt lat="60.097628639471" lon="23.599279096387">
        <ele>43.6</ele>
        <time>2014-06-24T19:05:45Z</time>
      </trkpt>
      <trkpt lat="60.09760944492" lon="23.599504904773">
        <ele>43.4</ele>
        <time>2014-06-24T19:05:49Z</time>
      </trkpt>
      <trkpt lat="60.097565775221" lon="23.59987479802">
        <ele>43</ele>
        <time>2014-06-24T19:05:55Z</time>
      </trkpt>
      <trkpt lat="60.097538031132" lon="23.600179815361">
        <ele>42.2</ele>
        <time>2014-06-24T19:06:00Z</time>
      </trkpt>
      <trkpt lat="60.097517914572" lon="23.600550882074">
        <ele>41.4</ele>
        <time>2014-06-24T19:06:07Z</time>
      </trkpt>
      <trkpt lat="60.097550017249" lon="23.600780294677">
        <ele>41.2</ele>
        <time>2014-06-24T19:06:11Z</time>
      </trkpt>
      <trkpt lat="60.09769829306" lon="23.600928989583">
        <ele>40.2</ele>
        <time>2014-06-24T19:06:17Z</time>
      </trkpt>
      <trkpt lat="60.097826452311" lon="23.601095537936">
        <ele>39.4</ele>
        <time>2014-06-24T19:06:23Z</time>
      </trkpt>
      <trkpt lat="60.097842294102" lon="23.60114046492">
        <ele>39.4</ele>
        <time>2014-06-24T19:06:24Z</time>
      </trkpt>
      <trkpt lat="60.097831146175" lon="23.601311874775">
        <ele>38.8</ele>
        <time>2014-06-24T19:06:27Z</time>
      </trkpt>
      <trkpt lat="60.09782737432" lon="23.601376331586">
        <ele>38.6</ele>
        <time>2014-06-24T19:06:28Z</time>
      </trkpt>
      <trkpt lat="60.097811113434" lon="23.60160733675">
        <ele>38</ele>
        <time>2014-06-24T19:06:32Z</time>
      </trkpt>
      <trkpt lat="60.097815472022" lon="23.601870109315">
        <ele>37.4</ele>
        <time>2014-06-24T19:06:37Z</time>
      </trkpt>
      <trkpt lat="60.097775741816" lon="23.602162134711">
        <ele>36.8</ele>
        <time>2014-06-24T19:06:42Z</time>
      </trkpt>
      <trkpt lat="60.097686726038" lon="23.602322396639">
        <ele>36</ele>
        <time>2014-06-24T19:06:46Z</time>
      </trkpt>
      <trkpt lat="60.097552280362" lon="23.602531357406">
        <ele>35.2</ele>
        <time>2014-06-24T19:06:52Z</time>
      </trkpt>
      <trkpt lat="60.097487152999" lon="23.602747778064">
        <ele>34.2</ele>
        <time>2014-06-24T19:06:56Z</time>
      </trkpt>
      <trkpt lat="60.097467120258" lon="23.603035444872">
        <ele>33.4</ele>
        <time>2014-06-24T19:07:01Z</time>
      </trkpt>
      <trkpt lat="60.097468461362" lon="23.603194365696">
        <ele>33</ele>
        <time>2014-06-24T19:07:05Z</time>
      </trkpt>
    </trkseg>
  </trk>
</gpx>